Wetterdaten: aktuell Samstag, 03.06.2023 16:54
Datum Zeit Temp. A. Feuchte A. Luftdruck Regen Wind Richtung Richtung Taupunkt Windchill Windben Empfang
03.06.2023 16:54 20,5 C 52 % 1015,2 hPa 0,0 l/m 6,4 km/h (2 Bft) O 90 10,3 C 20,5 C 11,3 km/h (2 Bft) 95,65 %
03.06.2023 16:53 20,5 C 50 % 1015,1 hPa 0,0 l/m 3,2 km/h (1 Bft) O 90 9,7 C 20,5 C 8,0 km/h (2 Bft) 95,65 %
03.06.2023 16:52 20,6 C 50 % 1015,1 hPa 0,0 l/m 3,2 km/h (1 Bft) O 90 9,8 C 20,6 C 8,0 km/h (2 Bft) 100,00 %
03.06.2023 16:51 20,6 C 51 % 1015,1 hPa 0,0 l/m 3,2 km/h (1 Bft) NO 45 10,1 C 20,6 C 6,4 km/h (2 Bft) 91,30 %
03.06.2023 16:50 20,4 C 52 % 1015,1 hPa 0,0 l/m 3,2 km/h (1 Bft) NO 45 10,2 C 20,4 C 9,7 km/h (2 Bft) 100,00 %
03.06.2023 16:49 20,4 C 52 % 1015,1 hPa 0,0 l/m 1,6 km/h (1 Bft) NO 45 10,2 C 20,4 C 6,4 km/h (2 Bft) 95,65 %
03.06.2023 16:48 20,3 C 54 % 1015,1 hPa 0,0 l/m 4,8 km/h (1 Bft) O 90 10,7 C 20,3 C 8,0 km/h (2 Bft) 100,00 %
03.06.2023 16:47 20,3 C 52 % 1015,2 hPa 0,0 l/m 6,4 km/h (2 Bft) O 90 10,1 C 20,3 C 9,7 km/h (2 Bft) 95,65 %
03.06.2023 16:46 20,3 C 52 % 1015,1 hPa 0,0 l/m 11,3 km/h (2 Bft) O-NO 67 10,1 C 18,6 C 19,3 km/h (3 Bft) 91,30 %
03.06.2023 16:45 20,3 C 52 % 1015,2 hPa 0,0 l/m 3,2 km/h (1 Bft) O 90 10,1 C 20,3 C 8,0 km/h (2 Bft) 100,00 %
03.06.2023 16:44 20,3 C 53 % 1015,2 hPa 0,0 l/m 4,8 km/h (1 Bft) O 90 10,4 C 20,3 C 6,4 km/h (2 Bft) 100,00 %
03.06.2023 16:43 20,3 C 52 % 1015,2 hPa 0,0 l/m 4,8 km/h (1 Bft) O 90 10,1 C 20,3 C 11,3 km/h (2 Bft) 100,00 %
03.06.2023 16:42 20,3 C 52 % 1015,2 hPa 0,0 l/m 4,8 km/h (1 Bft) NO 45 10,1 C 20,3 C 6,4 km/h (2 Bft) 95,65 %
03.06.2023 16:41 20,3 C 51 % 1015,2 hPa 0,0 l/m 6,4 km/h (2 Bft) O 90 9,8 C 20,3 C 11,3 km/h (2 Bft) 95,65 %
03.06.2023 16:40 20,3 C 52 % 1015,4 hPa 0,0 l/m 3,2 km/h (1 Bft) O-NO 67 10,1 C 20,3 C 6,4 km/h (2 Bft) 95,65 %
03.06.2023 16:39 20,3 C 52 % 1015,3 hPa 0,0 l/m 6,4 km/h (2 Bft) O 90 10,1 C 20,3 C 11,3 km/h (2 Bft) 91,30 %
03.06.2023 16:38 20,4 C 51 % 1015,4 hPa 0,0 l/m 6,4 km/h (2 Bft) O 90 9,9 C 20,4 C 9,7 km/h (2 Bft) 95,65 %
03.06.2023 16:37 20,6 C 50 % 1015,3 hPa 0,0 l/m 9,7 km/h (2 Bft) O-NO 67 9,8 C 19,4 C 14,5 km/h (3 Bft) 95,65 %
03.06.2023 16:36 20,7 C 51 % 1015,4 hPa 0,0 l/m 6,4 km/h (2 Bft) O-NO 67 10,2 C 20,7 C 14,5 km/h (3 Bft) 100,00 %
03.06.2023 16:35 20,7 C 52 % 1015,3 hPa 0,0 l/m 4,8 km/h (1 Bft) O 90 10,5 C 20,7 C 9,7 km/h (2 Bft) 100,00 %
03.06.2023 16:34 20,6 C 52 % 1015,3 hPa 0,0 l/m 3,2 km/h (1 Bft) O-NO 67 10,4 C 20,6 C 8,0 km/h (2 Bft) 100,00 %
03.06.2023 16:33 20,6 C 52 % 1015,4 hPa 0,0 l/m 4,8 km/h (1 Bft) O-NO 67 10,4 C 20,6 C 9,7 km/h (2 Bft) 95,65 %
03.06.2023 16:32 20,4 C 53 % 1015,4 hPa 0,0 l/m 3,2 km/h (1 Bft) O 90 10,5 C 20,4 C 6,4 km/h (2 Bft) 91,30 %
03.06.2023 16:31 20,4 C 52 % 1015,3 hPa 0,0 l/m 6,4 km/h (2 Bft) NO 45 10,2 C 20,4 C 12,9 km/h (3 Bft) 100,00 %
03.06.2023 16:30 20,6 C 52 % 1015,3 hPa 0,0 l/m 8,0 km/h (2 Bft) O-NO 67 10,4 C 20,0 C 12,9 km/h (3 Bft) 95,65 %
03.06.2023 16:29 20,6 C 51 % 1015,3 hPa 0,0 l/m 6,4 km/h (2 Bft) NO 45 10,1 C 20,6 C 11,3 km/h (2 Bft) 95,65 %
03.06.2023 16:28 20,6 C 51 % 1015,4 hPa 0,0 l/m 4,8 km/h (1 Bft) NO 45 10,1 C 20,6 C 9,7 km/h (2 Bft) 100,00 %
03.06.2023 16:27 20,6 C 52 % 1015,3 hPa 0,0 l/m 3,2 km/h (1 Bft) O-SO 112 10,4 C 20,6 C 9,7 km/h (2 Bft) 95,65 %
03.06.2023 16:26 20,6 C 53 % 1015,3 hPa 0,0 l/m 3,2 km/h (1 Bft) O 90 10,7 C 20,6 C 6,4 km/h (2 Bft) 95,65 %
03.06.2023 16:25 20,5 C 51 % 1015,4 hPa 0,0 l/m 0,0 km/h (0 Bft) NO 45 10,0 C 20,5 C 3,2 km/h (1 Bft) 91,30 %
03.06.2023 16:24 20,5 C 50 % 1015,3 hPa 0,0 l/m 6,4 km/h (2 Bft) NO 45 9,7 C 20,5 C 16,1 km/h (3 Bft) 100,00 %
03.06.2023 16:23 20,6 C 51 % 1015,4 hPa 0,0 l/m 3,2 km/h (1 Bft) O 90 10,1 C 20,6 C 6,4 km/h (2 Bft) 95,65 %
03.06.2023 16:22 20,5 C 52 % 1015,3 hPa 0,0 l/m 3,2 km/h (1 Bft) O 90 10,3 C 20,5 C 8,0 km/h (2 Bft) 91,30 %
03.06.2023 16:21 20,5 C 52 % 1015,3 hPa 0,0 l/m 4,8 km/h (1 Bft) O-NO 67 10,3 C 20,5 C 8,0 km/h (2 Bft) 95,65 %
03.06.2023 16:20 20,4 C 52 % 1015,3 hPa 0,0 l/m 3,2 km/h (1 Bft) O-SO 112 10,2 C 20,4 C 9,7 km/h (2 Bft) 95,65 %
03.06.2023 16:19 20,5 C 51 % 1015,4 hPa 0,0 l/m 4,8 km/h (1 Bft) O 90 10,0 C 20,5 C 11,3 km/h (2 Bft) 95,65 %
03.06.2023 16:18 20,5 C 52 % 1015,4 hPa 0,0 l/m 8,0 km/h (2 Bft) NO 45 10,3 C 19,9 C 12,9 km/h (3 Bft) 95,65 %
03.06.2023 16:17 20,5 C 51 % 1015,4 hPa 0,0 l/m 4,8 km/h (1 Bft) O-NO 67 10,0 C 20,5 C 9,7 km/h (2 Bft) 100,00 %
03.06.2023 16:16 20,6 C 51 % 1015,4 hPa 0,0 l/m 8,0 km/h (2 Bft) NO 45 10,1 C 20,0 C 11,3 km/h (2 Bft) 100,00 %
03.06.2023 16:15 20,4 C 52 % 1015,4 hPa 0,0 l/m 1,6 km/h (1 Bft) O-NO 67 10,2 C 20,4 C 4,8 km/h (1 Bft) 91,30 %
03.06.2023 16:14 20,4 C 51 % 1015,5 hPa 0,0 l/m 4,8 km/h (1 Bft) NO 45 9,9 C 20,4 C 6,4 km/h (2 Bft) 95,65 %
03.06.2023 16:13 20,3 C 51 % 1015,4 hPa 0,0 l/m 1,6 km/h (1 Bft) O 90 9,8 C 20,3 C 4,8 km/h (1 Bft) 95,65 %
03.06.2023 16:12 20,4 C 51 % 1015,4 hPa 0,0 l/m 8,0 km/h (2 Bft) O-NO 67 9,9 C 19,8 C 14,5 km/h (3 Bft) 95,65 %
03.06.2023 16:11 20,5 C 51 % 1015,5 hPa 0,0 l/m 4,8 km/h (1 Bft) O-NO 67 10,0 C 20,5 C 12,9 km/h (3 Bft) 95,65 %
03.06.2023 16:10 20,6 C 50 % 1015,4 hPa 0,0 l/m 3,2 km/h (1 Bft) O 90 9,8 C 20,6 C 6,4 km/h (2 Bft) 91,30 %
03.06.2023 16:09 20,6 C 50 % 1015,5 hPa 0,0 l/m 4,8 km/h (1 Bft) NO 45 9,8 C 20,6 C 9,7 km/h (2 Bft) 100,00 %
03.06.2023 16:08 20,8 C 49 % 1015,5 hPa 0,0 l/m 9,7 km/h (2 Bft) NO 45 9,7 C 19,6 C 16,1 km/h (3 Bft) 100,00 %
03.06.2023 16:07 21,0 C 51 % 1015,5 hPa 0,0 l/m 4,8 km/h (1 Bft) NO 45 10,5 C 21,0 C 11,3 km/h (2 Bft) 95,65 %
03.06.2023 16:06 21,1 C 50 % 1015,4 hPa 0,0 l/m 8,0 km/h (2 Bft) N-NO 22 10,3 C 20,5 C 19,3 km/h (3 Bft) 91,30 %
03.06.2023 16:05 21,0 C 52 % 1015,5 hPa 0,0 l/m 3,2 km/h (1 Bft) N-NO 22 10,8 C 21,0 C 6,4 km/h (2 Bft) 95,65 %
03.06.2023 16:04 20,8 C 53 % 1015,4 hPa 0,0 l/m 3,2 km/h (1 Bft) O 90 10,9 C 20,8 C 9,7 km/h (2 Bft) 95,65 %
03.06.2023 16:03 20,6 C 53 % 1015,4 hPa 0,0 l/m 1,6 km/h (1 Bft) N-NO 22 10,7 C 20,6 C 3,2 km/h (1 Bft) 95,65 %
03.06.2023 16:02 20,4 C 53 % 1015,5 hPa 0,0 l/m 1,6 km/h (1 Bft) O-NO 67 10,5 C 20,4 C 3,2 km/h (1 Bft) 100,00 %
03.06.2023 16:01 20,3 C 52 % 1015,4 hPa 0,0 l/m 1,6 km/h (1 Bft) O-SO 112 10,1 C 20,3 C 6,4 km/h (2 Bft) 95,65 %
03.06.2023 16:00 20,3 C 51 % 1015,4 hPa 0,0 l/m 6,4 km/h (2 Bft) O-NO 67 9,8 C 20,3 C 11,3 km/h (2 Bft) 95,65 %
03.06.2023 15:59 20,3 C 51 % 1015,3 hPa 0,0 l/m 6,4 km/h (2 Bft) NO 45 9,8 C 20,3 C 16,1 km/h (3 Bft) 100,00 %
03.06.2023 15:58 20,4 C 51 % 1015,4 hPa 0,0 l/m 4,8 km/h (1 Bft) N-NO 22 9,9 C 20,4 C 11,3 km/h (2 Bft) 91,30 %
03.06.2023 15:57 20,4 C 51 % 1015,4 hPa 0,0 l/m 4,8 km/h (1 Bft) NO 45 9,9 C 20,4 C 11,3 km/h (2 Bft) 100,00 %
03.06.2023 15:56 20,3 C 51 % 1015,4 hPa 0,0 l/m 4,8 km/h (1 Bft) O-NO 67 9,8 C 20,3 C 8,0 km/h (2 Bft) 91,30 %
03.06.2023 15:55 20,4 C 51 % 1015,5 hPa 0,0 l/m 4,8 km/h (1 Bft) NO 45 9,9 C 20,4 C 11,3 km/h (2 Bft) 100,00 %
03.06.2023 15:54 20,3 C 51 % 1015,4 hPa 0,0 l/m 4,8 km/h (1 Bft) NO 45 9,8 C 20,3 C 8,0 km/h (2 Bft) 91,30 %
03.06.2023 15:53 20,3 C 51 % 1015,4 hPa 0,0 l/m 6,4 km/h (2 Bft) NO 45 9,8 C 20,3 C 16,1 km/h (3 Bft) 91,30 %
03.06.2023 15:52 20,2 C 51 % 1015,4 hPa 0,0 l/m 6,4 km/h (2 Bft) NO 45 9,7 C 20,2 C 9,7 km/h (2 Bft) 95,65 %
03.06.2023 15:51 20,2 C 52 % 1015,4 hPa 0,0 l/m 4,8 km/h (1 Bft) NO 45 10,0 C 20,2 C 14,5 km/h (3 Bft) 95,65 %
03.06.2023 15:50 20,2 C 51 % 1015,4 hPa 0,0 l/m 6,4 km/h (2 Bft) NO 45 9,7 C 20,2 C 12,9 km/h (3 Bft) 100,00 %
03.06.2023 15:49 20,2 C 51 % 1015,4 hPa 0,0 l/m 6,4 km/h (2 Bft) O 90 9,7 C 20,2 C 12,9 km/h (3 Bft) 91,30 %
03.06.2023 15:48 20,3 C 51 % 1015,4 hPa 0,0 l/m 4,8 km/h (1 Bft) O 90 9,8 C 20,3 C 11,3 km/h (2 Bft) 91,30 %
03.06.2023 15:47 20,2 C 51 % 1015,5 hPa 0,0 l/m 4,8 km/h (1 Bft) O-NO 67 9,7 C 20,2 C 11,3 km/h (2 Bft) 95,65 %
03.06.2023 15:46 20,3 C 51 % 1015,4 hPa 0,0 l/m 6,4 km/h (2 Bft) O-NO 67 9,8 C 20,3 C 14,5 km/h (3 Bft) 100,00 %
03.06.2023 15:45 20,3 C 51 % 1015,6 hPa 0,0 l/m 6,4 km/h (2 Bft) O 90 9,8 C 20,3 C 20,9 km/h (4 Bft) 100,00 %
03.06.2023 15:44 20,4 C 51 % 1015,6 hPa 0,0 l/m 6,4 km/h (2 Bft) NO 45 9,9 C 20,4 C 14,5 km/h (3 Bft) 91,30 %
03.06.2023 15:43 20,4 C 51 % 1015,4 hPa 0,0 l/m 6,4 km/h (2 Bft) NO 45 9,9 C 20,4 C 12,9 km/h (3 Bft) 100,00 %
03.06.2023 15:42 20,4 C 50 % 1015,6 hPa 0,0 l/m 4,8 km/h (1 Bft) O-NO 67 9,6 C 20,4 C 11,3 km/h (2 Bft) 100,00 %
03.06.2023 15:41 20,5 C 50 % 1015,5 hPa 0,0 l/m 6,4 km/h (2 Bft) O-NO 67 9,7 C 20,5 C 11,3 km/h (2 Bft) 91,30 %
03.06.2023 15:40 20,6 C 51 % 1015,6 hPa 0,0 l/m 8,0 km/h (2 Bft) O-NO 67 10,1 C 20,0 C 16,1 km/h (3 Bft) 100,00 %
03.06.2023 15:39 20,6 C 52 % 1015,6 hPa 0,0 l/m 6,4 km/h (2 Bft) N-NO 22 10,4 C 20,6 C 11,3 km/h (2 Bft) 95,65 %
03.06.2023 15:38 20,7 C 51 % 1015,7 hPa 0,0 l/m 3,2 km/h (1 Bft) NO 45 10,2 C 20,7 C 11,3 km/h (2 Bft) 100,00 %
03.06.2023 15:37 20,6 C 52 % 1015,7 hPa 0,0 l/m 3,2 km/h (1 Bft) NO 45 10,4 C 20,6 C 6,4 km/h (2 Bft) 95,65 %
03.06.2023 15:36 20,6 C 51 % 1015,6 hPa 0,0 l/m 6,4 km/h (2 Bft) O 90 10,1 C 20,6 C 14,5 km/h (3 Bft) 100,00 %
03.06.2023 15:35 20,6 C 52 % 1015,5 hPa 0,0 l/m 6,4 km/h (2 Bft) O 90 10,4 C 20,6 C 12,9 km/h (3 Bft) 100,00 %
03.06.2023 15:34 20,3 C 52 % 1015,7 hPa 0,0 l/m 1,6 km/h (1 Bft) S-SW 202 10,1 C 20,3 C 4,8 km/h (1 Bft) 95,65 %
03.06.2023 15:33 20,1 C 53 % 1015,7 hPa 0,0 l/m 1,6 km/h (1 Bft) O 90 10,2 C 20,1 C 3,2 km/h (1 Bft) 95,65 %
03.06.2023 15:32 19,9 C 52 % 1015,7 hPa 0,0 l/m 1,6 km/h (1 Bft) O-NO 67 9,7 C 19,9 C 4,8 km/h (1 Bft) 95,65 %
03.06.2023 15:31 19,9 C 52 % 1015,7 hPa 0,0 l/m 3,2 km/h (1 Bft) NO 45 9,7 C 19,9 C 8,0 km/h (2 Bft) 100,00 %
03.06.2023 15:30 19,9 C 51 % 1015,8 hPa 0,0 l/m 4,8 km/h (1 Bft) O-NO 67 9,5 C 19,9 C 12,9 km/h (3 Bft) 91,30 %
03.06.2023 15:29 19,9 C 52 % 1015,7 hPa 0,0 l/m 6,4 km/h (2 Bft) NO 45 9,7 C 19,9 C 12,9 km/h (3 Bft) 100,00 %
03.06.2023 15:28 19,9 C 50 % 1015,8 hPa 0,0 l/m 6,4 km/h (2 Bft) O-SO 112 9,2 C 19,9 C 16,1 km/h (3 Bft) 95,65 %
03.06.2023 15:27 20,1 C 51 % 1015,7 hPa 0,0 l/m 6,4 km/h (2 Bft) O-NO 67 9,6 C 20,1 C 12,9 km/h (3 Bft) 95,65 %
03.06.2023 15:26 20,2 C 51 % 1015,8 hPa 0,0 l/m 6,4 km/h (2 Bft) NO 45 9,7 C 20,2 C 14,5 km/h (3 Bft) 100,00 %
03.06.2023 15:25 20,2 C 51 % 1015,9 hPa 0,0 l/m 6,4 km/h (2 Bft) O-NO 67 9,7 C 20,2 C 8,0 km/h (2 Bft) 95,65 %
03.06.2023 15:24 20,3 C 51 % 1015,8 hPa 0,0 l/m 6,4 km/h (2 Bft) NO 45 9,8 C 20,3 C 11,3 km/h (2 Bft) 91,30 %
03.06.2023 15:23 20,2 C 50 % 1015,8 hPa 0,0 l/m 1,6 km/h (1 Bft) N-NW 337 9,4 C 20,2 C 6,4 km/h (2 Bft) 95,65 %
03.06.2023 15:22 20,1 C 50 % 1015,8 hPa 0,0 l/m 4,8 km/h (1 Bft) N-NO 22 9,3 C 20,1 C 11,3 km/h (2 Bft) 95,65 %
03.06.2023 15:21 20,1 C 52 % 1015,8 hPa 0,0 l/m 3,2 km/h (1 Bft) O-NO 67 9,9 C 20,1 C 6,4 km/h (2 Bft) 95,65 %
03.06.2023 15:20 19,9 C 53 % 1015,9 hPa 0,0 l/m 4,8 km/h (1 Bft) NO 45 10,0 C 19,9 C 8,0 km/h (2 Bft) 100,00 %
03.06.2023 15:19 19,9 C 51 % 1015,8 hPa 0,0 l/m 4,8 km/h (1 Bft) N-NO 22 9,5 C 19,9 C 8,0 km/h (2 Bft) 95,65 %
03.06.2023 15:18 19,9 C 52 % 1015,9 hPa 0,0 l/m 6,4 km/h (2 Bft) O 90 9,7 C 19,9 C 14,5 km/h (3 Bft) 95,65 %
03.06.2023 15:17 19,9 C 51 % 1015,9 hPa 0,0 l/m 6,4 km/h (2 Bft) NO 45 9,5 C 19,9 C 14,5 km/h (3 Bft) 91,30 %
03.06.2023 15:16 20,0 C 51 % 1015,9 hPa 0,0 l/m 8,0 km/h (2 Bft) NO 45 9,6 C 19,4 C 16,1 km/h (3 Bft) 100,00 %
03.06.2023 15:15 20,1 C 51 % 1015,9 hPa 0,0 l/m 8,0 km/h (2 Bft) O-NO 67 9,6 C 19,5 C 16,1 km/h (3 Bft) 95,65 %
03.06.2023 15:14 20,1 C 51 % 1015,8 hPa 0,0 l/m 4,8 km/h (1 Bft) N-NO 22 9,6 C 20,1 C 4,8 km/h (1 Bft) 95,65 %
03.06.2023 15:13 20,2 C 51 % 1015,8 hPa 0,0 l/m 4,8 km/h (1 Bft) O-NO 67 9,7 C 20,2 C 8,0 km/h (2 Bft) 100,00 %
03.06.2023 15:12 20,3 C 50 % 1015,9 hPa 0,0 l/m 8,0 km/h (2 Bft) O-NO 67 9,5 C 19,7 C 11,3 km/h (2 Bft) 91,30 %
03.06.2023 15:11 20,3 C 51 % 1015,9 hPa 0,0 l/m 3,2 km/h (1 Bft) NO 45 9,8 C 20,3 C 6,4 km/h (2 Bft) 100,00 %
03.06.2023 15:10 20,3 C 51 % 1015,9 hPa 0,0 l/m 6,4 km/h (2 Bft) NO 45 9,8 C 20,3 C 11,3 km/h (2 Bft) 95,65 %
03.06.2023 15:09 20,4 C 51 % 1015,8 hPa 0,0 l/m 6,4 km/h (2 Bft) O 90 9,9 C 20,4 C 19,3 km/h (3 Bft) 100,00 %
03.06.2023 15:08 20,6 C 50 % 1015,9 hPa 0,0 l/m 6,4 km/h (2 Bft) NO 45 9,8 C 20,6 C 17,7 km/h (3 Bft) 95,65 %
03.06.2023 15:07 20,6 C 50 % 1015,8 hPa 0,0 l/m 4,8 km/h (1 Bft) N-NO 22 9,8 C 20,6 C 9,7 km/h (2 Bft) 91,30 %
03.06.2023 15:06 20,7 C 50 % 1015,9 hPa 0,0 l/m 6,4 km/h (2 Bft) NO 45 9,9 C 20,7 C 11,3 km/h (2 Bft) 100,00 %
03.06.2023 15:05 20,8 C 51 % 1016,0 hPa 0,0 l/m 4,8 km/h (1 Bft) NO 45 10,3 C 20,8 C 12,9 km/h (3 Bft) 91,30 %
03.06.2023 15:04 20,7 C 51 % 1015,9 hPa 0,0 l/m 3,2 km/h (1 Bft) N-NO 22 10,2 C 20,7 C 6,4 km/h (2 Bft) 95,65 %
03.06.2023 15:03 20,7 C 52 % 1016,0 hPa 0,0 l/m 6,4 km/h (2 Bft) NO 45 10,5 C 20,7 C 11,3 km/h (2 Bft) 95,65 %
03.06.2023 15:02 20,7 C 50 % 1016,0 hPa 0,0 l/m 4,8 km/h (1 Bft) NO 45 9,9 C 20,7 C 6,4 km/h (2 Bft) 95,65 %
03.06.2023 15:01 20,6 C 50 % 1015,9 hPa 0,0 l/m 3,2 km/h (1 Bft) N 360 9,8 C 20,6 C 4,8 km/h (1 Bft) 91,30 %
03.06.2023 15:00 20,6 C 50 % 1015,9 hPa 0,0 l/m 4,8 km/h (1 Bft) O-NO 67 9,8 C 20,6 C 11,3 km/h (2 Bft) 91,30 %
03.06.2023 14:59 20,6 C 51 % 1016,0 hPa 0,0 l/m 3,2 km/h (1 Bft) O-NO 67 10,1 C 20,6 C 12,9 km/h (3 Bft) 100,00 %
03.06.2023 14:58 20,6 C 51 % 1016,1 hPa 0,0 l/m 4,8 km/h (1 Bft) N-NO 22 10,1 C 20,6 C 11,3 km/h (2 Bft) 95,65 %
03.06.2023 14:57 20,6 C 51 % 1016,1 hPa 0,0 l/m 6,4 km/h (2 Bft) NO 45 10,1 C 20,6 C 9,7 km/h (2 Bft) 100,00 %
03.06.2023 14:56 20,6 C 52 % 1016,1 hPa 0,0 l/m 4,8 km/h (1 Bft) O-NO 67 10,4 C 20,6 C 9,7 km/h (2 Bft) 91,30 %
03.06.2023 14:55 20,4 C 52 % 1016,0 hPa 0,0 l/m 3,2 km/h (1 Bft) O-NO 67 10,2 C 20,4 C 4,8 km/h (1 Bft) 91,30 %
03.06.2023 14:54 20,4 C 52 % 1016,1 hPa 0,0 l/m 3,2 km/h (1 Bft) O-NO 67 10,2 C 20,4 C 11,3 km/h (2 Bft) 100,00 %
03.06.2023 14:53 20,5 C 51 % 1016,1 hPa 0,0 l/m 4,8 km/h (1 Bft) O 90 10,0 C 20,5 C 11,3 km/h (2 Bft) 95,65 %
03.06.2023 14:52 20,5 C 51 % 1016,1 hPa 0,0 l/m 3,2 km/h (1 Bft) O 90 10,0 C 20,5 C 6,4 km/h (2 Bft) 100,00 %
03.06.2023 14:51 20,3 C 52 % 1016,1 hPa 0,0 l/m 1,6 km/h (1 Bft) O 90 10,1 C 20,3 C 1,6 km/h (1 Bft) 95,65 %
03.06.2023 14:50 20,3 C 53 % 1016,2 hPa 0,0 l/m 6,4 km/h (2 Bft) NO 45 10,4 C 20,3 C 9,7 km/h (2 Bft) 95,65 %
03.06.2023 14:49 20,2 C 53 % 1016,1 hPa 0,0 l/m 4,8 km/h (1 Bft) O 90 10,3 C 20,2 C 9,7 km/h (2 Bft) 100,00 %
03.06.2023 14:48 20,1 C 53 % 1016,1 hPa 0,0 l/m 6,4 km/h (2 Bft) N-NO 22 10,2 C 20,1 C 11,3 km/h (2 Bft) 95,65 %
03.06.2023 14:47 19,9 C 54 % 1016,1 hPa 0,0 l/m 3,2 km/h (1 Bft) O 90 10,3 C 19,9 C 6,4 km/h (2 Bft) 95,65 %
03.06.2023 14:46 19,8 C 53 % 1016,1 hPa 0,0 l/m 1,6 km/h (1 Bft) O-NO 67 9,9 C 19,8 C 3,2 km/h (1 Bft) 100,00 %
03.06.2023 14:45 19,8 C 52 % 1016,2 hPa 0,0 l/m 6,4 km/h (2 Bft) NO 45 9,7 C 19,8 C 14,5 km/h (3 Bft) 95,65 %
03.06.2023 14:44 19,8 C 53 % 1016,2 hPa 0,0 l/m 8,0 km/h (2 Bft) NO 45 9,9 C 19,1 C 12,9 km/h (3 Bft) 95,65 %
03.06.2023 14:43 19,8 C 52 % 1016,1 hPa 0,0 l/m 8,0 km/h (2 Bft) N-NO 22 9,7 C 19,1 C 14,5 km/h (3 Bft) 91,30 %
03.06.2023 14:42 19,7 C 52 % 1016,0 hPa 0,0 l/m 6,4 km/h (2 Bft) O-NO 67 9,6 C 19,7 C 14,5 km/h (3 Bft) 100,00 %
03.06.2023 14:41 19,7 C 53 % 1016,2 hPa 0,0 l/m 4,8 km/h (1 Bft) O-NO 67 9,8 C 19,7 C 8,0 km/h (2 Bft) 91,30 %
03.06.2023 14:40 19,7 C 53 % 1016,1 hPa 0,0 l/m 6,4 km/h (2 Bft) NO 45 9,8 C 19,7 C 11,3 km/h (2 Bft) 100,00 %
03.06.2023 14:39 19,7 C 53 % 1016,1 hPa 0,0 l/m 4,8 km/h (1 Bft) O-NO 67 9,8 C 19,7 C 14,5 km/h (3 Bft) 91,30 %
03.06.2023 14:38 19,7 C 53 % 1016,2 hPa 0,0 l/m 4,8 km/h (1 Bft) O 90 9,8 C 19,7 C 9,7 km/h (2 Bft) 100,00 %
03.06.2023 14:37 19,6 C 53 % 1016,3 hPa 0,0 l/m 3,2 km/h (1 Bft) O 90 9,8 C 19,6 C 11,3 km/h (2 Bft) 95,65 %
03.06.2023 14:36 19,6 C 53 % 1016,2 hPa 0,0 l/m 4,8 km/h (1 Bft) O 90 9,8 C 19,6 C 11,3 km/h (2 Bft) 95,65 %
03.06.2023 14:35 19,6 C 53 % 1016,3 hPa 0,0 l/m 4,8 km/h (1 Bft) O 90 9,8 C 19,6 C 9,7 km/h (2 Bft) 100,00 %
03.06.2023 14:34 19,6 C 53 % 1016,2 hPa 0,0 l/m 6,4 km/h (2 Bft) NO 45 9,8 C 19,6 C 14,5 km/h (3 Bft) 100,00 %
03.06.2023 14:33 19,6 C 52 % 1016,2 hPa 0,0 l/m 8,0 km/h (2 Bft) O-NO 67 9,5 C 18,9 C 12,9 km/h (3 Bft) 95,65 %
03.06.2023 14:32 19,7 C 54 % 1016,2 hPa 0,0 l/m 6,4 km/h (2 Bft) NO 45 10,1 C 19,7 C 12,9 km/h (3 Bft) 95,65 %
03.06.2023 14:31 19,7 C 54 % 1016,1 hPa 0,0 l/m 6,4 km/h (2 Bft) NO 45 10,1 C 19,7 C 12,9 km/h (3 Bft) 91,30 %
03.06.2023 14:30 19,7 C 54 % 1016,2 hPa 0,0 l/m 4,8 km/h (1 Bft) O-NO 67 10,1 C 19,7 C 9,7 km/h (2 Bft) 100,00 %
03.06.2023 14:29 19,6 C 53 % 1016,2 hPa 0,0 l/m 4,8 km/h (1 Bft) O 90 9,8 C 19,6 C 12,9 km/h (3 Bft) 95,65 %
03.06.2023 14:28 19,6 C 53 % 1016,2 hPa 0,0 l/m 4,8 km/h (1 Bft) O-NO 67 9,8 C 19,6 C 9,7 km/h (2 Bft) 100,00 %
03.06.2023 14:27 19,7 C 53 % 1016,2 hPa 0,0 l/m 11,3 km/h (2 Bft) NO 45 9,8 C 17,9 C 22,5 km/h (4 Bft) 95,65 %
03.06.2023 14:26 19,7 C 53 % 1016,1 hPa 0,0 l/m 4,8 km/h (1 Bft) NO 45 9,8 C 19,7 C 8,0 km/h (2 Bft) 95,65 %
03.06.2023 14:25 19,7 C 53 % 1016,2 hPa 0,0 l/m 6,4 km/h (2 Bft) O-NO 67 9,8 C 19,7 C 14,5 km/h (3 Bft) 95,65 %
03.06.2023 14:24 19,7 C 52 % 1016,2 hPa 0,0 l/m 4,8 km/h (1 Bft) NO 45 9,6 C 19,7 C 9,7 km/h (2 Bft) 95,65 %
03.06.2023 14:23 19,7 C 53 % 1016,2 hPa 0,0 l/m 4,8 km/h (1 Bft) NO 45 9,8 C 19,7 C 11,3 km/h (2 Bft) 100,00 %
03.06.2023 14:22 19,7 C 53 % 1016,3 hPa 0,0 l/m 4,8 km/h (1 Bft) O-NO 67 9,8 C 19,7 C 8,0 km/h (2 Bft) 95,65 %
03.06.2023 14:21 19,8 C 52 % 1016,2 hPa 0,0 l/m 6,4 km/h (2 Bft) O-NO 67 9,7 C 19,8 C 12,9 km/h (3 Bft) 100,00 %
03.06.2023 14:20 19,9 C 52 % 1016,2 hPa 0,0 l/m 8,0 km/h (2 Bft) NO 45 9,7 C 19,2 C 17,7 km/h (3 Bft) 91,30 %
03.06.2023 14:19 20,0 C 53 % 1016,2 hPa 0,0 l/m 8,0 km/h (2 Bft) N-NO 22 10,1 C 19,4 C 14,5 km/h (3 Bft) 100,00 %
03.06.2023 14:18 20,1 C 52 % 1016,3 hPa 0,0 l/m 6,4 km/h (2 Bft) O 90 9,9 C 20,1 C 16,1 km/h (3 Bft) 100,00 %
03.06.2023 14:17 20,0 C 53 % 1016,3 hPa 0,0 l/m 8,0 km/h (2 Bft) N-NO 22 10,1 C 19,4 C 12,9 km/h (3 Bft) 91,30 %
03.06.2023 14:16 19,9 C 53 % 1016,3 hPa 0,0 l/m 1,6 km/h (1 Bft) NO 45 10,0 C 19,9 C 6,4 km/h (2 Bft) 95,65 %
03.06.2023 14:15 19,9 C 54 % 1016,4 hPa 0,0 l/m 6,4 km/h (2 Bft) O-NO 67 10,3 C 19,9 C 14,5 km/h (3 Bft) 95,65 %
03.06.2023 14:14 19,8 C 54 % 1016,4 hPa 0,0 l/m 6,4 km/h (2 Bft) NO 45 10,2 C 19,8 C 14,5 km/h (3 Bft) 95,65 %
03.06.2023 14:13 19,8 C 54 % 1016,4 hPa 0,0 l/m 3,2 km/h (1 Bft) O 90 10,2 C 19,8 C 6,4 km/h (2 Bft) 100,00 %
03.06.2023 14:12 19,7 C 53 % 1016,4 hPa 0,0 l/m 4,8 km/h (1 Bft) NO 45 9,8 C 19,7 C 9,7 km/h (2 Bft) 95,65 %
03.06.2023 14:11 19,8 C 54 % 1016,3 hPa 0,0 l/m 4,8 km/h (1 Bft) NO 45 10,2 C 19,8 C 16,1 km/h (3 Bft) 95,65 %
03.06.2023 14:10 19,9 C 53 % 1016,4 hPa 0,0 l/m 4,8 km/h (1 Bft) O-NO 67 10,0 C 19,9 C 12,9 km/h (3 Bft) 95,65 %
03.06.2023 14:09 19,9 C 55 % 1016,5 hPa 0,0 l/m 8,0 km/h (2 Bft) NO 45 10,6 C 19,2 C 16,1 km/h (3 Bft) 95,65 %
03.06.2023 14:08 19,9 C 55 % 1016,4 hPa 0,0 l/m 4,8 km/h (1 Bft) N-NO 22 10,6 C 19,9 C 12,9 km/h (3 Bft) 95,65 %
03.06.2023 14:07 19,9 C 55 % 1016,4 hPa 0,0 l/m 3,2 km/h (1 Bft) N-NO 22 10,6 C 19,9 C 6,4 km/h (2 Bft) 95,65 %
03.06.2023 14:06 19,8 C 56 % 1016,3 hPa 0,0 l/m 4,8 km/h (1 Bft) O 90 10,8 C 19,8 C 8,0 km/h (2 Bft) 100,00 %
03.06.2023 14:05 19,7 C 57 % 1016,3 hPa 0,0 l/m 4,8 km/h (1 Bft) O 90 10,9 C 19,7 C 8,0 km/h (2 Bft) 91,30 %
03.06.2023 14:04 19,6 C 54 % 1016,3 hPa 0,0 l/m 3,2 km/h (1 Bft) O 90 10,0 C 19,6 C 6,4 km/h (2 Bft) 100,00 %
03.06.2023 14:03 19,7 C 54 % 1016,3 hPa 0,0 l/m 8,0 km/h (2 Bft) NO 45 10,1 C 19,0 C 12,9 km/h (3 Bft) 100,00 %
03.06.2023 14:02 19,7 C 56 % 1016,2 hPa 0,0 l/m 6,4 km/h (2 Bft) O-NO 67 10,7 C 19,7 C 14,5 km/h (3 Bft) 95,65 %
03.06.2023 14:01 19,6 C 56 % 1016,2 hPa 0,0 l/m 3,2 km/h (1 Bft) NO 45 10,6 C 19,6 C 8,0 km/h (2 Bft) 100,00 %
03.06.2023 14:00 19,4 C 55 % 1016,2 hPa 0,0 l/m 3,2 km/h (1 Bft) N-NO 22 10,1 C 19,4 C 8,0 km/h (2 Bft) 95,65 %
03.06.2023 13:59 19,3 C 57 % 1016,3 hPa 0,0 l/m 4,8 km/h (1 Bft) NO 45 10,6 C 19,3 C 12,9 km/h (3 Bft) 95,65 %
03.06.2023 13:58 19,2 C 54 % 1016,2 hPa 0,0 l/m 3,2 km/h (1 Bft) N 360 9,7 C 19,2 C 6,4 km/h (2 Bft) 91,30 %
03.06.2023 13:57 19,3 C 55 % 1016,3 hPa 0,0 l/m 9,7 km/h (2 Bft) O-NO 67 10,0 C 18,0 C 14,5 km/h (3 Bft) 95,65 %
03.06.2023 13:56 19,2 C 56 % 1016,3 hPa 0,0 l/m 3,2 km/h (1 Bft) NO 45 10,2 C 19,2 C 8,0 km/h (2 Bft) 95,65 %
03.06.2023 13:55 19,1 C 55 % 1016,5 hPa 0,0 l/m 8,0 km/h (2 Bft) NO 45 9,8 C 18,4 C 12,9 km/h (3 Bft) 95,65 %
03.06.2023 13:54 19,0 C 57 % 1016,5 hPa 0,0 l/m 3,2 km/h (1 Bft) NO 45 10,3 C 19,0 C 6,4 km/h (2 Bft) 100,00 %
03.06.2023 13:53 18,9 C 56 % 1016,4 hPa 0,0 l/m 4,8 km/h (1 Bft) O 90 9,9 C 18,9 C 8,0 km/h (2 Bft) 91,30 %
03.06.2023 13:52 19,1 C 55 % 1016,5 hPa 0,0 l/m 8,0 km/h (2 Bft) O-SO 112 9,8 C 18,4 C 11,3 km/h (2 Bft) 100,00 %
03.06.2023 13:51 19,3 C 56 % 1016,5 hPa 0,0 l/m 6,4 km/h (2 Bft) O-NO 67 10,3 C 19,3 C 12,9 km/h (3 Bft) 91,30 %
03.06.2023 13:50 19,3 C 56 % 1016,6 hPa 0,0 l/m 6,4 km/h (2 Bft) O 90 10,3 C 19,3 C 12,9 km/h (3 Bft) 95,65 %
03.06.2023 13:49 19,3 C 54 % 1016,6 hPa 0,0 l/m 6,4 km/h (2 Bft) NO 45 9,8 C 19,3 C 12,9 km/h (3 Bft) 100,00 %
03.06.2023 13:48 19,3 C 55 % 1016,6 hPa 0,0 l/m 4,8 km/h (1 Bft) NO 45 10,0 C 19,3 C 9,7 km/h (2 Bft) 95,65 %
03.06.2023 13:47 19,2 C 57 % 1016,6 hPa 0,0 l/m 4,8 km/h (1 Bft) O-NO 67 10,5 C 19,2 C 9,7 km/h (2 Bft) 100,00 %
03.06.2023 13:46 19,3 C 56 % 1016,6 hPa 0,0 l/m 8,0 km/h (2 Bft) O 90 10,3 C 18,6 C 16,1 km/h (3 Bft) 95,65 %
03.06.2023 13:45 19,3 C 54 % 1016,5 hPa 0,0 l/m 8,0 km/h (2 Bft) O-NO 67 9,8 C 18,6 C 17,7 km/h (3 Bft) 91,30 %
03.06.2023 13:44 19,4 C 56 % 1016,6 hPa 0,0 l/m 9,7 km/h (2 Bft) NO 45 10,4 C 18,1 C 12,9 km/h (3 Bft) 100,00 %
03.06.2023 13:43 19,4 C 57 % 1016,6 hPa 0,0 l/m 8,0 km/h (2 Bft) O-NO 67 10,7 C 18,7 C 19,3 km/h (3 Bft) 95,65 %
03.06.2023 13:42 19,4 C 55 % 1016,6 hPa 0,0 l/m 1,6 km/h (1 Bft) O 90 10,1 C 19,4 C 3,2 km/h (1 Bft) 100,00 %
03.06.2023 13:41 19,3 C 54 % 1016,7 hPa 0,0 l/m 4,8 km/h (1 Bft) O 90 9,8 C 19,3 C 16,1 km/h (3 Bft) 91,30 %
03.06.2023 13:40 19,4 C 56 % 1016,6 hPa 0,0 l/m 6,4 km/h (2 Bft) O 90 10,4 C 19,4 C 17,7 km/h (3 Bft) 100,00 %
03.06.2023 13:39 19,3 C 57 % 1016,6 hPa 0,0 l/m 4,8 km/h (1 Bft) O 90 10,6 C 19,3 C 11,3 km/h (2 Bft) 91,30 %
03.06.2023 13:38 19,4 C 54 % 1016,7 hPa 0,0 l/m 8,0 km/h (2 Bft) O 90 9,8 C 18,7 C 24,1 km/h (4 Bft) 91,30 %
03.06.2023 13:37 19,6 C 55 % 1016,6 hPa 0,0 l/m 9,7 km/h (2 Bft) O-SO 112 10,3 C 18,3 C 14,5 km/h (3 Bft) 95,65 %
03.06.2023 13:36 19,6 C 57 % 1016,7 hPa 0,0 l/m 4,8 km/h (1 Bft) NO 45 10,8 C 19,6 C 11,3 km/h (2 Bft) 91,30 %
03.06.2023 13:35 19,5 C 56 % 1016,7 hPa 0,0 l/m 6,4 km/h (2 Bft) O 90 10,5 C 19,5 C 12,9 km/h (3 Bft) 100,00 %
03.06.2023 13:34 19,6 C 54 % 1016,7 hPa 0,0 l/m 6,4 km/h (2 Bft) O 90 10,0 C 19,6 C 16,1 km/h (3 Bft) 91,30 %
03.06.2023 13:33 19,6 C 54 % 1016,7 hPa 0,0 l/m 6,4 km/h (2 Bft) N-NO 22 10,0 C 19,6 C 9,7 km/h (2 Bft) 95,65 %
03.06.2023 13:32 19,6 C 57 % 1016,7 hPa 0,0 l/m 6,4 km/h (2 Bft) O-NO 67 10,8 C 19,6 C 14,5 km/h (3 Bft) 100,00 %
03.06.2023 13:31 19,4 C 56 % 1016,7 hPa 0,0 l/m 4,8 km/h (1 Bft) O-NO 67 10,4 C 19,4 C 12,9 km/h (3 Bft) 100,00 %
03.06.2023 13:30 19,2 C 57 % 1016,8 hPa 0,0 l/m 1,6 km/h (1 Bft) O-NO 67 10,5 C 19,2 C 8,0 km/h (2 Bft) 100,00 %
03.06.2023 13:29 18,9 C 57 % 1016,8 hPa 0,0 l/m 1,6 km/h (1 Bft) N-NO 22 10,2 C 18,9 C 3,2 km/h (1 Bft) 91,30 %
03.06.2023 13:28 18,8 C 58 % 1016,8 hPa 0,0 l/m 4,8 km/h (1 Bft) O-NO 67 10,4 C 18,8 C 8,0 km/h (2 Bft) 100,00 %
03.06.2023 13:27 18,7 C 56 % 1016,7 hPa 0,0 l/m 8,0 km/h (2 Bft) O-NO 67 9,7 C 18,0 C 14,5 km/h (3 Bft) 95,65 %
03.06.2023 13:26 18,7 C 57 % 1016,8 hPa 0,0 l/m 6,4 km/h (2 Bft) O 90 10,0 C 18,7 C 12,9 km/h (3 Bft) 95,65 %
03.06.2023 13:25 18,7 C 57 % 1016,8 hPa 0,0 l/m 8,0 km/h (2 Bft) O-NO 67 10,0 C 18,0 C 14,5 km/h (3 Bft) 95,65 %
03.06.2023 13:24 18,7 C 56 % 1016,8 hPa 0,0 l/m 8,0 km/h (2 Bft) O-NO 67 9,7 C 18,0 C 14,5 km/h (3 Bft) 95,65 %
03.06.2023 13:23 18,7 C 56 % 1016,8 hPa 0,0 l/m 6,4 km/h (2 Bft) NO 45 9,7 C 18,7 C 14,5 km/h (3 Bft) 95,65 %
03.06.2023 13:22 18,8 C 55 % 1016,9 hPa 0,0 l/m 6,4 km/h (2 Bft) O-NO 67 9,6 C 18,8 C 14,5 km/h (3 Bft) 91,30 %
03.06.2023 13:21 18,9 C 55 % 1016,9 hPa 0,0 l/m 9,7 km/h (2 Bft) NO 45 9,7 C 17,5 C 25,7 km/h (4 Bft) 91,30 %
03.06.2023 13:20 19,0 C 55 % 1016,9 hPa 0,0 l/m 6,4 km/h (2 Bft) O 90 9,8 C 19,0 C 9,7 km/h (2 Bft) 100,00 %
03.06.2023 13:19 19,1 C 56 % 1016,8 hPa 0,0 l/m 9,7 km/h (2 Bft) O 90 10,1 C 17,8 C 17,7 km/h (3 Bft) 91,30 %
03.06.2023 13:18 19,3 C 55 % 1016,9 hPa 0,0 l/m 8,0 km/h (2 Bft) O-SO 112 10,0 C 18,6 C 17,7 km/h (3 Bft) 95,65 %
03.06.2023 13:17 19,3 C 57 % 1016,8 hPa 0,0 l/m 6,4 km/h (2 Bft) O 90 10,6 C 19,3 C 9,7 km/h (2 Bft) 95,65 %
03.06.2023 13:16 19,2 C 56 % 1016,8 hPa 0,0 l/m 8,0 km/h (2 Bft) NO 45 10,2 C 18,5 C 20,9 km/h (4 Bft) 100,00 %
03.06.2023 13:15 19,1 C 55 % 1016,8 hPa 0,0 l/m 3,2 km/h (1 Bft) O-NO 67 9,8 C 19,1 C 6,4 km/h (2 Bft) 95,65 %
03.06.2023 13:14 19,0 C 58 % 1016,8 hPa 0,0 l/m 4,8 km/h (1 Bft) O-NO 67 10,5 C 19,0 C 8,0 km/h (2 Bft) 91,30 %
03.06.2023 13:13 18,8 C 57 % 1016,8 hPa 0,0 l/m 1,6 km/h (1 Bft) O 90 10,1 C 18,8 C 4,8 km/h (1 Bft) 95,65 %
03.06.2023 13:12 18,8 C 56 % 1016,9 hPa 0,0 l/m 4,8 km/h (1 Bft) NO 45 9,8 C 18,8 C 9,7 km/h (2 Bft) 95,65 %
03.06.2023 13:11 18,7 C 59 % 1016,8 hPa 0,0 l/m 8,0 km/h (2 Bft) NO 45 10,5 C 18,0 C 14,5 km/h (3 Bft) 95,65 %
03.06.2023 13:10 18,7 C 59 % 1016,8 hPa 0,0 l/m 4,8 km/h (1 Bft) O 90 10,5 C 18,7 C 9,7 km/h (2 Bft) 95,65 %
03.06.2023 13:09 18,6 C 59 % 1016,9 hPa 0,0 l/m 4,8 km/h (1 Bft) O-NO 67 10,4 C 18,6 C 8,0 km/h (2 Bft) 100,00 %
03.06.2023 13:08 18,4 C 58 % 1016,8 hPa 0,0 l/m 4,8 km/h (1 Bft) O 90 10,0 C 18,4 C 9,7 km/h (2 Bft) 95,65 %
03.06.2023 13:07 18,3 C 56 % 1016,8 hPa 0,0 l/m 4,8 km/h (1 Bft) O 90 9,4 C 18,3 C 8,0 km/h (2 Bft) 91,30 %
03.06.2023 13:06 18,5 C 55 % 1016,9 hPa 0,0 l/m 12,9 km/h (3 Bft) O 90 9,3 C 16,0 C 20,9 km/h (4 Bft) 95,65 %
03.06.2023 13:05 18,6 C 56 % 1016,9 hPa 0,0 l/m 8,0 km/h (2 Bft) NO 45 9,6 C 17,9 C 17,7 km/h (3 Bft) 95,65 %
03.06.2023 13:04 18,6 C 56 % 1016,9 hPa 0,0 l/m 6,4 km/h (2 Bft) O-NO 67 9,6 C 18,6 C 11,3 km/h (2 Bft) 95,65 %
03.06.2023 13:03 18,6 C 56 % 1016,9 hPa 0,0 l/m 8,0 km/h (2 Bft) NO 45 9,6 C 17,9 C 12,9 km/h (3 Bft) 95,65 %
03.06.2023 13:02 18,5 C 57 % 1016,8 hPa 0,0 l/m 4,8 km/h (1 Bft) NO 45 9,8 C 18,5 C 9,7 km/h (2 Bft) 95,65 %
03.06.2023 13:01 18,4 C 58 % 1016,9 hPa 0,0 l/m 4,8 km/h (1 Bft) O-NO 67 10,0 C 18,4 C 12,9 km/h (3 Bft) 100,00 %
03.06.2023 13:00 18,2 C 58 % 1016,8 hPa 0,0 l/m 1,6 km/h (1 Bft) O-NO 67 9,8 C 18,2 C 6,4 km/h (2 Bft) 95,65 %
03.06.2023 12:59 18,2 C 57 % 1016,8 hPa 0,0 l/m 6,4 km/h (2 Bft) O-NO 67 9,5 C 18,2 C 11,3 km/h (2 Bft) 100,00 %
03.06.2023 12:58 18,2 C 56 % 1016,8 hPa 0,0 l/m 4,8 km/h (1 Bft) O-NO 67 9,3 C 18,2 C 9,7 km/h (2 Bft) 95,65 %
03.06.2023 12:57 18,3 C 55 % 1016,8 hPa 0,0 l/m 6,4 km/h (2 Bft) O-NO 67 9,1 C 18,3 C 9,7 km/h (2 Bft) 91,30 %
03.06.2023 12:56 18,3 C 56 % 1016,9 hPa 0,0 l/m 4,8 km/h (1 Bft) NO 45 9,4 C 18,3 C 9,7 km/h (2 Bft) 100,00 %
03.06.2023 12:55 18,3 C 56 % 1016,8 hPa 0,0 l/m 4,8 km/h (1 Bft) O 90 9,4 C 18,3 C 9,7 km/h (2 Bft) 91,30 %
03.06.2023 12:54 18,3 C 56 % 1016,8 hPa 0,0 l/m 8,0 km/h (2 Bft) O-NO 67 9,4 C 17,6 C 16,1 km/h (3 Bft) 95,65 %
03.06.2023 12:53 18,3 C 55 % 1016,9 hPa 0,0 l/m 6,4 km/h (2 Bft) NO 45 9,1 C 18,3 C 11,3 km/h (2 Bft) 91,30 %
03.06.2023 12:52 18,3 C 56 % 1016,9 hPa 0,0 l/m 8,0 km/h (2 Bft) NO 45 9,4 C 17,6 C 11,3 km/h (2 Bft) 100,00 %
03.06.2023 12:51 18,3 C 57 % 1016,8 hPa 0,0 l/m 8,0 km/h (2 Bft) NO 45 9,6 C 17,6 C 16,1 km/h (3 Bft) 95,65 %
03.06.2023 12:50 18,1 C 58 % 1016,7 hPa 0,0 l/m 3,2 km/h (1 Bft) NO 45 9,7 C 18,1 C 6,4 km/h (2 Bft) 91,30 %
03.06.2023 12:49 18,1 C 57 % 1016,8 hPa 0,0 l/m 6,4 km/h (2 Bft) O-NO 67 9,4 C 18,1 C 16,1 km/h (3 Bft) 100,00 %
03.06.2023 12:48 18,1 C 57 % 1016,8 hPa 0,0 l/m 4,8 km/h (1 Bft) O-NO 67 9,4 C 18,1 C 11,3 km/h (2 Bft) 95,65 %
03.06.2023 12:47 18,1 C 55 % 1016,7 hPa 0,0 l/m 8,0 km/h (2 Bft) O 90 8,9 C 17,4 C 20,9 km/h (4 Bft) 100,00 %
03.06.2023 12:46 18,3 C 56 % 1016,8 hPa 0,0 l/m 11,3 km/h (2 Bft) O 90 9,4 C 16,3 C 17,7 km/h (3 Bft) 95,65 %
03.06.2023 12:45 18,4 C 55 % 1016,7 hPa 0,0 l/m 8,0 km/h (2 Bft) O 90 9,2 C 17,7 C 20,9 km/h (4 Bft) 95,65 %
03.06.2023 12:44 18,4 C 56 % 1016,7 hPa 0,0 l/m 6,4 km/h (2 Bft) O-NO 67 9,5 C 18,4 C 14,5 km/h (3 Bft) 100,00 %
03.06.2023 12:43 18,3 C 58 % 1016,7 hPa 0,0 l/m 6,4 km/h (2 Bft) O-NO 67 9,9 C 18,3 C 12,9 km/h (3 Bft) 95,65 %
03.06.2023 12:42 18,1 C 56 % 1016,7 hPa 0,0 l/m 3,2 km/h (1 Bft) O 90 9,2 C 18,1 C 8,0 km/h (2 Bft) 100,00 %
03.06.2023 12:41 18,2 C 55 % 1016,7 hPa 0,0 l/m 9,7 km/h (2 Bft) O-SO 112 9,0 C 16,8 C 16,1 km/h (3 Bft) 91,30 %
03.06.2023 12:40 18,3 C 57 % 1016,7 hPa 0,0 l/m 8,0 km/h (2 Bft) O 90 9,6 C 17,6 C 17,7 km/h (3 Bft) 95,65 %
03.06.2023 12:39 18,2 C 56 % 1016,7 hPa 0,0 l/m 6,4 km/h (2 Bft) O-NO 67 9,3 C 18,2 C 12,9 km/h (3 Bft) 43,48 %
03.06.2023 12:38 18,2 C 55 % 1016,7 hPa 0,0 l/m 0,0 km/h (0 Bft) N 0 9,0 C 18,2 C 0,0 km/h (0 Bft) 0,00 %
03.06.2023 12:37 18,2 C 55 % 1016,7 hPa 0,0 l/m 4,8 km/h (1 Bft) S-SO 157 9,0 C 18,2 C 9,7 km/h (2 Bft) 95,65 %
03.06.2023 12:35 18,2 C 56 % 1016,8 hPa 0,0 l/m 6,4 km/h (2 Bft) NO 45 9,3 C 18,2 C 17,7 km/h (3 Bft) 100,00 %
03.06.2023 12:34 18,2 C 56 % 1016,7 hPa 0,0 l/m 9,7 km/h (2 Bft) O-NO 67 9,3 C 16,8 C 17,7 km/h (3 Bft) 100,00 %
03.06.2023 12:33 18,3 C 54 % 1016,7 hPa 0,0 l/m 8,0 km/h (2 Bft) O 90 8,8 C 17,6 C 14,5 km/h (3 Bft) 100,00 %
03.06.2023 12:32 18,4 C 55 % 1016,7 hPa 0,0 l/m 6,4 km/h (2 Bft) NO 45 9,2 C 18,4 C 11,3 km/h (2 Bft) 100,00 %
03.06.2023 12:31 18,3 C 57 % 1016,7 hPa 0,0 l/m 4,8 km/h (1 Bft) O-NO 67 9,6 C 18,3 C 6,4 km/h (2 Bft) 100,00 %
03.06.2023 12:30 18,3 C 56 % 1016,7 hPa 0,0 l/m 8,0 km/h (2 Bft) NO 45 9,4 C 17,6 C 12,9 km/h (3 Bft) 100,00 %
03.06.2023 12:29 18,2 C 58 % 1016,7 hPa 0,0 l/m 4,8 km/h (1 Bft) O 90 9,8 C 18,2 C 8,0 km/h (2 Bft) 100,00 %
03.06.2023 12:28 17,9 C 58 % 1016,7 hPa 0,0 l/m 1,6 km/h (1 Bft) O-NO 67 9,5 C 17,9 C 4,8 km/h (1 Bft) 100,00 %
03.06.2023 12:27 17,7 C 58 % 1016,8 hPa 0,0 l/m 1,6 km/h (1 Bft) O-NO 67 9,3 C 17,7 C 3,2 km/h (1 Bft) 100,00 %
03.06.2023 12:26 17,7 C 57 % 1016,7 hPa 0,0 l/m 8,0 km/h (2 Bft) O 90 9,1 C 16,9 C 11,3 km/h (2 Bft) 100,00 %
03.06.2023 12:25 17,8 C 55 % 1016,8 hPa 0,0 l/m 6,4 km/h (2 Bft) O 90 8,6 C 17,8 C 14,5 km/h (3 Bft) 100,00 %
03.06.2023 12:24 17,8 C 55 % 1016,8 hPa 0,0 l/m 4,8 km/h (1 Bft) NO 45 8,6 C 17,8 C 9,7 km/h (2 Bft) 100,00 %
03.06.2023 12:23 17,9 C 54 % 1016,8 hPa 0,0 l/m 3,2 km/h (1 Bft) NO 45 8,5 C 17,9 C 11,3 km/h (2 Bft) 100,00 %
03.06.2023 12:22 18,1 C 55 % 1017,0 hPa 0,0 l/m 8,0 km/h (2 Bft) NO 45 8,9 C 17,4 C 20,9 km/h (4 Bft) 100,00 %
03.06.2023 12:21 18,3 C 54 % 1016,9 hPa 0,0 l/m 9,7 km/h (2 Bft) NO 45 8,8 C 16,9 C 17,7 km/h (3 Bft) 100,00 %
03.06.2023 12:20 18,4 C 54 % 1016,9 hPa 0,0 l/m 9,7 km/h (2 Bft) O-NO 67 8,9 C 17,0 C 22,5 km/h (4 Bft) 100,00 %
03.06.2023 12:19 18,5 C 54 % 1017,0 hPa 0,0 l/m 4,8 km/h (1 Bft) NO 45 9,0 C 18,5 C 8,0 km/h (2 Bft) 100,00 %
03.06.2023 12:18 18,7 C 54 % 1017,0 hPa 0,0 l/m 9,7 km/h (2 Bft) O-NO 67 9,2 C 17,3 C 14,5 km/h (3 Bft) 100,00 %
03.06.2023 12:17 18,9 C 54 % 1016,9 hPa 0,0 l/m 4,8 km/h (1 Bft) NO 45 9,4 C 18,9 C 11,3 km/h (2 Bft) 100,00 %
03.06.2023 12:16 18,8 C 56 % 1016,9 hPa 0,0 l/m 4,8 km/h (1 Bft) NO 45 9,8 C 18,8 C 12,9 km/h (3 Bft) 100,00 %
03.06.2023 12:15 18,8 C 57 % 1017,0 hPa 0,0 l/m 3,2 km/h (1 Bft) O-NO 67 10,1 C 18,8 C 6,4 km/h (2 Bft) 100,00 %
03.06.2023 12:14 18,6 C 59 % 1017,0 hPa 0,0 l/m 4,8 km/h (1 Bft) O-NO 67 10,4 C 18,6 C 8,0 km/h (2 Bft) 100,00 %
03.06.2023 12:13 18,4 C 59 % 1016,9 hPa 0,0 l/m 3,2 km/h (1 Bft) O-NO 67 10,2 C 18,4 C 9,7 km/h (2 Bft) 100,00 %
03.06.2023 12:12 18,3 C 58 % 1017,0 hPa 0,0 l/m 3,2 km/h (1 Bft) O-NO 67 9,9 C 18,3 C 8,0 km/h (2 Bft) 100,00 %
03.06.2023 12:11 18,2 C 57 % 1017,0 hPa 0,0 l/m 3,2 km/h (1 Bft) O-NO 67 9,5 C 18,2 C 6,4 km/h (2 Bft) 100,00 %
03.06.2023 12:10 18,0 C 57 % 1017,0 hPa 0,0 l/m 6,4 km/h (2 Bft) O 90 9,4 C 18,0 C 14,5 km/h (3 Bft) 100,00 %
03.06.2023 12:09 18,0 C 59 % 1017,0 hPa 0,0 l/m 6,4 km/h (2 Bft) O-NO 67 9,9 C 18,0 C 16,1 km/h (3 Bft) 100,00 %
03.06.2023 12:08 17,8 C 59 % 1017,0 hPa 0,0 l/m 6,4 km/h (2 Bft) O 90 9,7 C 17,8 C 12,9 km/h (3 Bft) 100,00 %
03.06.2023 12:07 17,8 C 55 % 1016,9 hPa 0,0 l/m 6,4 km/h (2 Bft) O 90 8,6 C 17,8 C 14,5 km/h (3 Bft) 100,00 %
03.06.2023 12:06 17,9 C 56 % 1017,0 hPa 0,0 l/m 6,4 km/h (2 Bft) O 90 9,0 C 17,9 C 16,1 km/h (3 Bft) 100,00 %
03.06.2023 12:05 17,9 C 57 % 1017,1 hPa 0,0 l/m 4,8 km/h (1 Bft) N-NO 22 9,3 C 17,9 C 8,0 km/h (2 Bft) 100,00 %
03.06.2023 12:04 17,9 C 58 % 1017,0 hPa 0,0 l/m 6,4 km/h (2 Bft) NO 45 9,5 C 17,9 C 20,9 km/h (4 Bft) 100,00 %
03.06.2023 12:03 17,8 C 59 % 1016,9 hPa 0,0 l/m 3,2 km/h (1 Bft) NO 45 9,7 C 17,8 C 6,4 km/h (2 Bft) 100,00 %
03.06.2023 12:02 17,7 C 59 % 1017,1 hPa 0,0 l/m 4,8 km/h (1 Bft) NO 45 9,6 C 17,7 C 12,9 km/h (3 Bft) 100,00 %
03.06.2023 12:01 17,6 C 58 % 1017,0 hPa 0,0 l/m 8,0 km/h (2 Bft) O-NO 67 9,2 C 16,8 C 16,1 km/h (3 Bft) 100,00 %
03.06.2023 12:00 17,6 C 57 % 1017,1 hPa 0,0 l/m 6,4 km/h (2 Bft) O-NO 67 9,0 C 17,6 C 16,1 km/h (3 Bft) 100,00 %
03.06.2023 11:59 17,7 C 56 % 1017,1 hPa 0,0 l/m 11,3 km/h (2 Bft) O 90 8,8 C 15,6 C 17,7 km/h (3 Bft) 100,00 %
03.06.2023 11:58 17,7 C 56 % 1017,1 hPa 0,0 l/m 6,4 km/h (2 Bft) O 90 8,8 C 17,7 C 12,9 km/h (3 Bft) 100,00 %
03.06.2023 11:57 17,7 C 57 % 1017,1 hPa 0,0 l/m 3,2 km/h (1 Bft) O-NO 67 9,1 C 17,7 C 11,3 km/h (2 Bft) 100,00 %
03.06.2023 11:56 17,7 C 55 % 1017,2 hPa 0,0 l/m 8,0 km/h (2 Bft) O-NO 67 8,5 C 16,9 C 14,5 km/h (3 Bft) 100,00 %
03.06.2023 11:55 17,7 C 57 % 1017,2 hPa 0,0 l/m 6,4 km/h (2 Bft) O-NO 67 9,1 C 17,7 C 14,5 km/h (3 Bft) 100,00 %
03.06.2023 11:54 17,7 C 58 % 1017,0 hPa 0,0 l/m 4,8 km/h (1 Bft) O 90 9,3 C 17,7 C 11,3 km/h (2 Bft) 100,00 %
03.06.2023 11:53 17,7 C 57 % 1017,1 hPa 0,0 l/m 9,7 km/h (2 Bft) O 90 9,1 C 16,2 C 16,1 km/h (3 Bft) 100,00 %
03.06.2023 11:52 17,7 C 58 % 1017,1 hPa 0,0 l/m 8,0 km/h (2 Bft) O 90 9,3 C 16,9 C 24,1 km/h (4 Bft) 100,00 %
03.06.2023 11:51 17,7 C 57 % 1017,1 hPa 0,0 l/m 6,4 km/h (2 Bft) NO 45 9,1 C 17,7 C 11,3 km/h (2 Bft) 100,00 %
03.06.2023 11:50 17,7 C 56 % 1017,1 hPa 0,0 l/m 4,8 km/h (1 Bft) NO 45 8,8 C 17,7 C 9,7 km/h (2 Bft) 100,00 %
03.06.2023 11:49 17,8 C 57 % 1017,1 hPa 0,0 l/m 9,7 km/h (2 Bft) NO 45 9,2 C 16,3 C 12,9 km/h (3 Bft) 73,91 %
03.06.2023 11:48 17,9 C 58 % 1017,1 hPa 0,0 l/m 3,2 km/h (1 Bft) O-NO 67 9,5 C 17,9 C 9,7 km/h (2 Bft) 100,00 %
03.06.2023 11:47 17,8 C 57 % 1017,2 hPa 0,0 l/m 6,4 km/h (2 Bft) N-NO 22 9,2 C 17,8 C 16,1 km/h (3 Bft) 100,00 %
03.06.2023 11:46 17,9 C 58 % 1017,1 hPa 0,0 l/m 3,2 km/h (1 Bft) NO 45 9,5 C 17,9 C 9,7 km/h (2 Bft) 100,00 %
03.06.2023 11:45 17,8 C 58 % 1017,0 hPa 0,0 l/m 6,4 km/h (2 Bft) NO 45 9,4 C 17,8 C 12,9 km/h (3 Bft) 100,00 %
03.06.2023 11:44 17,8 C 58 % 1017,1 hPa 0,0 l/m 3,2 km/h (1 Bft) NO 45 9,4 C 17,8 C 8,0 km/h (2 Bft) 100,00 %
03.06.2023 11:43 17,5 C 61 % 1017,1 hPa 0,0 l/m 1,6 km/h (1 Bft) O 90 9,9 C 17,5 C 4,8 km/h (1 Bft) 100,00 %
03.06.2023 11:42 17,3 C 59 % 1017,1 hPa 0,0 l/m 1,6 km/h (1 Bft) O 90 9,2 C 17,3 C 4,8 km/h (1 Bft) 100,00 %
03.06.2023 11:41 17,2 C 59 % 1017,0 hPa 0,0 l/m 8,0 km/h (2 Bft) NO 45 9,1 C 16,4 C 16,1 km/h (3 Bft) 100,00 %
03.06.2023 11:40 17,1 C 59 % 1017,0 hPa 0,0 l/m 6,4 km/h (2 Bft) NO 45 9,0 C 17,1 C 11,3 km/h (2 Bft) 100,00 %
03.06.2023 11:39 17,1 C 59 % 1017,0 hPa 0,0 l/m 6,4 km/h (2 Bft) N-NO 22 9,0 C 17,1 C 14,5 km/h (3 Bft) 100,00 %
03.06.2023 11:38 17,2 C 59 % 1017,1 hPa 0,0 l/m 11,3 km/h (2 Bft) O-NO 67 9,1 C 15,1 C 20,9 km/h (4 Bft) 100,00 %
03.06.2023 11:37 17,3 C 58 % 1017,0 hPa 0,0 l/m 8,0 km/h (2 Bft) O 90 9,0 C 16,5 C 14,5 km/h (3 Bft) 100,00 %
03.06.2023 11:36 17,3 C 60 % 1016,9 hPa 0,0 l/m 3,2 km/h (1 Bft) O-NO 67 9,5 C 17,3 C 9,7 km/h (2 Bft) 100,00 %
03.06.2023 11:35 17,3 C 59 % 1017,0 hPa 0,0 l/m 4,8 km/h (1 Bft) NO 45 9,2 C 17,3 C 12,9 km/h (3 Bft) 100,00 %
03.06.2023 11:34 17,3 C 59 % 1016,9 hPa 0,0 l/m 11,3 km/h (2 Bft) O 90 9,2 C 15,2 C 27,4 km/h (4 Bft) 100,00 %
03.06.2023 11:33 17,2 C 61 % 1017,0 hPa 0,0 l/m 3,2 km/h (1 Bft) O 90 9,6 C 17,2 C 8,0 km/h (2 Bft) 100,00 %
03.06.2023 11:32 17,1 C 62 % 1017,0 hPa 0,0 l/m 4,8 km/h (1 Bft) NO 45 9,8 C 17,1 C 8,0 km/h (2 Bft) 100,00 %
03.06.2023 11:31 16,9 C 63 % 1017,0 hPa 0,0 l/m 6,4 km/h (2 Bft) O-NO 67 9,8 C 16,9 C 12,9 km/h (3 Bft) 100,00 %
03.06.2023 11:30 16,7 C 61 % 1017,0 hPa 0,0 l/m 1,6 km/h (1 Bft) O-NO 67 9,1 C 16,7 C 4,8 km/h (1 Bft) 100,00 %
03.06.2023 11:29 16,6 C 61 % 1017,1 hPa 0,0 l/m 8,0 km/h (2 Bft) O 90 9,0 C 15,8 C 12,9 km/h (3 Bft) 100,00 %
03.06.2023 11:28 16,6 C 62 % 1017,1 hPa 0,0 l/m 6,4 km/h (2 Bft) O-SO 112 9,3 C 16,6 C 11,3 km/h (2 Bft) 100,00 %
03.06.2023 11:27 16,3 C 62 % 1017,1 hPa 0,0 l/m 3,2 km/h (1 Bft) SO 135 9,0 C 16,3 C 9,7 km/h (2 Bft) 100,00 %
03.06.2023 11:26 16,3 C 60 % 1017,2 hPa 0,0 l/m 4,8 km/h (1 Bft) O-NO 67 8,5 C 16,3 C 11,3 km/h (2 Bft) 100,00 %
03.06.2023 11:25 16,3 C 60 % 1017,1 hPa 0,0 l/m 8,0 km/h (2 Bft) NO 45 8,5 C 15,5 C 16,1 km/h (3 Bft) 100,00 %
03.06.2023 11:24 16,3 C 60 % 1017,1 hPa 0,0 l/m 9,7 km/h (2 Bft) NO 45 8,5 C 14,7 C 14,5 km/h (3 Bft) 100,00 %
03.06.2023 11:23 16,3 C 59 % 1017,2 hPa 0,0 l/m 8,0 km/h (2 Bft) NO 45 8,3 C 15,5 C 16,1 km/h (3 Bft) 100,00 %
03.06.2023 11:22 16,4 C 60 % 1017,2 hPa 0,0 l/m 9,7 km/h (2 Bft) O 90 8,6 C 14,8 C 14,5 km/h (3 Bft) 100,00 %
03.06.2023 11:21 16,5 C 60 % 1017,1 hPa 0,0 l/m 9,7 km/h (2 Bft) O-NO 67 8,7 C 14,9 C 20,9 km/h (4 Bft) 100,00 %
03.06.2023 11:20 16,4 C 59 % 1017,0 hPa 0,0 l/m 4,8 km/h (1 Bft) O-NO 67 8,4 C 16,4 C 11,3 km/h (2 Bft) 100,00 %
03.06.2023 11:19 16,4 C 59 % 1017,1 hPa 0,0 l/m 8,0 km/h (2 Bft) O 90 8,4 C 15,6 C 16,1 km/h (3 Bft) 100,00 %
03.06.2023 11:18 16,6 C 60 % 1017,1 hPa 0,0 l/m 9,7 km/h (2 Bft) O-NO 67 8,8 C 15,0 C 19,3 km/h (3 Bft) 100,00 %
03.06.2023 11:17 16,5 C 61 % 1017,1 hPa 0,0 l/m 4,8 km/h (1 Bft) O-NO 67 9,0 C 16,5 C 17,7 km/h (3 Bft) 100,00 %
03.06.2023 11:16 16,4 C 60 % 1017,1 hPa 0,0 l/m 8,0 km/h (2 Bft) NO 45 8,6 C 15,6 C 12,9 km/h (3 Bft) 100,00 %
03.06.2023 11:15 16,4 C 60 % 1017,1 hPa 0,0 l/m 9,7 km/h (2 Bft) O-NO 67 8,6 C 14,8 C 16,1 km/h (3 Bft) 100,00 %
03.06.2023 11:14 16,4 C 60 % 1017,1 hPa 0,0 l/m 4,8 km/h (1 Bft) NO 45 8,6 C 16,4 C 8,0 km/h (2 Bft) 100,00 %
03.06.2023 11:13 16,4 C 61 % 1017,1 hPa 0,0 l/m 6,4 km/h (2 Bft) O 90 8,9 C 16,4 C 11,3 km/h (2 Bft) 100,00 %
03.06.2023 11:12 16,5 C 59 % 1017,1 hPa 0,0 l/m 6,4 km/h (2 Bft) O-NO 67 8,5 C 16,5 C 14,5 km/h (3 Bft) 100,00 %
03.06.2023 11:11 16,7 C 59 % 1017,2 hPa 0,0 l/m 9,7 km/h (2 Bft) NO 45 8,6 C 15,1 C 14,5 km/h (3 Bft) 100,00 %
03.06.2023 11:10 16,8 C 59 % 1017,1 hPa 0,0 l/m 8,0 km/h (2 Bft) O-NO 67 8,7 C 16,0 C 17,7 km/h (3 Bft) 100,00 %
03.06.2023 11:09 17,0 C 58 % 1017,1 hPa 0,0 l/m 8,0 km/h (2 Bft) O-NO 67 8,7 C 16,2 C 16,1 km/h (3 Bft) 100,00 %
03.06.2023 11:08 16,9 C 61 % 1017,1 hPa 0,0 l/m 3,2 km/h (1 Bft) NO 45 9,3 C 16,9 C 6,4 km/h (2 Bft) 100,00 %
03.06.2023 11:07 16,8 C 61 % 1017,1 hPa 0,0 l/m 3,2 km/h (1 Bft) NO 45 9,2 C 16,8 C 6,4 km/h (2 Bft) 100,00 %
03.06.2023 11:06 16,7 C 63 % 1017,1 hPa 0,0 l/m 1,6 km/h (1 Bft) NO 45 9,6 C 16,7 C 4,8 km/h (1 Bft) 100,00 %
03.06.2023 11:05 16,5 C 60 % 1017,1 hPa 0,0 l/m 4,8 km/h (1 Bft) NO 45 8,7 C 16,5 C 9,7 km/h (2 Bft) 100,00 %
03.06.2023 11:04 16,4 C 62 % 1017,1 hPa 0,0 l/m 4,8 km/h (1 Bft) O 90 9,1 C 16,4 C 12,9 km/h (3 Bft) 100,00 %
03.06.2023 11:03 16,2 C 63 % 1017,2 hPa 0,0 l/m 1,6 km/h (1 Bft) NO 45 9,1 C 16,2 C 4,8 km/h (1 Bft) 100,00 %
03.06.2023 11:02 16,1 C 65 % 1017,1 hPa 0,0 l/m 6,4 km/h (2 Bft) O-NO 67 9,5 C 16,1 C 11,3 km/h (2 Bft) 100,00 %
03.06.2023 11:01 15,8 C 63 % 1017,1 hPa 0,0 l/m 3,2 km/h (1 Bft) O-NO 67 8,8 C 15,8 C 4,8 km/h (1 Bft) 100,00 %
03.06.2023 11:00 15,7 C 63 % 1017,1 hPa 0,0 l/m 1,6 km/h (1 Bft) O-NO 67 8,7 C 15,7 C 8,0 km/h (2 Bft) 100,00 %
03.06.2023 10:59 15,7 C 62 % 1017,2 hPa 0,0 l/m 6,4 km/h (2 Bft) O-NO 67 8,4 C 15,7 C 14,5 km/h (3 Bft) 100,00 %
03.06.2023 10:58 15,7 C 61 % 1017,2 hPa 0,0 l/m 9,7 km/h (2 Bft) NO 45 8,2 C 14,0 C 17,7 km/h (3 Bft) 100,00 %
03.06.2023 10:57 15,7 C 62 % 1017,2 hPa 0,0 l/m 8,0 km/h (2 Bft) O-NO 67 8,4 C 14,8 C 19,3 km/h (3 Bft) 100,00 %
03.06.2023 10:56 15,6 C 62 % 1017,1 hPa 0,0 l/m 4,8 km/h (1 Bft) NO 45 8,3 C 15,6 C 9,7 km/h (2 Bft) 100,00 %
03.06.2023 10:55 15,4 C 62 % 1017,1 hPa 0,0 l/m 4,8 km/h (1 Bft) NO 45 8,2 C 15,4 C 12,9 km/h (3 Bft) 100,00 %
03.06.2023 10:54 15,4 C 62 % 1017,1 hPa 0,0 l/m 6,4 km/h (2 Bft) O-NO 67 8,2 C 15,4 C 12,9 km/h (3 Bft) 100,00 %
03.06.2023 10:53 15,4 C 62 % 1017,3 hPa 0,0 l/m 4,8 km/h (1 Bft) NO 45 8,2 C 15,4 C 8,0 km/h (2 Bft) 100,00 %
03.06.2023 10:52 15,5 C 61 % 1017,2 hPa 0,0 l/m 8,0 km/h (2 Bft) NO 45 8,0 C 14,6 C 14,5 km/h (3 Bft) 100,00 %
03.06.2023 10:51 15,5 C 61 % 1017,2 hPa 0,0 l/m 6,4 km/h (2 Bft) O-NO 67 8,0 C 15,5 C 12,9 km/h (3 Bft) 100,00 %
03.06.2023 10:50 15,4 C 62 % 1017,3 hPa 0,0 l/m 4,8 km/h (1 Bft) O 90 8,2 C 15,4 C 9,7 km/h (2 Bft) 100,00 %
03.06.2023 10:49 15,5 C 62 % 1017,3 hPa 0,0 l/m 8,0 km/h (2 Bft) NO 45 8,3 C 14,6 C 14,5 km/h (3 Bft) 73,91 %
03.06.2023 10:48 15,5 C 62 % 1017,3 hPa 0,0 l/m 6,4 km/h (2 Bft) O-NO 67 8,3 C 15,5 C 11,3 km/h (2 Bft) 100,00 %
03.06.2023 10:47 15,5 C 61 % 1017,2 hPa 0,0 l/m 6,4 km/h (2 Bft) O 90 8,0 C 15,5 C 12,9 km/h (3 Bft) 100,00 %
03.06.2023 10:46 15,4 C 61 % 1017,3 hPa 0,0 l/m 6,4 km/h (2 Bft) O-NO 67 7,9 C 15,4 C 9,7 km/h (2 Bft) 100,00 %
03.06.2023 10:45 15,4 C 60 % 1017,3 hPa 0,0 l/m 6,4 km/h (2 Bft) O 90 7,7 C 15,4 C 11,3 km/h (2 Bft) 100,00 %
03.06.2023 10:44 15,5 C 61 % 1017,2 hPa 0,0 l/m 8,0 km/h (2 Bft) NO 45 8,0 C 14,6 C 16,1 km/h (3 Bft) 100,00 %
03.06.2023 10:43 15,5 C 61 % 1017,2 hPa 0,0 l/m 6,4 km/h (2 Bft) NO 45 8,0 C 15,5 C 12,9 km/h (3 Bft) 100,00 %
03.06.2023 10:42 15,4 C 61 % 1017,3 hPa 0,0 l/m 3,2 km/h (1 Bft) N-NO 22 7,9 C 15,4 C 6,4 km/h (2 Bft) 100,00 %
03.06.2023 10:41 15,3 C 61 % 1017,2 hPa 0,0 l/m 4,8 km/h (1 Bft) O-NO 67 7,8 C 15,3 C 14,5 km/h (3 Bft) 100,00 %
03.06.2023 10:40 15,2 C 61 % 1017,3 hPa 0,0 l/m 4,8 km/h (1 Bft) O 90 7,7 C 15,2 C 14,5 km/h (3 Bft) 100,00 %
03.06.2023 10:39 15,1 C 62 % 1017,2 hPa 0,0 l/m 3,2 km/h (1 Bft) NO 45 7,9 C 15,1 C 6,4 km/h (2 Bft) 100,00 %
03.06.2023 10:38 15,0 C 61 % 1017,2 hPa 0,0 l/m 4,8 km/h (1 Bft) NO 45 7,5 C 15,0 C 8,0 km/h (2 Bft) 100,00 %
03.06.2023 10:37 15,0 C 60 % 1017,1 hPa 0,0 l/m 8,0 km/h (2 Bft) NO 45 7,3 C 14,1 C 14,5 km/h (3 Bft) 100,00 %
03.06.2023 10:36 15,1 C 61 % 1017,3 hPa 0,0 l/m 8,0 km/h (2 Bft) O-NO 67 7,6 C 14,2 C 14,5 km/h (3 Bft) 100,00 %
03.06.2023 10:35 15,1 C 61 % 1017,1 hPa 0,0 l/m 8,0 km/h (2 Bft) N-NO 22 7,6 C 14,2 C 24,1 km/h (4 Bft) 100,00 %
03.06.2023 10:34 15,1 C 61 % 1017,3 hPa 0,0 l/m 6,4 km/h (2 Bft) NO 45 7,6 C 15,1 C 16,1 km/h (3 Bft) 100,00 %
03.06.2023 10:33 15,1 C 60 % 1017,2 hPa 0,0 l/m 3,2 km/h (1 Bft) O-NO 67 7,4 C 15,1 C 6,4 km/h (2 Bft) 100,00 %
03.06.2023 10:32 15,1 C 61 % 1017,3 hPa 0,0 l/m 6,4 km/h (2 Bft) O-SO 112 7,6 C 15,1 C 12,9 km/h (3 Bft) 100,00 %
03.06.2023 10:31 15,0 C 61 % 1017,3 hPa 0,0 l/m 6,4 km/h (2 Bft) NO 45 7,5 C 15,0 C 9,7 km/h (2 Bft) 100,00 %
03.06.2023 10:30 14,9 C 61 % 1017,3 hPa 0,0 l/m 6,4 km/h (2 Bft) NO 45 7,4 C 14,9 C 11,3 km/h (2 Bft) 100,00 %
03.06.2023 10:29 14,8 C 61 % 1017,3 hPa 0,0 l/m 6,4 km/h (2 Bft) N-NO 22 7,4 C 14,8 C 12,9 km/h (3 Bft) 100,00 %
03.06.2023 10:28 14,7 C 62 % 1017,2 hPa 0,0 l/m 8,0 km/h (2 Bft) NO 45 7,5 C 13,8 C 20,9 km/h (4 Bft) 100,00 %
03.06.2023 10:27 14,6 C 62 % 1017,2 hPa 0,0 l/m 8,0 km/h (2 Bft) NO 45 7,4 C 13,7 C 14,5 km/h (3 Bft) 100,00 %
03.06.2023 10:26 14,6 C 63 % 1017,3 hPa 0,0 l/m 11,3 km/h (2 Bft) O 90 7,6 C 12,1 C 20,9 km/h (4 Bft) 100,00 %
03.06.2023 10:25 14,4 C 63 % 1017,2 hPa 0,0 l/m 4,8 km/h (1 Bft) O 90 7,4 C 14,4 C 9,7 km/h (2 Bft) 100,00 %
03.06.2023 10:24 14,3 C 63 % 1017,3 hPa 0,0 l/m 8,0 km/h (2 Bft) NO 45 7,4 C 13,4 C 19,3 km/h (3 Bft) 100,00 %
03.06.2023 10:23 14,3 C 63 % 1017,3 hPa 0,0 l/m 6,4 km/h (2 Bft) NO 45 7,4 C 14,3 C 11,3 km/h (2 Bft) 100,00 %
03.06.2023 10:22 14,2 C 62 % 1017,2 hPa 0,0 l/m 9,7 km/h (2 Bft) O 90 7,0 C 12,4 C 12,9 km/h (3 Bft) 100,00 %
03.06.2023 10:21 14,2 C 63 % 1017,2 hPa 0,0 l/m 6,4 km/h (2 Bft) N-NO 22 7,3 C 14,2 C 11,3 km/h (2 Bft) 100,00 %
03.06.2023 10:20 14,1 C 61 % 1017,2 hPa 0,0 l/m 4,8 km/h (1 Bft) NO 45 6,7 C 14,1 C 14,5 km/h (3 Bft) 100,00 %
03.06.2023 10:19 14,2 C 61 % 1017,2 hPa 0,0 l/m 9,7 km/h (2 Bft) O-NO 67 6,8 C 12,4 C 17,7 km/h (3 Bft) 100,00 %
03.06.2023 10:18 14,2 C 62 % 1017,2 hPa 0,0 l/m 6,4 km/h (2 Bft) O-NO 67 7,0 C 14,2 C 12,9 km/h (3 Bft) 100,00 %
03.06.2023 10:17 14,2 C 62 % 1017,2 hPa 0,0 l/m 11,3 km/h (2 Bft) NO 45 7,0 C 11,6 C 22,5 km/h (4 Bft) 100,00 %
03.06.2023 10:16 14,2 C 62 % 1017,2 hPa 0,0 l/m 6,4 km/h (2 Bft) O-NO 67 7,0 C 14,2 C 11,3 km/h (2 Bft) 100,00 %
03.06.2023 10:15 14,2 C 62 % 1017,3 hPa 0,0 l/m 11,3 km/h (2 Bft) O 90 7,0 C 11,6 C 24,1 km/h (4 Bft) 100,00 %
03.06.2023 10:14 14,2 C 62 % 1017,3 hPa 0,0 l/m 4,8 km/h (1 Bft) NO 45 7,0 C 14,2 C 11,3 km/h (2 Bft) 100,00 %
03.06.2023 10:13 14,1 C 61 % 1017,3 hPa 0,0 l/m 6,4 km/h (2 Bft) NO 45 6,7 C 14,1 C 14,5 km/h (3 Bft) 100,00 %
03.06.2023 10:12 14,1 C 62 % 1017,2 hPa 0,0 l/m 9,7 km/h (2 Bft) O-NO 67 6,9 C 12,3 C 16,1 km/h (3 Bft) 100,00 %
03.06.2023 10:11 14,0 C 62 % 1017,2 hPa 0,0 l/m 4,8 km/h (1 Bft) NO 45 6,8 C 14,0 C 12,9 km/h (3 Bft) 100,00 %
03.06.2023 10:10 14,1 C 62 % 1017,3 hPa 0,0 l/m 9,7 km/h (2 Bft) O-NO 67 6,9 C 12,3 C 17,7 km/h (3 Bft) 100,00 %
03.06.2023 10:09 14,1 C 62 % 1017,3 hPa 0,0 l/m 9,7 km/h (2 Bft) NO 45 6,9 C 12,3 C 19,3 km/h (3 Bft) 100,00 %
03.06.2023 10:08 14,1 C 63 % 1017,3 hPa 0,0 l/m 8,0 km/h (2 Bft) O 90 7,2 C 13,2 C 19,3 km/h (3 Bft) 100,00 %
03.06.2023 10:07 14,0 C 65 % 1017,3 hPa 0,0 l/m 4,8 km/h (1 Bft) O 90 7,5 C 14,0 C 14,5 km/h (3 Bft) 100,00 %
03.06.2023 10:06 13,9 C 65 % 1017,2 hPa 0,0 l/m 3,2 km/h (1 Bft) O-NO 67 7,4 C 13,9 C 14,5 km/h (3 Bft) 100,00 %
03.06.2023 10:05 13,9 C 63 % 1017,2 hPa 0,0 l/m 8,0 km/h (2 Bft) O-SO 112 7,0 C 12,9 C 12,9 km/h (3 Bft) 100,00 %
03.06.2023 10:04 13,8 C 64 % 1017,3 hPa 0,0 l/m 6,4 km/h (2 Bft) NO 45 7,1 C 13,8 C 11,3 km/h (2 Bft) 100,00 %
03.06.2023 10:03 13,8 C 62 % 1017,2 hPa 0,0 l/m 6,4 km/h (2 Bft) NO 45 6,6 C 13,8 C 14,5 km/h (3 Bft) 100,00 %
03.06.2023 10:02 13,8 C 63 % 1017,2 hPa 0,0 l/m 12,9 km/h (3 Bft) O 90 6,9 C 10,5 C 22,5 km/h (4 Bft) 100,00 %
03.06.2023 10:01 13,9 C 62 % 1017,2 hPa 0,0 l/m 11,3 km/h (2 Bft) O 90 6,7 C 11,3 C 17,7 km/h (3 Bft) 100,00 %
03.06.2023 10:00 13,9 C 64 % 1017,2 hPa 0,0 l/m 3,2 km/h (1 Bft) O 90 7,2 C 13,9 C 6,4 km/h (2 Bft) 100,00 %
03.06.2023 09:59 13,8 C 63 % 1017,2 hPa 0,0 l/m 6,4 km/h (2 Bft) O-NO 67 6,9 C 13,8 C 12,9 km/h (3 Bft) 100,00 %
03.06.2023 09:58 13,9 C 64 % 1017,3 hPa 0,0 l/m 6,4 km/h (2 Bft) O-SO 112 7,2 C 13,9 C 19,3 km/h (3 Bft) 100,00 %
03.06.2023 09:57 13,9 C 63 % 1017,3 hPa 0,0 l/m 6,4 km/h (2 Bft) O-NO 67 7,0 C 13,9 C 19,3 km/h (3 Bft) 100,00 %
03.06.2023 09:56 13,9 C 63 % 1017,3 hPa 0,0 l/m 9,7 km/h (2 Bft) O 90 7,0 C 12,0 C 17,7 km/h (3 Bft) 100,00 %
03.06.2023 09:55 14,1 C 64 % 1017,3 hPa 0,0 l/m 9,7 km/h (2 Bft) O-NO 67 7,4 C 12,3 C 22,5 km/h (4 Bft) 100,00 %
03.06.2023 09:54 14,0 C 64 % 1017,3 hPa 0,0 l/m 8,0 km/h (2 Bft) O-NO 67 7,3 C 13,1 C 14,5 km/h (3 Bft) 100,00 %
03.06.2023 09:53 14,0 C 64 % 1017,2 hPa 0,0 l/m 6,4 km/h (2 Bft) O 90 7,3 C 14,0 C 12,9 km/h (3 Bft) 100,00 %
03.06.2023 09:52 13,9 C 64 % 1017,2 hPa 0,0 l/m 4,8 km/h (1 Bft) O 90 7,2 C 13,9 C 8,0 km/h (2 Bft) 100,00 %
03.06.2023 09:51 13,9 C 64 % 1017,3 hPa 0,0 l/m 4,8 km/h (1 Bft) O-SO 112 7,2 C 13,9 C 9,7 km/h (2 Bft) 100,00 %
03.06.2023 09:50 13,8 C 65 % 1017,3 hPa 0,0 l/m 6,4 km/h (2 Bft) O 90 7,3 C 13,8 C 12,9 km/h (3 Bft) 100,00 %
03.06.2023 09:49 13,8 C 64 % 1017,3 hPa 0,0 l/m 8,0 km/h (2 Bft) NO 45 7,1 C 12,8 C 12,9 km/h (3 Bft) 69,57 %
03.06.2023 09:48 13,9 C 63 % 1017,2 hPa 0,0 l/m 9,7 km/h (2 Bft) O-NO 67 7,0 C 12,0 C 16,1 km/h (3 Bft) 100,00 %
03.06.2023 09:47 13,9 C 63 % 1017,2 hPa 0,0 l/m 6,4 km/h (2 Bft) NO 45 7,0 C 13,9 C 17,7 km/h (3 Bft) 100,00 %
03.06.2023 09:46 13,9 C 63 % 1017,3 hPa 0,0 l/m 8,0 km/h (2 Bft) O-NO 67 7,0 C 12,9 C 19,3 km/h (3 Bft) 100,00 %
03.06.2023 09:45 13,9 C 64 % 1017,2 hPa 0,0 l/m 3,2 km/h (1 Bft) S-SO 157 7,2 C 13,9 C 6,4 km/h (2 Bft) 100,00 %
03.06.2023 09:44 13,9 C 64 % 1017,2 hPa 0,0 l/m 4,8 km/h (1 Bft) N 360 7,2 C 13,9 C 12,9 km/h (3 Bft) 100,00 %
03.06.2023 09:43 14,1 C 63 % 1017,2 hPa 0,0 l/m 8,0 km/h (2 Bft) NO 45 7,2 C 13,2 C 14,5 km/h (3 Bft) 100,00 %
03.06.2023 09:42 14,1 C 63 % 1017,1 hPa 0,0 l/m 11,3 km/h (2 Bft) O 90 7,2 C 11,5 C 22,5 km/h (4 Bft) 100,00 %
03.06.2023 09:41 14,2 C 64 % 1017,2 hPa 0,0 l/m 11,3 km/h (2 Bft) NO 45 7,5 C 11,6 C 17,7 km/h (3 Bft) 100,00 %
03.06.2023 09:40 14,1 C 66 % 1017,1 hPa 0,0 l/m 3,2 km/h (1 Bft) NO 45 7,8 C 14,1 C 8,0 km/h (2 Bft) 100,00 %
03.06.2023 09:39 13,9 C 67 % 1017,2 hPa 0,0 l/m 1,6 km/h (1 Bft) O 90 7,9 C 13,9 C 8,0 km/h (2 Bft) 100,00 %
03.06.2023 09:38 13,8 C 66 % 1017,1 hPa 0,0 l/m 3,2 km/h (1 Bft) O 90 7,6 C 13,8 C 8,0 km/h (2 Bft) 100,00 %
03.06.2023 09:37 13,8 C 65 % 1017,1 hPa 0,0 l/m 4,8 km/h (1 Bft) O 90 7,3 C 13,8 C 12,9 km/h (3 Bft) 100,00 %
03.06.2023 09:36 13,8 C 64 % 1017,2 hPa 0,0 l/m 6,4 km/h (2 Bft) O-NO 67 7,1 C 13,8 C 16,1 km/h (3 Bft) 100,00 %
03.06.2023 09:35 13,9 C 63 % 1017,2 hPa 0,0 l/m 11,3 km/h (2 Bft) NO 45 7,0 C 11,3 C 19,3 km/h (3 Bft) 100,00 %
03.06.2023 09:34 13,9 C 64 % 1017,2 hPa 0,0 l/m 9,7 km/h (2 Bft) NO 45 7,2 C 12,0 C 19,3 km/h (3 Bft) 100,00 %
03.06.2023 09:33 13,9 C 66 % 1017,2 hPa 0,0 l/m 4,8 km/h (1 Bft) N 360 7,7 C 13,9 C 19,3 km/h (3 Bft) 100,00 %
03.06.2023 09:32 13,9 C 64 % 1017,1 hPa 0,0 l/m 9,7 km/h (2 Bft) O 90 7,2 C 12,0 C 19,3 km/h (3 Bft) 100,00 %
03.06.2023 09:31 13,9 C 64 % 1017,2 hPa 0,0 l/m 6,4 km/h (2 Bft) NO 45 7,2 C 13,9 C 12,9 km/h (3 Bft) 100,00 %
03.06.2023 09:30 14,0 C 64 % 1017,2 hPa 0,0 l/m 3,2 km/h (1 Bft) NO 45 7,3 C 14,0 C 8,0 km/h (2 Bft) 100,00 %
03.06.2023 09:29 14,0 C 64 % 1017,1 hPa 0,0 l/m 11,3 km/h (2 Bft) NO 45 7,3 C 11,4 C 24,1 km/h (4 Bft) 100,00 %
03.06.2023 09:28 14,1 C 64 % 1017,1 hPa 0,0 l/m 3,2 km/h (1 Bft) NO 45 7,4 C 14,1 C 9,7 km/h (2 Bft) 100,00 %
03.06.2023 09:27 14,0 C 64 % 1017,0 hPa 0,0 l/m 6,4 km/h (2 Bft) NO 45 7,3 C 14,0 C 12,9 km/h (3 Bft) 100,00 %
03.06.2023 09:26 14,0 C 63 % 1017,2 hPa 0,0 l/m 6,4 km/h (2 Bft) O-NO 67 7,1 C 14,0 C 19,3 km/h (3 Bft) 100,00 %
03.06.2023 09:25 14,1 C 63 % 1017,1 hPa 0,0 l/m 9,7 km/h (2 Bft) O-NO 67 7,2 C 12,3 C 19,3 km/h (3 Bft) 100,00 %
03.06.2023 09:24 14,1 C 63 % 1017,1 hPa 0,0 l/m 8,0 km/h (2 Bft) NO 45 7,2 C 13,2 C 16,1 km/h (3 Bft) 100,00 %
03.06.2023 09:23 14,2 C 63 % 1017,1 hPa 0,0 l/m 11,3 km/h (2 Bft) NO 45 7,3 C 11,6 C 22,5 km/h (4 Bft) 100,00 %
03.06.2023 09:22 14,2 C 63 % 1017,1 hPa 0,0 l/m 4,8 km/h (1 Bft) O-NO 67 7,3 C 14,2 C 8,0 km/h (2 Bft) 100,00 %
03.06.2023 09:21 14,2 C 64 % 1017,1 hPa 0,0 l/m 6,4 km/h (2 Bft) SO 135 7,5 C 14,2 C 22,5 km/h (4 Bft) 100,00 %
03.06.2023 09:20 14,3 C 63 % 1017,1 hPa 0,0 l/m 11,3 km/h (2 Bft) NO 45 7,4 C 11,8 C 16,1 km/h (3 Bft) 100,00 %
03.06.2023 09:19 14,3 C 63 % 1017,2 hPa 0,0 l/m 9,7 km/h (2 Bft) NO 45 7,4 C 12,5 C 20,9 km/h (4 Bft) 100,00 %
03.06.2023 09:18 14,3 C 65 % 1017,1 hPa 0,0 l/m 3,2 km/h (1 Bft) NO 45 7,8 C 14,3 C 11,3 km/h (2 Bft) 100,00 %
03.06.2023 09:17 14,3 C 63 % 1017,1 hPa 0,0 l/m 8,0 km/h (2 Bft) O-SO 112 7,4 C 13,4 C 17,7 km/h (3 Bft) 100,00 %
03.06.2023 09:16 14,4 C 63 % 1017,0 hPa 0,0 l/m 9,7 km/h (2 Bft) O-NO 67 7,4 C 12,6 C 16,1 km/h (3 Bft) 100,00 %
03.06.2023 09:15 14,5 C 65 % 1017,0 hPa 0,0 l/m 9,7 km/h (2 Bft) NO 45 8,0 C 12,7 C 22,5 km/h (4 Bft) 100,00 %
03.06.2023 09:14 14,5 C 64 % 1017,0 hPa 0,0 l/m 8,0 km/h (2 Bft) O 90 7,8 C 13,6 C 11,3 km/h (2 Bft) 100,00 %
03.06.2023 09:13 14,5 C 64 % 1017,0 hPa 0,0 l/m 4,8 km/h (1 Bft) NO 45 7,8 C 14,5 C 11,3 km/h (2 Bft) 100,00 %
03.06.2023 09:12 14,6 C 64 % 1017,0 hPa 0,0 l/m 8,0 km/h (2 Bft) O-NO 67 7,9 C 13,7 C 12,9 km/h (3 Bft) 100,00 %
03.06.2023 09:11 14,5 C 64 % 1017,0 hPa 0,0 l/m 4,8 km/h (1 Bft) O 90 7,8 C 14,5 C 8,0 km/h (2 Bft) 100,00 %
03.06.2023 09:10 14,5 C 65 % 1017,0 hPa 0,0 l/m 4,8 km/h (1 Bft) O 90 8,0 C 14,5 C 9,7 km/h (2 Bft) 100,00 %
03.06.2023 09:09 14,4 C 64 % 1017,0 hPa 0,0 l/m 8,0 km/h (2 Bft) O 90 7,7 C 13,5 C 12,9 km/h (3 Bft) 100,00 %
03.06.2023 09:08 14,3 C 65 % 1017,1 hPa 0,0 l/m 3,2 km/h (1 Bft) NO 45 7,8 C 14,3 C 12,9 km/h (3 Bft) 100,00 %
03.06.2023 09:07 14,2 C 64 % 1017,0 hPa 0,0 l/m 4,8 km/h (1 Bft) O-NO 67 7,5 C 14,2 C 14,5 km/h (3 Bft) 100,00 %
03.06.2023 09:06 14,2 C 64 % 1017,0 hPa 0,0 l/m 4,8 km/h (1 Bft) NO 45 7,5 C 14,2 C 16,1 km/h (3 Bft) 95,65 %
03.06.2023 09:05 14,3 C 63 % 1017,1 hPa 0,0 l/m 4,8 km/h (1 Bft) NO 45 7,4 C 14,3 C 12,9 km/h (3 Bft) 100,00 %
03.06.2023 09:04 14,4 C 63 % 1017,0 hPa 0,0 l/m 9,7 km/h (2 Bft) O-NO 67 7,4 C 12,6 C 27,4 km/h (4 Bft) 100,00 %
03.06.2023 09:03 14,6 C 63 % 1017,1 hPa 0,0 l/m 9,7 km/h (2 Bft) NO 45 7,6 C 12,8 C 27,4 km/h (4 Bft) 100,00 %
03.06.2023 09:02 14,7 C 64 % 1017,0 hPa 0,0 l/m 8,0 km/h (2 Bft) NO 45 8,0 C 13,8 C 14,5 km/h (3 Bft) 100,00 %
03.06.2023 09:01 14,6 C 64 % 1017,0 hPa 0,0 l/m 3,2 km/h (1 Bft) O 90 7,9 C 14,6 C 6,4 km/h (2 Bft) 100,00 %
03.06.2023 09:00 14,6 C 64 % 1017,1 hPa 0,0 l/m 4,8 km/h (1 Bft) NO 45 7,9 C 14,6 C 11,3 km/h (2 Bft) 100,00 %
03.06.2023 08:59 14,5 C 65 % 1016,9 hPa 0,0 l/m 8,0 km/h (2 Bft) N-NO 22 8,0 C 13,6 C 11,3 km/h (2 Bft) 100,00 %
03.06.2023 08:58 14,4 C 66 % 1017,1 hPa 0,0 l/m 4,8 km/h (1 Bft) O-NO 67 8,1 C 14,4 C 11,3 km/h (2 Bft) 100,00 %
03.06.2023 08:57 14,2 C 65 % 1017,0 hPa 0,0 l/m 4,8 km/h (1 Bft) O-NO 67 7,7 C 14,2 C 14,5 km/h (3 Bft) 100,00 %
03.06.2023 08:56 14,2 C 65 % 1017,0 hPa 0,0 l/m 6,4 km/h (2 Bft) NO 45 7,7 C 14,2 C 14,5 km/h (3 Bft) 100,00 %
03.06.2023 08:55 14,2 C 66 % 1017,0 hPa 0,0 l/m 6,4 km/h (2 Bft) O-NO 67 7,9 C 14,2 C 14,5 km/h (3 Bft) 100,00 %
03.06.2023 08:54 14,1 C 65 % 1017,0 hPa 0,0 l/m 1,6 km/h (1 Bft) O 90 7,6 C 14,1 C 6,4 km/h (2 Bft) 100,00 %
03.06.2023 08:53 14,0 C 65 % 1017,0 hPa 0,0 l/m 6,4 km/h (2 Bft) O-NO 67 7,5 C 14,0 C 17,7 km/h (3 Bft) 100,00 %
03.06.2023 08:52 14,0 C 65 % 1017,0 hPa 0,0 l/m 6,4 km/h (2 Bft) O-NO 67 7,5 C 14,0 C 19,3 km/h (3 Bft) 100,00 %
03.06.2023 08:51 14,0 C 65 % 1017,1 hPa 0,0 l/m 6,4 km/h (2 Bft) NO 45 7,5 C 14,0 C 17,7 km/h (3 Bft) 100,00 %
03.06.2023 08:50 13,9 C 66 % 1017,1 hPa 0,0 l/m 4,8 km/h (1 Bft) O 90 7,7 C 13,9 C 14,5 km/h (3 Bft) 100,00 %
03.06.2023 08:49 13,9 C 65 % 1017,1 hPa 0,0 l/m 4,8 km/h (1 Bft) O 90 7,4 C 13,9 C 11,3 km/h (2 Bft) 69,57 %
03.06.2023 08:48 14,0 C 66 % 1017,0 hPa 0,0 l/m 8,0 km/h (2 Bft) O 90 7,7 C 13,1 C 16,1 km/h (3 Bft) 100,00 %
03.06.2023 08:47 14,0 C 65 % 1017,0 hPa 0,0 l/m 9,7 km/h (2 Bft) O 90 7,5 C 12,2 C 19,3 km/h (3 Bft) 100,00 %
03.06.2023 08:46 13,9 C 65 % 1017,1 hPa 0,0 l/m 4,8 km/h (1 Bft) O 90 7,4 C 13,9 C 8,0 km/h (2 Bft) 100,00 %
03.06.2023 08:45 13,9 C 65 % 1017,1 hPa 0,0 l/m 8,0 km/h (2 Bft) O-NO 67 7,4 C 12,9 C 20,9 km/h (4 Bft) 100,00 %
03.06.2023 08:44 13,9 C 65 % 1017,1 hPa 0,0 l/m 3,2 km/h (1 Bft) O 90 7,4 C 13,9 C 12,9 km/h (3 Bft) 100,00 %
03.06.2023 08:43 13,8 C 66 % 1017,1 hPa 0,0 l/m 4,8 km/h (1 Bft) NO 45 7,6 C 13,8 C 16,1 km/h (3 Bft) 100,00 %
03.06.2023 08:42 13,9 C 66 % 1017,1 hPa 0,0 l/m 11,3 km/h (2 Bft) NO 45 7,7 C 11,3 C 22,5 km/h (4 Bft) 100,00 %
03.06.2023 08:41 13,8 C 65 % 1017,1 hPa 0,0 l/m 4,8 km/h (1 Bft) O 90 7,3 C 13,8 C 12,9 km/h (3 Bft) 100,00 %
03.06.2023 08:40 13,8 C 65 % 1017,1 hPa 0,0 l/m 8,0 km/h (2 Bft) NO 45 7,3 C 12,8 C 22,5 km/h (4 Bft) 100,00 %
03.06.2023 08:39 13,8 C 65 % 1017,1 hPa 0,0 l/m 4,8 km/h (1 Bft) O 90 7,3 C 13,8 C 12,9 km/h (3 Bft) 100,00 %
03.06.2023 08:38 13,9 C 65 % 1017,1 hPa 0,0 l/m 11,3 km/h (2 Bft) NO 45 7,4 C 11,3 C 19,3 km/h (3 Bft) 100,00 %
03.06.2023 08:37 13,9 C 65 % 1017,2 hPa 0,0 l/m 12,9 km/h (3 Bft) O-NO 67 7,4 C 10,6 C 25,7 km/h (4 Bft) 100,00 %
03.06.2023 08:36 14,0 C 66 % 1017,0 hPa 0,0 l/m 8,0 km/h (2 Bft) NO 45 7,7 C 13,1 C 16,1 km/h (3 Bft) 100,00 %
03.06.2023 08:35 14,1 C 65 % 1017,1 hPa 0,0 l/m 6,4 km/h (2 Bft) NO 45 7,6 C 14,1 C 19,3 km/h (3 Bft) 100,00 %
03.06.2023 08:34 14,1 C 65 % 1017,0 hPa 0,0 l/m 9,7 km/h (2 Bft) O-NO 67 7,6 C 12,3 C 19,3 km/h (3 Bft) 100,00 %
03.06.2023 08:33 14,2 C 65 % 1016,9 hPa 0,0 l/m 8,0 km/h (2 Bft) O-NO 67 7,7 C 13,3 C 16,1 km/h (3 Bft) 100,00 %
03.06.2023 08:32 14,3 C 64 % 1017,0 hPa 0,0 l/m 9,7 km/h (2 Bft) NO 45 7,6 C 12,5 C 22,5 km/h (4 Bft) 100,00 %
03.06.2023 08:31 14,4 C 65 % 1016,9 hPa 0,0 l/m 4,8 km/h (1 Bft) O-NO 67 7,9 C 14,4 C 14,5 km/h (3 Bft) 100,00 %
03.06.2023 08:30 14,6 C 68 % 1017,0 hPa 0,0 l/m 9,7 km/h (2 Bft) NO 45 8,8 C 12,8 C 25,7 km/h (4 Bft) 100,00 %
03.06.2023 08:29 14,5 C 67 % 1017,0 hPa 0,0 l/m 3,2 km/h (1 Bft) O 90 8,4 C 14,5 C 8,0 km/h (2 Bft) 100,00 %
03.06.2023 08:28 14,4 C 68 % 1017,0 hPa 0,0 l/m 3,2 km/h (1 Bft) NO 45 8,6 C 14,4 C 6,4 km/h (2 Bft) 100,00 %
03.06.2023 08:27 14,3 C 67 % 1016,9 hPa 0,0 l/m 3,2 km/h (1 Bft) O 90 8,3 C 14,3 C 6,4 km/h (2 Bft) 100,00 %
03.06.2023 08:26 14,2 C 68 % 1016,9 hPa 0,0 l/m 4,8 km/h (1 Bft) O 90 8,4 C 14,2 C 9,7 km/h (2 Bft) 100,00 %
03.06.2023 08:25 14,2 C 68 % 1016,9 hPa 0,0 l/m 4,8 km/h (1 Bft) O 90 8,4 C 14,2 C 9,7 km/h (2 Bft) 100,00 %
03.06.2023 08:24 14,1 C 69 % 1017,0 hPa 0,0 l/m 3,2 km/h (1 Bft) O 90 8,5 C 14,1 C 6,4 km/h (2 Bft) 100,00 %
03.06.2023 08:23 14,0 C 68 % 1016,9 hPa 0,0 l/m 3,2 km/h (1 Bft) O-NO 67 8,2 C 14,0 C 11,3 km/h (2 Bft) 100,00 %
03.06.2023 08:22 14,0 C 68 % 1016,9 hPa 0,0 l/m 8,0 km/h (2 Bft) O 90 8,2 C 13,1 C 16,1 km/h (3 Bft) 100,00 %
03.06.2023 08:21 14,0 C 68 % 1016,9 hPa 0,0 l/m 4,8 km/h (1 Bft) O 90 8,2 C 14,0 C 8,0 km/h (2 Bft) 100,00 %
03.06.2023 08:20 13,9 C 68 % 1016,9 hPa 0,0 l/m 3,2 km/h (1 Bft) N 360 8,1 C 13,9 C 9,7 km/h (2 Bft) 100,00 %
03.06.2023 08:19 13,8 C 68 % 1016,9 hPa 0,0 l/m 3,2 km/h (1 Bft) NO 45 8,0 C 13,8 C 11,3 km/h (2 Bft) 100,00 %
03.06.2023 08:18 13,9 C 67 % 1016,9 hPa 0,0 l/m 6,4 km/h (2 Bft) O 90 7,9 C 13,9 C 9,7 km/h (2 Bft) 100,00 %
03.06.2023 08:17 13,9 C 67 % 1016,9 hPa 0,0 l/m 4,8 km/h (1 Bft) NO 45 7,9 C 13,9 C 9,7 km/h (2 Bft) 100,00 %
03.06.2023 08:16 13,8 C 69 % 1016,8 hPa 0,0 l/m 4,8 km/h (1 Bft) NO 45 8,2 C 13,8 C 14,5 km/h (3 Bft) 100,00 %
03.06.2023 08:15 13,8 C 69 % 1016,8 hPa 0,0 l/m 4,8 km/h (1 Bft) N-NO 22 8,2 C 13,8 C 14,5 km/h (3 Bft) 100,00 %
03.06.2023 08:14 13,7 C 69 % 1016,9 hPa 0,0 l/m 3,2 km/h (1 Bft) O 90 8,1 C 13,7 C 9,7 km/h (2 Bft) 100,00 %
03.06.2023 08:13 13,6 C 69 % 1016,8 hPa 0,0 l/m 3,2 km/h (1 Bft) NO 45 8,0 C 13,6 C 8,0 km/h (2 Bft) 100,00 %
03.06.2023 08:12 13,6 C 69 % 1016,8 hPa 0,0 l/m 3,2 km/h (1 Bft) NO 45 8,0 C 13,6 C 9,7 km/h (2 Bft) 100,00 %
03.06.2023 08:11 13,6 C 68 % 1017,0 hPa 0,0 l/m 8,0 km/h (2 Bft) NO 45 7,8 C 12,6 C 14,5 km/h (3 Bft) 100,00 %
03.06.2023 08:10 13,6 C 69 % 1016,8 hPa 0,0 l/m 8,0 km/h (2 Bft) O 90 8,0 C 12,6 C 20,9 km/h (4 Bft) 100,00 %
03.06.2023 08:09 13,6 C 69 % 1016,8 hPa 0,0 l/m 6,4 km/h (2 Bft) O-NO 67 8,0 C 13,6 C 11,3 km/h (2 Bft) 100,00 %
03.06.2023 08:08 13,5 C 69 % 1016,9 hPa 0,0 l/m 6,4 km/h (2 Bft) NO 45 7,9 C 13,5 C 11,3 km/h (2 Bft) 100,00 %
03.06.2023 08:07 13,6 C 68 % 1016,8 hPa 0,0 l/m 8,0 km/h (2 Bft) O 90 7,8 C 12,6 C 14,5 km/h (3 Bft) 100,00 %
03.06.2023 08:06 13,6 C 69 % 1016,9 hPa 0,0 l/m 6,4 km/h (2 Bft) O 90 8,0 C 13,6 C 12,9 km/h (3 Bft) 100,00 %
03.06.2023 08:05 13,6 C 69 % 1016,9 hPa 0,0 l/m 4,8 km/h (1 Bft) O 90 8,0 C 13,6 C 12,9 km/h (3 Bft) 100,00 %
03.06.2023 08:04 13,4 C 70 % 1016,8 hPa 0,0 l/m 3,2 km/h (1 Bft) NO 45 8,0 C 13,4 C 8,0 km/h (2 Bft) 100,00 %
03.06.2023 08:03 13,4 C 69 % 1016,8 hPa 0,0 l/m 4,8 km/h (1 Bft) O 90 7,8 C 13,4 C 12,9 km/h (3 Bft) 100,00 %
03.06.2023 08:02 13,3 C 70 % 1017,0 hPa 0,0 l/m 4,8 km/h (1 Bft) O-NO 67 7,9 C 13,3 C 11,3 km/h (2 Bft) 100,00 %
03.06.2023 08:01 13,3 C 69 % 1016,8 hPa 0,0 l/m 3,2 km/h (1 Bft) O-NO 67 7,7 C 13,3 C 19,3 km/h (3 Bft) 100,00 %
03.06.2023 08:00 13,2 C 69 % 1016,7 hPa 0,0 l/m 6,4 km/h (2 Bft) O-NO 67 7,6 C 13,2 C 20,9 km/h (4 Bft) 100,00 %
03.06.2023 07:59 13,3 C 69 % 1016,7 hPa 0,0 l/m 9,7 km/h (2 Bft) O 90 7,7 C 11,4 C 16,1 km/h (3 Bft) 100,00 %
03.06.2023 07:58 13,3 C 68 % 1016,8 hPa 0,0 l/m 9,7 km/h (2 Bft) NO 45 7,5 C 11,4 C 14,5 km/h (3 Bft) 100,00 %
03.06.2023 07:57 13,4 C 68 % 1016,8 hPa 0,0 l/m 12,9 km/h (3 Bft) O 90 7,6 C 10,1 C 22,5 km/h (4 Bft) 100,00 %
03.06.2023 07:56 13,6 C 69 % 1016,8 hPa 0,0 l/m 6,4 km/h (2 Bft) NO 45 8,0 C 13,6 C 16,1 km/h (3 Bft) 100,00 %
03.06.2023 07:55 13,6 C 68 % 1016,7 hPa 0,0 l/m 6,4 km/h (2 Bft) O-NO 67 7,8 C 13,6 C 14,5 km/h (3 Bft) 100,00 %
03.06.2023 07:54 13,6 C 68 % 1016,8 hPa 0,0 l/m 6,4 km/h (2 Bft) O-NO 67 7,8 C 13,6 C 11,3 km/h (2 Bft) 100,00 %
03.06.2023 07:53 13,7 C 69 % 1016,8 hPa 0,0 l/m 9,7 km/h (2 Bft) NO 45 8,1 C 11,8 C 14,5 km/h (3 Bft) 100,00 %
03.06.2023 07:52 13,7 C 70 % 1016,9 hPa 0,0 l/m 3,2 km/h (1 Bft) O 90 8,3 C 13,7 C 6,4 km/h (2 Bft) 100,00 %
03.06.2023 07:51 13,6 C 70 % 1016,9 hPa 0,0 l/m 1,6 km/h (1 Bft) NO 45 8,2 C 13,6 C 4,8 km/h (1 Bft) 100,00 %
03.06.2023 07:50 13,5 C 71 % 1016,8 hPa 0,0 l/m 1,6 km/h (1 Bft) O-NO 67 8,3 C 13,5 C 4,8 km/h (1 Bft) 100,00 %
03.06.2023 07:49 13,4 C 69 % 1016,8 hPa 0,0 l/m 3,2 km/h (1 Bft) O-NO 67 7,8 C 13,4 C 8,0 km/h (2 Bft) 69,57 %
03.06.2023 07:48 13,3 C 69 % 1016,7 hPa 0,0 l/m 3,2 km/h (1 Bft) O 90 7,7 C 13,3 C 8,0 km/h (2 Bft) 100,00 %
03.06.2023 07:47 13,4 C 71 % 1016,8 hPa 0,0 l/m 4,8 km/h (1 Bft) O-NO 67 8,3 C 13,4 C 8,0 km/h (2 Bft) 100,00 %
03.06.2023 07:46 13,3 C 70 % 1016,8 hPa 0,0 l/m 1,6 km/h (1 Bft) NO 45 7,9 C 13,3 C 6,4 km/h (2 Bft) 100,00 %
03.06.2023 07:45 13,3 C 70 % 1016,8 hPa 0,0 l/m 3,2 km/h (1 Bft) O-NO 67 7,9 C 13,3 C 8,0 km/h (2 Bft) 100,00 %
03.06.2023 07:44 13,3 C 69 % 1016,8 hPa 0,0 l/m 6,4 km/h (2 Bft) O-NO 67 7,7 C 13,3 C 11,3 km/h (2 Bft) 100,00 %
03.06.2023 07:43 13,3 C 69 % 1016,7 hPa 0,0 l/m 6,4 km/h (2 Bft) NO 45 7,7 C 13,3 C 14,5 km/h (3 Bft) 100,00 %
03.06.2023 07:42 13,3 C 70 % 1016,8 hPa 0,0 l/m 1,6 km/h (1 Bft) O-NO 67 7,9 C 13,3 C 4,8 km/h (1 Bft) 100,00 %
03.06.2023 07:41 13,3 C 70 % 1016,8 hPa 0,0 l/m 4,8 km/h (1 Bft) O-NO 67 7,9 C 13,3 C 11,3 km/h (2 Bft) 100,00 %
03.06.2023 07:40 13,3 C 69 % 1016,8 hPa 0,0 l/m 3,2 km/h (1 Bft) SO 135 7,7 C 13,3 C 6,4 km/h (2 Bft) 100,00 %
03.06.2023 07:39 13,4 C 70 % 1016,8 hPa 0,0 l/m 8,0 km/h (2 Bft) O-NO 67 8,0 C 12,4 C 14,5 km/h (3 Bft) 100,00 %
03.06.2023 07:38 13,3 C 71 % 1016,7 hPa 0,0 l/m 1,6 km/h (1 Bft) O 90 8,2 C 13,3 C 3,2 km/h (1 Bft) 100,00 %
03.06.2023 07:37 13,2 C 71 % 1016,7 hPa 0,0 l/m 1,6 km/h (1 Bft) NO 45 8,1 C 13,2 C 6,4 km/h (2 Bft) 100,00 %
03.06.2023 07:36 13,2 C 70 % 1016,7 hPa 0,0 l/m 3,2 km/h (1 Bft) O 90 7,9 C 13,2 C 9,7 km/h (2 Bft) 100,00 %
03.06.2023 07:35 13,2 C 71 % 1016,8 hPa 0,0 l/m 4,8 km/h (1 Bft) O 90 8,1 C 13,2 C 11,3 km/h (2 Bft) 100,00 %
03.06.2023 07:34 13,1 C 71 % 1016,7 hPa 0,0 l/m 1,6 km/h (1 Bft) O 90 8,0 C 13,1 C 4,8 km/h (1 Bft) 100,00 %
03.06.2023 07:33 13,0 C 71 % 1016,7 hPa 0,0 l/m 1,6 km/h (1 Bft) O-NO 67 7,9 C 13,0 C 6,4 km/h (2 Bft) 100,00 %
03.06.2023 07:32 12,9 C 71 % 1016,7 hPa 0,0 l/m 3,2 km/h (1 Bft) O 90 7,8 C 12,9 C 8,0 km/h (2 Bft) 100,00 %
03.06.2023 07:31 12,9 C 71 % 1016,8 hPa 0,0 l/m 3,2 km/h (1 Bft) O 90 7,8 C 12,9 C 9,7 km/h (2 Bft) 100,00 %
03.06.2023 07:30 12,8 C 71 % 1016,7 hPa 0,0 l/m 4,8 km/h (1 Bft) O-NO 67 7,7 C 12,8 C 11,3 km/h (2 Bft) 100,00 %
03.06.2023 07:29 12,8 C 72 % 1016,7 hPa 0,0 l/m 3,2 km/h (1 Bft) O 90 7,9 C 12,8 C 11,3 km/h (2 Bft) 100,00 %
03.06.2023 07:28 12,8 C 72 % 1016,8 hPa 0,0 l/m 3,2 km/h (1 Bft) O 90 7,9 C 12,8 C 8,0 km/h (2 Bft) 100,00 %
03.06.2023 07:27 12,8 C 71 % 1016,7 hPa 0,0 l/m 8,0 km/h (2 Bft) O 90 7,7 C 11,8 C 12,9 km/h (3 Bft) 100,00 %
03.06.2023 07:26 12,8 C 72 % 1016,7 hPa 0,0 l/m 3,2 km/h (1 Bft) O 90 7,9 C 12,8 C 8,0 km/h (2 Bft) 100,00 %
03.06.2023 07:25 12,7 C 72 % 1016,7 hPa 0,0 l/m 3,2 km/h (1 Bft) O-NO 67 7,8 C 12,7 C 9,7 km/h (2 Bft) 100,00 %
03.06.2023 07:24 12,6 C 72 % 1016,7 hPa 0,0 l/m 4,8 km/h (1 Bft) O-NO 67 7,7 C 12,6 C 8,0 km/h (2 Bft) 100,00 %
03.06.2023 07:23 12,6 C 71 % 1016,6 hPa 0,0 l/m 6,4 km/h (2 Bft) O-NO 67 7,5 C 12,6 C 16,1 km/h (3 Bft) 100,00 %
03.06.2023 07:22 12,6 C 71 % 1016,6 hPa 0,0 l/m 9,7 km/h (2 Bft) O 90 7,5 C 10,6 C 25,7 km/h (4 Bft) 100,00 %
03.06.2023 07:21 12,6 C 72 % 1016,6 hPa 0,0 l/m 6,4 km/h (2 Bft) NO 45 7,7 C 12,6 C 16,1 km/h (3 Bft) 100,00 %
03.06.2023 07:20 12,6 C 71 % 1016,6 hPa 0,0 l/m 8,0 km/h (2 Bft) O 90 7,5 C 11,6 C 14,5 km/h (3 Bft) 100,00 %
03.06.2023 07:19 12,7 C 72 % 1016,6 hPa 0,0 l/m 8,0 km/h (2 Bft) O 90 7,8 C 11,7 C 20,9 km/h (4 Bft) 100,00 %
03.06.2023 07:18 12,7 C 72 % 1016,7 hPa 0,0 l/m 4,8 km/h (1 Bft) O-NO 67 7,8 C 12,7 C 8,0 km/h (2 Bft) 100,00 %
03.06.2023 07:17 12,7 C 72 % 1016,7 hPa 0,0 l/m 9,7 km/h (2 Bft) O 90 7,8 C 10,7 C 16,1 km/h (3 Bft) 100,00 %
03.06.2023 07:16 12,6 C 73 % 1016,6 hPa 0,0 l/m 4,8 km/h (1 Bft) O 90 7,9 C 12,6 C 9,7 km/h (2 Bft) 100,00 %
03.06.2023 07:15 12,6 C 73 % 1016,7 hPa 0,0 l/m 3,2 km/h (1 Bft) O 90 7,9 C 12,6 C 8,0 km/h (2 Bft) 100,00 %
03.06.2023 07:14 12,6 C 72 % 1016,7 hPa 0,0 l/m 3,2 km/h (1 Bft) NO 45 7,7 C 12,6 C 6,4 km/h (2 Bft) 100,00 %
03.06.2023 07:13 12,5 C 72 % 1016,6 hPa 0,0 l/m 4,8 km/h (1 Bft) O-NO 67 7,6 C 12,5 C 8,0 km/h (2 Bft) 100,00 %
03.06.2023 07:12 12,5 C 72 % 1016,7 hPa 0,0 l/m 6,4 km/h (2 Bft) O 90 7,6 C 12,5 C 14,5 km/h (3 Bft) 100,00 %
03.06.2023 07:11 12,6 C 72 % 1016,7 hPa 0,0 l/m 8,0 km/h (2 Bft) O-NO 67 7,7 C 11,6 C 19,3 km/h (3 Bft) 100,00 %
03.06.2023 07:10 12,6 C 72 % 1016,8 hPa 0,0 l/m 1,6 km/h (1 Bft) N-NO 22 7,7 C 12,6 C 8,0 km/h (2 Bft) 100,00 %
03.06.2023 07:09 12,6 C 72 % 1016,7 hPa 0,0 l/m 6,4 km/h (2 Bft) O-NO 67 7,7 C 12,6 C 11,3 km/h (2 Bft) 100,00 %
03.06.2023 07:08 12,6 C 72 % 1016,8 hPa 0,0 l/m 11,3 km/h (2 Bft) O-NO 67 7,7 C 9,8 C 17,7 km/h (3 Bft) 100,00 %
03.06.2023 07:07 12,7 C 73 % 1016,8 hPa 0,0 l/m 4,8 km/h (1 Bft) NO 45 8,0 C 12,7 C 12,9 km/h (3 Bft) 100,00 %
03.06.2023 07:06 12,7 C 72 % 1016,8 hPa 0,0 l/m 6,4 km/h (2 Bft) O 90 7,8 C 12,7 C 11,3 km/h (2 Bft) 100,00 %
03.06.2023 07:05 12,7 C 73 % 1016,8 hPa 0,0 l/m 3,2 km/h (1 Bft) O-SO 112 8,0 C 12,7 C 11,3 km/h (2 Bft) 100,00 %
03.06.2023 07:04 12,7 C 73 % 1016,7 hPa 0,0 l/m 1,6 km/h (1 Bft) NO 45 8,0 C 12,7 C 4,8 km/h (1 Bft) 100,00 %
03.06.2023 07:03 12,6 C 73 % 1016,8 hPa 0,0 l/m 0,0 km/h (0 Bft) N-NW 337 7,9 C 12,6 C 1,6 km/h (1 Bft) 100,00 %
03.06.2023 07:02 12,6 C 72 % 1016,8 hPa 0,0 l/m 1,6 km/h (1 Bft) NO 45 7,7 C 12,6 C 8,0 km/h (2 Bft) 100,00 %
03.06.2023 07:01 12,6 C 73 % 1016,8 hPa 0,0 l/m 6,4 km/h (2 Bft) O-SO 112 7,9 C 12,6 C 14,5 km/h (3 Bft) 100,00 %
03.06.2023 07:00 12,6 C 74 % 1016,7 hPa 0,0 l/m 3,2 km/h (1 Bft) O-NO 67 8,1 C 12,6 C 6,4 km/h (2 Bft) 100,00 %
03.06.2023 06:59 12,5 C 73 % 1016,7 hPa 0,0 l/m 3,2 km/h (1 Bft) SO 135 7,8 C 12,5 C 6,4 km/h (2 Bft) 100,00 %
03.06.2023 06:58 12,4 C 74 % 1016,7 hPa 0,0 l/m 3,2 km/h (1 Bft) O 90 7,9 C 12,4 C 6,4 km/h (2 Bft) 100,00 %
03.06.2023 06:57 12,4 C 74 % 1016,7 hPa 0,0 l/m 0,0 km/h (0 Bft) O 90 7,9 C 12,4 C 3,2 km/h (1 Bft) 100,00 %
03.06.2023 06:56 12,3 C 73 % 1016,7 hPa 0,0 l/m 6,4 km/h (2 Bft) O-NO 67 7,6 C 12,3 C 11,3 km/h (2 Bft) 100,00 %
03.06.2023 06:55 12,4 C 73 % 1016,8 hPa 0,0 l/m 4,8 km/h (1 Bft) O 90 7,7 C 12,4 C 9,7 km/h (2 Bft) 100,00 %
03.06.2023 06:54 12,4 C 73 % 1016,7 hPa 0,0 l/m 8,0 km/h (2 Bft) O-SO 112 7,7 C 11,4 C 19,3 km/h (3 Bft) 100,00 %
03.06.2023 06:53 12,4 C 74 % 1016,7 hPa 0,0 l/m 3,2 km/h (1 Bft) O-SO 112 7,9 C 12,4 C 9,7 km/h (2 Bft) 100,00 %
03.06.2023 06:52 12,4 C 74 % 1016,6 hPa 0,0 l/m 3,2 km/h (1 Bft) O-SO 112 7,9 C 12,4 C 6,4 km/h (2 Bft) 100,00 %
03.06.2023 06:51 12,4 C 74 % 1016,6 hPa 0,0 l/m 3,2 km/h (1 Bft) O 90 7,9 C 12,4 C 8,0 km/h (2 Bft) 100,00 %
03.06.2023 06:50 12,4 C 74 % 1016,6 hPa 0,0 l/m 4,8 km/h (1 Bft) O-NO 67 7,9 C 12,4 C 11,3 km/h (2 Bft) 100,00 %
03.06.2023 06:49 12,4 C 74 % 1016,7 hPa 0,0 l/m 0,0 km/h (0 Bft) O 90 7,9 C 12,4 C 3,2 km/h (1 Bft) 69,57 %
03.06.2023 06:48 12,4 C 74 % 1016,7 hPa 0,0 l/m 1,6 km/h (1 Bft) O 90 7,9 C 12,4 C 3,2 km/h (1 Bft) 100,00 %
03.06.2023 06:47 12,5 C 73 % 1016,7 hPa 0,0 l/m 4,8 km/h (1 Bft) O-SO 112 7,8 C 12,5 C 8,0 km/h (2 Bft) 100,00 %
03.06.2023 06:46 12,6 C 74 % 1016,6 hPa 0,0 l/m 3,2 km/h (1 Bft) O 90 8,1 C 12,6 C 8,0 km/h (2 Bft) 100,00 %
03.06.2023 06:45 12,6 C 74 % 1016,6 hPa 0,0 l/m 3,2 km/h (1 Bft) O-NO 67 8,1 C 12,6 C 9,7 km/h (2 Bft) 100,00 %
03.06.2023 06:44 12,6 C 74 % 1016,6 hPa 0,0 l/m 1,6 km/h (1 Bft) NO 45 8,1 C 12,6 C 4,8 km/h (1 Bft) 100,00 %
03.06.2023 06:43 12,6 C 74 % 1016,7 hPa 0,0 l/m 3,2 km/h (1 Bft) O-NO 67 8,1 C 12,6 C 8,0 km/h (2 Bft) 100,00 %
03.06.2023 06:42 12,6 C 75 % 1016,6 hPa 0,0 l/m 0,0 km/h (0 Bft) O-SO 112 8,3 C 12,6 C 1,6 km/h (1 Bft) 100,00 %
03.06.2023 06:41 12,6 C 75 % 1016,5 hPa 0,0 l/m 1,6 km/h (1 Bft) O 90 8,3 C 12,6 C 3,2 km/h (1 Bft) 100,00 %
03.06.2023 06:40 12,5 C 75 % 1016,6 hPa 0,0 l/m 0,0 km/h (0 Bft) N 360 8,2 C 12,5 C 1,6 km/h (1 Bft) 100,00 %
03.06.2023 06:39 12,4 C 75 % 1016,5 hPa 0,0 l/m 0,0 km/h (0 Bft) O 90 8,1 C 12,4 C 3,2 km/h (1 Bft) 100,00 %
03.06.2023 06:38 12,4 C 74 % 1016,6 hPa 0,0 l/m 1,6 km/h (1 Bft) O-SO 112 7,9 C 12,4 C 3,2 km/h (1 Bft) 100,00 %
03.06.2023 06:37 12,4 C 75 % 1016,5 hPa 0,0 l/m 3,2 km/h (1 Bft) O 90 8,1 C 12,4 C 4,8 km/h (1 Bft) 100,00 %
03.06.2023 06:36 12,4 C 75 % 1016,5 hPa 0,0 l/m 1,6 km/h (1 Bft) O 90 8,1 C 12,4 C 3,2 km/h (1 Bft) 100,00 %
03.06.2023 06:35 12,4 C 74 % 1016,5 hPa 0,0 l/m 1,6 km/h (1 Bft) O-SO 112 7,9 C 12,4 C 3,2 km/h (1 Bft) 100,00 %
03.06.2023 06:34 12,3 C 74 % 1016,5 hPa 0,0 l/m 0,0 km/h (0 Bft) N 0 7,8 C 12,3 C 0,0 km/h (0 Bft) 100,00 %
03.06.2023 06:33 12,3 C 75 % 1016,5 hPa 0,0 l/m 3,2 km/h (1 Bft) O 90 8,0 C 12,3 C 8,0 km/h (2 Bft) 100,00 %
03.06.2023 06:32 12,3 C 75 % 1016,5 hPa 0,0 l/m 0,0 km/h (0 Bft) O-NO 67 8,0 C 12,3 C 3,2 km/h (1 Bft) 100,00 %
03.06.2023 06:31 12,2 C 75 % 1016,5 hPa 0,0 l/m 0,0 km/h (0 Bft) N 0 7,9 C 12,2 C 0,0 km/h (0 Bft) 100,00 %
03.06.2023 06:30 12,2 C 76 % 1016,5 hPa 0,0 l/m 1,6 km/h (1 Bft) O 90 8,1 C 12,2 C 4,8 km/h (1 Bft) 100,00 %
03.06.2023 06:29 12,1 C 76 % 1016,5 hPa 0,0 l/m 0,0 km/h (0 Bft) O-NO 67 8,0 C 12,1 C 1,6 km/h (1 Bft) 100,00 %
03.06.2023 06:28 12,1 C 75 % 1016,4 hPa 0,0 l/m 0,0 km/h (0 Bft) O 90 7,8 C 12,1 C 1,6 km/h (1 Bft) 100,00 %
03.06.2023 06:27 12,1 C 75 % 1016,4 hPa 0,0 l/m 1,6 km/h (1 Bft) O 90 7,8 C 12,1 C 3,2 km/h (1 Bft) 100,00 %
03.06.2023 06:26 12,1 C 75 % 1016,4 hPa 0,0 l/m 4,8 km/h (1 Bft) O 90 7,8 C 12,1 C 11,3 km/h (2 Bft) 100,00 %
03.06.2023 06:25 12,1 C 75 % 1016,5 hPa 0,0 l/m 3,2 km/h (1 Bft) NO 45 7,8 C 12,1 C 6,4 km/h (2 Bft) 100,00 %
03.06.2023 06:24 12,0 C 76 % 1016,4 hPa 0,0 l/m 1,6 km/h (1 Bft) NO 45 7,9 C 12,0 C 4,8 km/h (1 Bft) 100,00 %
03.06.2023 06:23 11,9 C 75 % 1016,4 hPa 0,0 l/m 1,6 km/h (1 Bft) O 90 7,6 C 11,9 C 4,8 km/h (1 Bft) 100,00 %
03.06.2023 06:22 11,9 C 75 % 1016,4 hPa 0,0 l/m 3,2 km/h (1 Bft) NO 45 7,6 C 11,9 C 8,0 km/h (2 Bft) 100,00 %
03.06.2023 06:21 11,9 C 76 % 1016,4 hPa 0,0 l/m 0,0 km/h (0 Bft) O 90 7,8 C 11,9 C 1,6 km/h (1 Bft) 100,00 %
03.06.2023 06:20 11,8 C 76 % 1016,4 hPa 0,0 l/m 1,6 km/h (1 Bft) N-NO 22 7,7 C 11,8 C 3,2 km/h (1 Bft) 100,00 %
03.06.2023 06:19 11,8 C 76 % 1016,3 hPa 0,0 l/m 1,6 km/h (1 Bft) S-SO 157 7,7 C 11,8 C 3,2 km/h (1 Bft) 100,00 %
03.06.2023 06:18 11,8 C 76 % 1016,3 hPa 0,0 l/m 4,8 km/h (1 Bft) O 90 7,7 C 11,8 C 8,0 km/h (2 Bft) 100,00 %
03.06.2023 06:17 11,7 C 76 % 1016,3 hPa 0,0 l/m 3,2 km/h (1 Bft) O 90 7,6 C 11,7 C 8,0 km/h (2 Bft) 100,00 %
03.06.2023 06:16 11,7 C 77 % 1016,3 hPa 0,0 l/m 0,0 km/h (0 Bft) N 0 7,8 C 11,7 C 0,0 km/h (0 Bft) 100,00 %
03.06.2023 06:15 11,6 C 77 % 1016,3 hPa 0,0 l/m 0,0 km/h (0 Bft) NO 45 7,7 C 11,6 C 1,6 km/h (1 Bft) 100,00 %
03.06.2023 06:14 11,6 C 77 % 1016,3 hPa 0,0 l/m 0,0 km/h (0 Bft) O 90 7,7 C 11,6 C 1,6 km/h (1 Bft) 100,00 %
03.06.2023 06:13 11,5 C 77 % 1016,4 hPa 0,0 l/m 4,8 km/h (1 Bft) O-NO 67 7,6 C 11,5 C 9,7 km/h (2 Bft) 100,00 %
03.06.2023 06:12 11,5 C 77 % 1016,4 hPa 0,0 l/m 1,6 km/h (1 Bft) SO 135 7,6 C 11,5 C 3,2 km/h (1 Bft) 100,00 %
03.06.2023 06:11 11,5 C 77 % 1016,2 hPa 0,0 l/m 0,0 km/h (0 Bft) NO 45 7,6 C 11,5 C 3,2 km/h (1 Bft) 100,00 %
03.06.2023 06:10 11,4 C 77 % 1016,2 hPa 0,0 l/m 0,0 km/h (0 Bft) N 0 7,5 C 11,4 C 0,0 km/h (0 Bft) 100,00 %
03.06.2023 06:09 11,4 C 77 % 1016,2 hPa 0,0 l/m 1,6 km/h (1 Bft) O 90 7,5 C 11,4 C 3,2 km/h (1 Bft) 100,00 %
03.06.2023 06:08 11,4 C 77 % 1016,3 hPa 0,0 l/m 0,0 km/h (0 Bft) O-SO 112 7,5 C 11,4 C 3,2 km/h (1 Bft) 100,00 %
03.06.2023 06:07 11,4 C 77 % 1016,2 hPa 0,0 l/m 0,0 km/h (0 Bft) O-NO 67 7,5 C 11,4 C 1,6 km/h (1 Bft) 100,00 %
03.06.2023 06:06 11,4 C 77 % 1016,2 hPa 0,0 l/m 0,0 km/h (0 Bft) O 90 7,5 C 11,4 C 1,6 km/h (1 Bft) 100,00 %
03.06.2023 06:05 11,4 C 77 % 1016,2 hPa 0,0 l/m 0,0 km/h (0 Bft) O 90 7,5 C 11,4 C 1,6 km/h (1 Bft) 100,00 %
03.06.2023 06:04 11,4 C 77 % 1016,2 hPa 0,0 l/m 0,0 km/h (0 Bft) O-SO 112 7,5 C 11,4 C 1,6 km/h (1 Bft) 100,00 %
03.06.2023 06:03 11,4 C 77 % 1016,2 hPa 0,0 l/m 3,2 km/h (1 Bft) O 90 7,5 C 11,4 C 8,0 km/h (2 Bft) 100,00 %
03.06.2023 06:02 11,3 C 77 % 1016,2 hPa 0,0 l/m 1,6 km/h (1 Bft) O 90 7,4 C 11,3 C 3,2 km/h (1 Bft) 100,00 %
03.06.2023 06:01 11,4 C 77 % 1016,2 hPa 0,0 l/m 1,6 km/h (1 Bft) SO 135 7,5 C 11,4 C 4,8 km/h (1 Bft) 100,00 %
03.06.2023 06:00 11,3 C 77 % 1016,2 hPa 0,0 l/m 0,0 km/h (0 Bft) N 0 7,4 C 11,3 C 0,0 km/h (0 Bft) 100,00 %
03.06.2023 05:59 11,4 C 77 % 1016,2 hPa 0,0 l/m 0,0 km/h (0 Bft) O 90 7,5 C 11,4 C 1,6 km/h (1 Bft) 100,00 %
03.06.2023 05:58 11,3 C 77 % 1016,2 hPa 0,0 l/m 4,8 km/h (1 Bft) O-NO 67 7,4 C 11,3 C 9,7 km/h (2 Bft) 100,00 %
03.06.2023 05:57 11,3 C 77 % 1016,2 hPa 0,0 l/m 3,2 km/h (1 Bft) O-NO 67 7,4 C 11,3 C 6,4 km/h (2 Bft) 100,00 %
03.06.2023 05:56 11,3 C 77 % 1016,1 hPa 0,0 l/m 0,0 km/h (0 Bft) O-NO 67 7,4 C 11,3 C 1,6 km/h (1 Bft) 100,00 %
03.06.2023 05:55 11,3 C 77 % 1016,1 hPa 0,0 l/m 0,0 km/h (0 Bft) O 90 7,4 C 11,3 C 1,6 km/h (1 Bft) 100,00 %
03.06.2023 05:54 11,4 C 76 % 1016,2 hPa 0,0 l/m 0,0 km/h (0 Bft) N 0 7,3 C 11,4 C 0,0 km/h (0 Bft) 100,00 %
03.06.2023 05:53 11,3 C 77 % 1016,2 hPa 0,0 l/m 0,0 km/h (0 Bft) O-NO 67 7,4 C 11,3 C 1,6 km/h (1 Bft) 100,00 %
03.06.2023 05:52 11,3 C 76 % 1016,2 hPa 0,0 l/m 1,6 km/h (1 Bft) O-SO 112 7,2 C 11,3 C 4,8 km/h (1 Bft) 100,00 %
03.06.2023 05:51 11,3 C 76 % 1016,2 hPa 0,0 l/m 3,2 km/h (1 Bft) O 90 7,2 C 11,3 C 8,0 km/h (2 Bft) 100,00 %
03.06.2023 05:50 11,3 C 76 % 1016,2 hPa 0,0 l/m 1,6 km/h (1 Bft) O-NO 67 7,2 C 11,3 C 4,8 km/h (1 Bft) 100,00 %
03.06.2023 05:49 11,3 C 76 % 1016,1 hPa 0,0 l/m 0,0 km/h (0 Bft) SO 135 7,2 C 11,3 C 1,6 km/h (1 Bft) 73,91 %
03.06.2023 05:48 11,3 C 76 % 1016,2 hPa 0,0 l/m 0,0 km/h (0 Bft) O-SO 112 7,2 C 11,3 C 3,2 km/h (1 Bft) 100,00 %
03.06.2023 05:47 11,3 C 76 % 1016,2 hPa 0,0 l/m 0,0 km/h (0 Bft) O 90 7,2 C 11,3 C 3,2 km/h (1 Bft) 100,00 %
03.06.2023 05:46 11,4 C 76 % 1016,2 hPa 0,0 l/m 0,0 km/h (0 Bft) NO 45 7,3 C 11,4 C 3,2 km/h (1 Bft) 100,00 %
03.06.2023 05:45 11,4 C 76 % 1016,2 hPa 0,0 l/m 0,0 km/h (0 Bft) O-NO 67 7,3 C 11,4 C 1,6 km/h (1 Bft) 100,00 %
03.06.2023 05:44 11,4 C 76 % 1016,2 hPa 0,0 l/m 0,0 km/h (0 Bft) O-NO 67 7,3 C 11,4 C 1,6 km/h (1 Bft) 100,00 %
03.06.2023 05:43 11,4 C 76 % 1016,1 hPa 0,0 l/m 0,0 km/h (0 Bft) O-SO 112 7,3 C 11,4 C 3,2 km/h (1 Bft) 100,00 %
03.06.2023 05:42 11,4 C 76 % 1016,1 hPa 0,0 l/m 3,2 km/h (1 Bft) NO 45 7,3 C 11,4 C 6,4 km/h (2 Bft) 100,00 %
03.06.2023 05:41 11,3 C 76 % 1016,1 hPa 0,0 l/m 1,6 km/h (1 Bft) O-NO 67 7,2 C 11,3 C 9,7 km/h (2 Bft) 100,00 %
03.06.2023 05:40 11,4 C 76 % 1016,1 hPa 0,0 l/m 4,8 km/h (1 Bft) O 90 7,3 C 11,4 C 8,0 km/h (2 Bft) 100,00 %
03.06.2023 05:39 11,3 C 76 % 1016,1 hPa 0,0 l/m 1,6 km/h (1 Bft) O 90 7,2 C 11,3 C 6,4 km/h (2 Bft) 100,00 %
03.06.2023 05:38 11,3 C 76 % 1016,1 hPa 0,0 l/m 3,2 km/h (1 Bft) O-NO 67 7,2 C 11,3 C 6,4 km/h (2 Bft) 100,00 %
03.06.2023 05:37 11,3 C 76 % 1016,1 hPa 0,0 l/m 4,8 km/h (1 Bft) O 90 7,2 C 11,3 C 11,3 km/h (2 Bft) 100,00 %
03.06.2023 05:36 11,3 C 76 % 1016,2 hPa 0,0 l/m 0,0 km/h (0 Bft) NO 45 7,2 C 11,3 C 1,6 km/h (1 Bft) 100,00 %
03.06.2023 05:35 11,3 C 76 % 1016,2 hPa 0,0 l/m 0,0 km/h (0 Bft) O 90 7,2 C 11,3 C 1,6 km/h (1 Bft) 100,00 %
03.06.2023 05:34 11,3 C 76 % 1016,1 hPa 0,0 l/m 1,6 km/h (1 Bft) O 90 7,2 C 11,3 C 8,0 km/h (2 Bft) 100,00 %
03.06.2023 05:33 11,3 C 76 % 1016,2 hPa 0,0 l/m 1,6 km/h (1 Bft) O 90 7,2 C 11,3 C 6,4 km/h (2 Bft) 100,00 %
03.06.2023 05:32 11,3 C 76 % 1016,2 hPa 0,0 l/m 1,6 km/h (1 Bft) NO 45 7,2 C 11,3 C 4,8 km/h (1 Bft) 100,00 %
03.06.2023 05:31 11,3 C 76 % 1016,1 hPa 0,0 l/m 0,0 km/h (0 Bft) O-NO 67 7,2 C 11,3 C 3,2 km/h (1 Bft) 100,00 %
03.06.2023 05:30 11,3 C 76 % 1016,1 hPa 0,0 l/m 0,0 km/h (0 Bft) O 90 7,2 C 11,3 C 3,2 km/h (1 Bft) 100,00 %
03.06.2023 05:29 11,3 C 76 % 1016,0 hPa 0,0 l/m 1,6 km/h (1 Bft) O-SO 112 7,2 C 11,3 C 3,2 km/h (1 Bft) 100,00 %
03.06.2023 05:28 11,4 C 76 % 1016,1 hPa 0,0 l/m 0,0 km/h (0 Bft) N 0 7,3 C 11,4 C 0,0 km/h (0 Bft) 100,00 %
03.06.2023 05:27 11,4 C 76 % 1016,1 hPa 0,0 l/m 0,0 km/h (0 Bft) N 0 7,3 C 11,4 C 0,0 km/h (0 Bft) 100,00 %
03.06.2023 05:26 11,4 C 76 % 1016,1 hPa 0,0 l/m 0,0 km/h (0 Bft) O-SO 112 7,3 C 11,4 C 3,2 km/h (1 Bft) 100,00 %
03.06.2023 05:25 11,4 C 76 % 1016,0 hPa 0,0 l/m 0,0 km/h (0 Bft) N 0 7,3 C 11,4 C 0,0 km/h (0 Bft) 100,00 %
03.06.2023 05:24 11,4 C 75 % 1016,1 hPa 0,0 l/m 0,0 km/h (0 Bft) NO 45 7,1 C 11,4 C 3,2 km/h (1 Bft) 100,00 %
03.06.2023 05:23 11,5 C 75 % 1016,1 hPa 0,0 l/m 1,6 km/h (1 Bft) O 90 7,2 C 11,5 C 4,8 km/h (1 Bft) 100,00 %
03.06.2023 05:22 11,4 C 75 % 1016,0 hPa 0,0 l/m 0,0 km/h (0 Bft) N 0 7,1 C 11,4 C 0,0 km/h (0 Bft) 100,00 %
03.06.2023 05:21 11,5 C 75 % 1016,0 hPa 0,0 l/m 0,0 km/h (0 Bft) O-NO 67 7,2 C 11,5 C 3,2 km/h (1 Bft) 100,00 %
03.06.2023 05:20 11,5 C 75 % 1016,0 hPa 0,0 l/m 4,8 km/h (1 Bft) O 90 7,2 C 11,5 C 9,7 km/h (2 Bft) 100,00 %
03.06.2023 05:19 11,6 C 75 % 1016,1 hPa 0,0 l/m 1,6 km/h (1 Bft) N 360 7,3 C 11,6 C 8,0 km/h (2 Bft) 100,00 %
03.06.2023 05:18 11,6 C 75 % 1015,9 hPa 0,0 l/m 0,0 km/h (0 Bft) O-NO 67 7,3 C 11,6 C 1,6 km/h (1 Bft) 100,00 %
03.06.2023 05:17 11,6 C 75 % 1016,0 hPa 0,0 l/m 1,6 km/h (1 Bft) O-NO 67 7,3 C 11,6 C 4,8 km/h (1 Bft) 100,00 %
03.06.2023 05:16 11,6 C 75 % 1016,1 hPa 0,0 l/m 0,0 km/h (0 Bft) O-NO 67 7,3 C 11,6 C 3,2 km/h (1 Bft) 100,00 %
03.06.2023 05:15 11,6 C 75 % 1015,9 hPa 0,0 l/m 1,6 km/h (1 Bft) NO 45 7,3 C 11,6 C 3,2 km/h (1 Bft) 100,00 %
03.06.2023 05:14 11,6 C 75 % 1016,1 hPa 0,0 l/m 0,0 km/h (0 Bft) O-SO 112 7,3 C 11,6 C 1,6 km/h (1 Bft) 100,00 %
03.06.2023 05:13 11,6 C 75 % 1016,0 hPa 0,0 l/m 4,8 km/h (1 Bft) O-NO 67 7,3 C 11,6 C 12,9 km/h (3 Bft) 100,00 %
03.06.2023 05:12 11,6 C 75 % 1016,0 hPa 0,0 l/m 1,6 km/h (1 Bft) O-NO 67 7,3 C 11,6 C 3,2 km/h (1 Bft) 100,00 %
03.06.2023 05:11 11,6 C 74 % 1015,9 hPa 0,0 l/m 1,6 km/h (1 Bft) O-NO 67 7,1 C 11,6 C 6,4 km/h (2 Bft) 100,00 %
03.06.2023 05:10 11,7 C 74 % 1016,0 hPa 0,0 l/m 1,6 km/h (1 Bft) O 90 7,2 C 11,7 C 9,7 km/h (2 Bft) 100,00 %
03.06.2023 05:09 11,7 C 74 % 1015,9 hPa 0,0 l/m 3,2 km/h (1 Bft) NO 45 7,2 C 11,7 C 9,7 km/h (2 Bft) 100,00 %
03.06.2023 05:08 11,7 C 74 % 1015,9 hPa 0,0 l/m 3,2 km/h (1 Bft) O 90 7,2 C 11,7 C 6,4 km/h (2 Bft) 100,00 %
03.06.2023 05:07 11,7 C 74 % 1015,9 hPa 0,0 l/m 1,6 km/h (1 Bft) O-SO 112 7,2 C 11,7 C 4,8 km/h (1 Bft) 100,00 %
03.06.2023 05:06 11,7 C 74 % 1015,9 hPa 0,0 l/m 1,6 km/h (1 Bft) O 90 7,2 C 11,7 C 4,8 km/h (1 Bft) 100,00 %
03.06.2023 05:05 11,7 C 74 % 1015,9 hPa 0,0 l/m 1,6 km/h (1 Bft) O 90 7,2 C 11,7 C 4,8 km/h (1 Bft) 100,00 %
03.06.2023 05:04 11,7 C 74 % 1016,0 hPa 0,0 l/m 0,0 km/h (0 Bft) N 0 7,2 C 11,7 C 0,0 km/h (0 Bft) 100,00 %
03.06.2023 05:03 11,7 C 74 % 1015,9 hPa 0,0 l/m 1,6 km/h (1 Bft) O-SO 112 7,2 C 11,7 C 4,8 km/h (1 Bft) 100,00 %
03.06.2023 05:02 11,8 C 74 % 1015,9 hPa 0,0 l/m 4,8 km/h (1 Bft) O-SO 112 7,3 C 11,8 C 9,7 km/h (2 Bft) 100,00 %
03.06.2023 05:01 11,8 C 74 % 1015,9 hPa 0,0 l/m 3,2 km/h (1 Bft) O-NO 67 7,3 C 11,8 C 8,0 km/h (2 Bft) 100,00 %
03.06.2023 05:00 11,8 C 74 % 1015,8 hPa 0,0 l/m 1,6 km/h (1 Bft) O-NO 67 7,3 C 11,8 C 6,4 km/h (2 Bft) 100,00 %
03.06.2023 04:59 11,8 C 74 % 1015,9 hPa 0,0 l/m 1,6 km/h (1 Bft) S-SO 157 7,3 C 11,8 C 4,8 km/h (1 Bft) 100,00 %
03.06.2023 04:58 11,8 C 73 % 1015,9 hPa 0,0 l/m 0,0 km/h (0 Bft) O 90 7,1 C 11,8 C 1,6 km/h (1 Bft) 100,00 %
03.06.2023 04:57 11,8 C 73 % 1015,9 hPa 0,0 l/m 3,2 km/h (1 Bft) NO 45 7,1 C 11,8 C 11,3 km/h (2 Bft) 100,00 %
03.06.2023 04:56 11,9 C 73 % 1015,8 hPa 0,0 l/m 0,0 km/h (0 Bft) O-NO 67 7,2 C 11,9 C 3,2 km/h (1 Bft) 100,00 %
03.06.2023 04:55 11,8 C 73 % 1015,9 hPa 0,0 l/m 3,2 km/h (1 Bft) O-NO 67 7,1 C 11,8 C 8,0 km/h (2 Bft) 100,00 %
03.06.2023 04:54 11,9 C 74 % 1015,9 hPa 0,0 l/m 1,6 km/h (1 Bft) NO 45 7,4 C 11,9 C 6,4 km/h (2 Bft) 100,00 %
03.06.2023 04:53 11,9 C 74 % 1015,9 hPa 0,0 l/m 1,6 km/h (1 Bft) O 90 7,4 C 11,9 C 3,2 km/h (1 Bft) 100,00 %
03.06.2023 04:52 11,9 C 74 % 1015,8 hPa 0,0 l/m 1,6 km/h (1 Bft) O 90 7,4 C 11,9 C 3,2 km/h (1 Bft) 100,00 %
03.06.2023 04:51 11,9 C 74 % 1015,8 hPa 0,0 l/m 3,2 km/h (1 Bft) NO 45 7,4 C 11,9 C 8,0 km/h (2 Bft) 100,00 %
03.06.2023 04:50 11,9 C 74 % 1015,8 hPa 0,0 l/m 3,2 km/h (1 Bft) O 90 7,4 C 11,9 C 8,0 km/h (2 Bft) 100,00 %
03.06.2023 04:49 11,9 C 74 % 1015,8 hPa 0,0 l/m 6,4 km/h (2 Bft) O 90 7,4 C 11,9 C 11,3 km/h (2 Bft) 82,61 %
03.06.2023 04:48 11,9 C 74 % 1015,8 hPa 0,0 l/m 8,0 km/h (2 Bft) NO 45 7,4 C 10,8 C 12,9 km/h (3 Bft) 82,61 %
03.06.2023 04:47 11,9 C 74 % 1015,8 hPa 0,0 l/m 6,4 km/h (2 Bft) O-NO 67 7,4 C 11,9 C 9,7 km/h (2 Bft) 100,00 %
03.06.2023 04:46 11,9 C 75 % 1015,7 hPa 0,0 l/m 6,4 km/h (2 Bft) O 90 7,6 C 11,9 C 11,3 km/h (2 Bft) 100,00 %
03.06.2023 04:45 11,9 C 75 % 1015,8 hPa 0,0 l/m 3,2 km/h (1 Bft) O-NO 67 7,6 C 11,9 C 6,4 km/h (2 Bft) 100,00 %
03.06.2023 04:44 11,9 C 75 % 1015,8 hPa 0,0 l/m 4,8 km/h (1 Bft) O 90 7,6 C 11,9 C 6,4 km/h (2 Bft) 100,00 %
03.06.2023 04:43 12,0 C 75 % 1015,6 hPa 0,0 l/m 1,6 km/h (1 Bft) NO 45 7,7 C 12,0 C 3,2 km/h (1 Bft) 100,00 %
03.06.2023 04:42 12,0 C 75 % 1015,8 hPa 0,0 l/m 3,2 km/h (1 Bft) O 90 7,7 C 12,0 C 6,4 km/h (2 Bft) 100,00 %
03.06.2023 04:41 12,0 C 75 % 1015,7 hPa 0,0 l/m 1,6 km/h (1 Bft) O 90 7,7 C 12,0 C 3,2 km/h (1 Bft) 100,00 %
03.06.2023 04:40 12,1 C 75 % 1015,8 hPa 0,0 l/m 0,0 km/h (0 Bft) O 90 7,8 C 12,1 C 1,6 km/h (1 Bft) 100,00 %
03.06.2023 04:39 12,1 C 75 % 1015,8 hPa 0,0 l/m 3,2 km/h (1 Bft) NO 45 7,8 C 12,1 C 9,7 km/h (2 Bft) 100,00 %
03.06.2023 04:38 12,1 C 75 % 1015,7 hPa 0,0 l/m 4,8 km/h (1 Bft) O-NO 67 7,8 C 12,1 C 9,7 km/h (2 Bft) 100,00 %
03.06.2023 04:37 12,1 C 75 % 1015,8 hPa 0,0 l/m 1,6 km/h (1 Bft) NO 45 7,8 C 12,1 C 3,2 km/h (1 Bft) 100,00 %
03.06.2023 04:36 12,1 C 75 % 1015,8 hPa 0,0 l/m 0,0 km/h (0 Bft) S-SO 157 7,8 C 12,1 C 1,6 km/h (1 Bft) 100,00 %
03.06.2023 04:35 12,2 C 75 % 1015,8 hPa 0,0 l/m 4,8 km/h (1 Bft) NO 45 7,9 C 12,2 C 17,7 km/h (3 Bft) 100,00 %
03.06.2023 04:34 12,2 C 75 % 1015,7 hPa 0,0 l/m 4,8 km/h (1 Bft) O-NO 67 7,9 C 12,2 C 14,5 km/h (3 Bft) 100,00 %
03.06.2023 04:33 12,2 C 75 % 1015,7 hPa 0,0 l/m 3,2 km/h (1 Bft) N-NO 22 7,9 C 12,2 C 11,3 km/h (2 Bft) 100,00 %
03.06.2023 04:32 12,2 C 75 % 1015,6 hPa 0,0 l/m 1,6 km/h (1 Bft) O 90 7,9 C 12,2 C 4,8 km/h (1 Bft) 100,00 %
03.06.2023 04:31 12,2 C 75 % 1015,7 hPa 0,0 l/m 6,4 km/h (2 Bft) O-NO 67 7,9 C 12,2 C 16,1 km/h (3 Bft) 100,00 %
03.06.2023 04:30 12,2 C 75 % 1015,5 hPa 0,0 l/m 1,6 km/h (1 Bft) NO 45 7,9 C 12,2 C 3,2 km/h (1 Bft) 100,00 %
03.06.2023 04:29 12,2 C 75 % 1015,6 hPa 0,0 l/m 3,2 km/h (1 Bft) O 90 7,9 C 12,2 C 9,7 km/h (2 Bft) 100,00 %
03.06.2023 04:28 12,2 C 75 % 1015,6 hPa 0,0 l/m 0,0 km/h (0 Bft) NO 45 7,9 C 12,2 C 25,7 km/h (4 Bft) 100,00 %
03.06.2023 04:27 12,2 C 75 % 1015,7 hPa 0,0 l/m 11,3 km/h (2 Bft) O-NO 67 7,9 C 9,4 C 25,7 km/h (4 Bft) 100,00 %
03.06.2023 04:26 12,3 C 75 % 1015,7 hPa 0,0 l/m 1,6 km/h (1 Bft) NO 45 8,0 C 12,3 C 4,8 km/h (1 Bft) 100,00 %
03.06.2023 04:25 12,3 C 75 % 1015,6 hPa 0,0 l/m 1,6 km/h (1 Bft) O 90 8,0 C 12,3 C 6,4 km/h (2 Bft) 100,00 %
03.06.2023 04:24 12,3 C 75 % 1015,6 hPa 0,0 l/m 1,6 km/h (1 Bft) O 90 8,0 C 12,3 C 4,8 km/h (1 Bft) 100,00 %
03.06.2023 04:23 12,3 C 75 % 1015,6 hPa 0,0 l/m 3,2 km/h (1 Bft) O-SO 112 8,0 C 12,3 C 6,4 km/h (2 Bft) 100,00 %
03.06.2023 04:22 12,3 C 75 % 1015,6 hPa 0,0 l/m 9,7 km/h (2 Bft) SO 135 8,0 C 10,3 C 19,3 km/h (3 Bft) 100,00 %
03.06.2023 04:21 12,3 C 75 % 1015,6 hPa 0,0 l/m 6,4 km/h (2 Bft) O-NO 67 8,0 C 12,3 C 16,1 km/h (3 Bft) 100,00 %
03.06.2023 04:20 12,3 C 75 % 1015,6 hPa 0,0 l/m 4,8 km/h (1 Bft) O 90 8,0 C 12,3 C 16,1 km/h (3 Bft) 100,00 %
03.06.2023 04:19 12,3 C 75 % 1015,6 hPa 0,0 l/m 3,2 km/h (1 Bft) O-SO 112 8,0 C 12,3 C 11,3 km/h (2 Bft) 100,00 %
03.06.2023 04:18 12,3 C 75 % 1015,6 hPa 0,0 l/m 3,2 km/h (1 Bft) O 90 8,0 C 12,3 C 8,0 km/h (2 Bft) 100,00 %
03.06.2023 04:17 12,3 C 75 % 1015,5 hPa 0,0 l/m 3,2 km/h (1 Bft) NO 45 8,0 C 12,3 C 6,4 km/h (2 Bft) 100,00 %
03.06.2023 04:16 12,3 C 75 % 1015,7 hPa 0,0 l/m 4,8 km/h (1 Bft) O-NO 67 8,0 C 12,3 C 9,7 km/h (2 Bft) 100,00 %
03.06.2023 04:15 12,3 C 75 % 1015,6 hPa 0,0 l/m 6,4 km/h (2 Bft) NO 45 8,0 C 12,3 C 11,3 km/h (2 Bft) 100,00 %
03.06.2023 04:14 12,3 C 76 % 1015,6 hPa 0,0 l/m 1,6 km/h (1 Bft) N-NO 22 8,2 C 12,3 C 3,2 km/h (1 Bft) 100,00 %
03.06.2023 04:13 12,4 C 76 % 1015,6 hPa 0,0 l/m 3,2 km/h (1 Bft) O 90 8,3 C 12,4 C 12,9 km/h (3 Bft) 100,00 %
03.06.2023 04:12 12,3 C 76 % 1015,5 hPa 0,0 l/m 1,6 km/h (1 Bft) NO 45 8,2 C 12,3 C 3,2 km/h (1 Bft) 100,00 %
03.06.2023 04:11 12,4 C 76 % 1015,5 hPa 0,0 l/m 1,6 km/h (1 Bft) O 90 8,3 C 12,4 C 6,4 km/h (2 Bft) 100,00 %
03.06.2023 04:10 12,3 C 76 % 1015,5 hPa 0,0 l/m 9,7 km/h (2 Bft) O 90 8,2 C 10,3 C 17,7 km/h (3 Bft) 100,00 %
03.06.2023 04:09 12,3 C 76 % 1015,6 hPa 0,0 l/m 3,2 km/h (1 Bft) NO 45 8,2 C 12,3 C 8,0 km/h (2 Bft) 100,00 %
03.06.2023 04:08 12,3 C 76 % 1015,6 hPa 0,0 l/m 6,4 km/h (2 Bft) O-SO 112 8,2 C 12,3 C 16,1 km/h (3 Bft) 100,00 %
03.06.2023 04:07 12,4 C 76 % 1015,5 hPa 0,0 l/m 3,2 km/h (1 Bft) O-NO 67 8,3 C 12,4 C 11,3 km/h (2 Bft) 100,00 %
03.06.2023 04:06 12,4 C 76 % 1015,6 hPa 0,0 l/m 1,6 km/h (1 Bft) O 90 8,3 C 12,4 C 6,4 km/h (2 Bft) 100,00 %
03.06.2023 04:05 12,4 C 76 % 1015,5 hPa 0,0 l/m 0,0 km/h (0 Bft) O-NO 67 8,3 C 12,4 C 1,6 km/h (1 Bft) 100,00 %
03.06.2023 04:04 12,4 C 76 % 1015,6 hPa 0,0 l/m 0,0 km/h (0 Bft) O-NO 67 8,3 C 12,4 C 1,6 km/h (1 Bft) 100,00 %
03.06.2023 04:03 12,4 C 76 % 1015,5 hPa 0,0 l/m 0,0 km/h (0 Bft) O-NO 67 8,3 C 12,4 C 1,6 km/h (1 Bft) 100,00 %
03.06.2023 04:02 12,5 C 76 % 1015,5 hPa 0,0 l/m 1,6 km/h (1 Bft) O 90 8,4 C 12,5 C 8,0 km/h (2 Bft) 100,00 %
03.06.2023 04:01 12,5 C 76 % 1015,5 hPa 0,0 l/m 3,2 km/h (1 Bft) O 90 8,4 C 12,5 C 9,7 km/h (2 Bft) 100,00 %
03.06.2023 04:00 12,5 C 76 % 1015,6 hPa 0,0 l/m 1,6 km/h (1 Bft) NO 45 8,4 C 12,5 C 9,7 km/h (2 Bft) 100,00 %
03.06.2023 03:59 12,6 C 76 % 1015,6 hPa 0,0 l/m 0,0 km/h (0 Bft) N 360 8,5 C 12,6 C 3,2 km/h (1 Bft) 100,00 %
03.06.2023 03:58 12,6 C 76 % 1015,6 hPa 0,0 l/m 1,6 km/h (1 Bft) O 90 8,5 C 12,6 C 4,8 km/h (1 Bft) 100,00 %
03.06.2023 03:57 12,6 C 76 % 1015,6 hPa 0,0 l/m 1,6 km/h (1 Bft) N-NO 22 8,5 C 12,6 C 8,0 km/h (2 Bft) 100,00 %
03.06.2023 03:56 12,6 C 76 % 1015,5 hPa 0,0 l/m 1,6 km/h (1 Bft) O 90 8,5 C 12,6 C 4,8 km/h (1 Bft) 100,00 %
03.06.2023 03:55 12,6 C 76 % 1015,5 hPa 0,0 l/m 1,6 km/h (1 Bft) O-NO 67 8,5 C 12,6 C 6,4 km/h (2 Bft) 100,00 %
03.06.2023 03:54 12,7 C 76 % 1015,5 hPa 0,0 l/m 1,6 km/h (1 Bft) NO 45 8,6 C 12,7 C 3,2 km/h (1 Bft) 100,00 %
03.06.2023 03:53 12,6 C 76 % 1015,5 hPa 0,0 l/m 3,2 km/h (1 Bft) O-NO 67 8,5 C 12,6 C 20,9 km/h (4 Bft) 100,00 %
03.06.2023 03:52 12,6 C 76 % 1015,6 hPa 0,0 l/m 9,7 km/h (2 Bft) O 90 8,5 C 10,6 C 20,9 km/h (4 Bft) 100,00 %
03.06.2023 03:51 12,6 C 76 % 1015,6 hPa 0,0 l/m 3,2 km/h (1 Bft) O 90 8,5 C 12,6 C 12,9 km/h (3 Bft) 100,00 %
03.06.2023 03:50 12,6 C 76 % 1015,5 hPa 0,0 l/m 1,6 km/h (1 Bft) O-NO 67 8,5 C 12,6 C 1,6 km/h (1 Bft) 100,00 %
03.06.2023 03:49 12,6 C 76 % 1015,6 hPa 0,0 l/m 4,8 km/h (1 Bft) O-NO 67 8,5 C 12,6 C 8,0 km/h (2 Bft) 100,00 %
03.06.2023 03:48 12,6 C 76 % 1015,5 hPa 0,0 l/m 0,0 km/h (0 Bft) N-NO 22 8,5 C 12,6 C 8,0 km/h (2 Bft) 69,57 %
03.06.2023 03:47 12,6 C 76 % 1015,6 hPa 0,0 l/m 1,6 km/h (1 Bft) O-NO 67 8,5 C 12,6 C 3,2 km/h (1 Bft) 100,00 %
03.06.2023 03:46 12,6 C 76 % 1015,6 hPa 0,0 l/m 1,6 km/h (1 Bft) O-NO 67 8,5 C 12,6 C 3,2 km/h (1 Bft) 100,00 %
03.06.2023 03:45 12,7 C 76 % 1015,6 hPa 0,0 l/m 3,2 km/h (1 Bft) O-NO 67 8,6 C 12,7 C 8,0 km/h (2 Bft) 100,00 %
03.06.2023 03:44 12,7 C 76 % 1015,6 hPa 0,0 l/m 0,0 km/h (0 Bft) NO 45 8,6 C 12,7 C 1,6 km/h (1 Bft) 100,00 %
03.06.2023 03:43 12,7 C 76 % 1015,5 hPa 0,0 l/m 0,0 km/h (0 Bft) W-NW 292 8,6 C 12,7 C 1,6 km/h (1 Bft) 100,00 %
03.06.2023 03:42 12,7 C 76 % 1015,7 hPa 0,0 l/m 0,0 km/h (0 Bft) O 90 8,6 C 12,7 C 3,2 km/h (1 Bft) 100,00 %
03.06.2023 03:41 12,7 C 76 % 1015,6 hPa 0,0 l/m 3,2 km/h (1 Bft) O-NO 67 8,6 C 12,7 C 6,4 km/h (2 Bft) 100,00 %
03.06.2023 03:40 12,7 C 76 % 1015,6 hPa 0,0 l/m 3,2 km/h (1 Bft) O 90 8,6 C 12,7 C 11,3 km/h (2 Bft) 100,00 %
03.06.2023 03:39 12,7 C 76 % 1015,6 hPa 0,0 l/m 0,0 km/h (0 Bft) O 90 8,6 C 12,7 C 1,6 km/h (1 Bft) 100,00 %
03.06.2023 03:38 12,8 C 76 % 1015,6 hPa 0,0 l/m 0,0 km/h (0 Bft) O-NO 67 8,7 C 12,8 C 1,6 km/h (1 Bft) 100,00 %
03.06.2023 03:37 12,8 C 76 % 1015,6 hPa 0,0 l/m 1,6 km/h (1 Bft) O 90 8,7 C 12,8 C 4,8 km/h (1 Bft) 100,00 %
03.06.2023 03:36 12,8 C 76 % 1015,7 hPa 0,0 l/m 1,6 km/h (1 Bft) O-NO 67 8,7 C 12,8 C 3,2 km/h (1 Bft) 100,00 %
03.06.2023 03:35 12,8 C 76 % 1015,7 hPa 0,0 l/m 0,0 km/h (0 Bft) NO 45 8,7 C 12,8 C 1,6 km/h (1 Bft) 100,00 %
03.06.2023 03:34 12,8 C 76 % 1015,7 hPa 0,0 l/m 3,2 km/h (1 Bft) N-NO 22 8,7 C 12,8 C 8,0 km/h (2 Bft) 100,00 %
03.06.2023 03:33 12,8 C 76 % 1015,7 hPa 0,0 l/m 4,8 km/h (1 Bft) NO 45 8,7 C 12,8 C 11,3 km/h (2 Bft) 100,00 %
03.06.2023 03:32 12,8 C 76 % 1015,8 hPa 0,0 l/m 3,2 km/h (1 Bft) NO 45 8,7 C 12,8 C 9,7 km/h (2 Bft) 100,00 %
03.06.2023 03:31 12,8 C 76 % 1015,8 hPa 0,0 l/m 1,6 km/h (1 Bft) O 90 8,7 C 12,8 C 3,2 km/h (1 Bft) 100,00 %
03.06.2023 03:30 12,8 C 76 % 1015,7 hPa 0,0 l/m 3,2 km/h (1 Bft) O 90 8,7 C 12,8 C 6,4 km/h (2 Bft) 100,00 %
03.06.2023 03:29 12,8 C 76 % 1015,7 hPa 0,0 l/m 0,0 km/h (0 Bft) N 360 8,7 C 12,8 C 1,6 km/h (1 Bft) 100,00 %
03.06.2023 03:28 12,8 C 75 % 1015,6 hPa 0,0 l/m 1,6 km/h (1 Bft) O-NO 67 8,5 C 12,8 C 3,2 km/h (1 Bft) 100,00 %
03.06.2023 03:27 12,9 C 75 % 1015,6 hPa 0,0 l/m 0,0 km/h (0 Bft) O-NO 67 8,6 C 12,9 C 1,6 km/h (1 Bft) 100,00 %
03.06.2023 03:26 12,9 C 75 % 1015,6 hPa 0,0 l/m 1,6 km/h (1 Bft) SO 135 8,6 C 12,9 C 3,2 km/h (1 Bft) 100,00 %
03.06.2023 03:25 12,9 C 75 % 1015,6 hPa 0,0 l/m 1,6 km/h (1 Bft) SO 135 8,6 C 12,9 C 4,8 km/h (1 Bft) 100,00 %
03.06.2023 03:24 12,9 C 75 % 1015,6 hPa 0,0 l/m 0,0 km/h (0 Bft) O-NO 67 8,6 C 12,9 C 1,6 km/h (1 Bft) 100,00 %
03.06.2023 03:23 12,9 C 75 % 1015,6 hPa 0,0 l/m 0,0 km/h (0 Bft) O-SO 112 8,6 C 12,9 C 1,6 km/h (1 Bft) 100,00 %
03.06.2023 03:22 12,9 C 75 % 1015,6 hPa 0,0 l/m 0,0 km/h (0 Bft) N 0 8,6 C 12,9 C 0,0 km/h (0 Bft) 100,00 %
03.06.2023 03:21 12,9 C 75 % 1015,6 hPa 0,0 l/m 3,2 km/h (1 Bft) O-NO 67 8,6 C 12,9 C 6,4 km/h (2 Bft) 100,00 %
03.06.2023 03:20 12,8 C 75 % 1015,6 hPa 0,0 l/m 4,8 km/h (1 Bft) NO 45 8,5 C 12,8 C 12,9 km/h (3 Bft) 100,00 %
03.06.2023 03:19 12,8 C 76 % 1015,6 hPa 0,0 l/m 1,6 km/h (1 Bft) NO 45 8,7 C 12,8 C 9,7 km/h (2 Bft) 100,00 %
03.06.2023 03:18 12,8 C 76 % 1015,5 hPa 0,0 l/m 0,0 km/h (0 Bft) O-SO 112 8,7 C 12,8 C 3,2 km/h (1 Bft) 100,00 %
03.06.2023 03:17 12,8 C 76 % 1015,7 hPa 0,0 l/m 1,6 km/h (1 Bft) SO 135 8,7 C 12,8 C 4,8 km/h (1 Bft) 100,00 %
03.06.2023 03:16 12,8 C 76 % 1015,7 hPa 0,0 l/m 3,2 km/h (1 Bft) SO 135 8,7 C 12,8 C 8,0 km/h (2 Bft) 100,00 %
03.06.2023 03:15 12,8 C 76 % 1015,6 hPa 0,0 l/m 0,0 km/h (0 Bft) O 90 8,7 C 12,8 C 3,2 km/h (1 Bft) 100,00 %
03.06.2023 03:14 12,8 C 76 % 1015,6 hPa 0,0 l/m 0,0 km/h (0 Bft) NO 45 8,7 C 12,8 C 3,2 km/h (1 Bft) 100,00 %
03.06.2023 03:13 12,8 C 76 % 1015,6 hPa 0,0 l/m 0,0 km/h (0 Bft) SO 135 8,7 C 12,8 C 1,6 km/h (1 Bft) 100,00 %
03.06.2023 03:12 12,9 C 76 % 1015,6 hPa 0,0 l/m 3,2 km/h (1 Bft) O 90 8,8 C 12,9 C 4,8 km/h (1 Bft) 100,00 %
03.06.2023 03:11 12,9 C 76 % 1015,7 hPa 0,0 l/m 0,0 km/h (0 Bft) O-NO 67 8,8 C 12,9 C 1,6 km/h (1 Bft) 100,00 %
03.06.2023 03:10 12,9 C 75 % 1015,5 hPa 0,0 l/m 0,0 km/h (0 Bft) N 0 8,6 C 12,9 C 0,0 km/h (0 Bft) 100,00 %
03.06.2023 03:09 12,9 C 75 % 1015,5 hPa 0,0 l/m 3,2 km/h (1 Bft) NO 45 8,6 C 12,9 C 6,4 km/h (2 Bft) 100,00 %
03.06.2023 03:08 12,9 C 76 % 1015,6 hPa 0,0 l/m 1,6 km/h (1 Bft) O-SO 112 8,8 C 12,9 C 4,8 km/h (1 Bft) 100,00 %
03.06.2023 03:07 13,0 C 75 % 1015,6 hPa 0,0 l/m 1,6 km/h (1 Bft) O 90 8,7 C 13,0 C 4,8 km/h (1 Bft) 100,00 %
03.06.2023 03:06 13,0 C 75 % 1015,5 hPa 0,0 l/m 0,0 km/h (0 Bft) N-NO 22 8,7 C 13,0 C 1,6 km/h (1 Bft) 100,00 %
03.06.2023 03:05 13,0 C 75 % 1015,6 hPa 0,0 l/m 0,0 km/h (0 Bft) N 0 8,7 C 13,0 C 0,0 km/h (0 Bft) 100,00 %
03.06.2023 03:04 13,1 C 75 % 1015,5 hPa 0,0 l/m 3,2 km/h (1 Bft) O 90 8,8 C 13,1 C 8,0 km/h (2 Bft) 100,00 %
03.06.2023 03:03 13,0 C 75 % 1015,6 hPa 0,0 l/m 3,2 km/h (1 Bft) NO 45 8,7 C 13,0 C 11,3 km/h (2 Bft) 100,00 %
03.06.2023 03:02 13,1 C 75 % 1015,5 hPa 0,0 l/m 0,0 km/h (0 Bft) O-NO 67 8,8 C 13,1 C 1,6 km/h (1 Bft) 100,00 %
03.06.2023 03:01 13,1 C 75 % 1015,5 hPa 0,0 l/m 1,6 km/h (1 Bft) O 90 8,8 C 13,1 C 4,8 km/h (1 Bft) 100,00 %
03.06.2023 03:00 13,1 C 75 % 1015,6 hPa 0,0 l/m 0,0 km/h (0 Bft) N 0 8,8 C 13,1 C 0,0 km/h (0 Bft) 100,00 %
03.06.2023 02:59 13,1 C 75 % 1015,6 hPa 0,0 l/m 0,0 km/h (0 Bft) O 90 8,8 C 13,1 C 1,6 km/h (1 Bft) 100,00 %
03.06.2023 02:58 13,1 C 75 % 1015,6 hPa 0,0 l/m 0,0 km/h (0 Bft) O-SO 112 8,8 C 13,1 C 3,2 km/h (1 Bft) 100,00 %
03.06.2023 02:57 13,1 C 74 % 1015,6 hPa 0,0 l/m 3,2 km/h (1 Bft) O-NO 67 8,6 C 13,1 C 6,4 km/h (2 Bft) 100,00 %
03.06.2023 02:56 13,1 C 75 % 1015,6 hPa 0,0 l/m 1,6 km/h (1 Bft) NO 45 8,8 C 13,1 C 8,0 km/h (2 Bft) 100,00 %
03.06.2023 02:55 13,1 C 75 % 1015,6 hPa 0,0 l/m 1,6 km/h (1 Bft) N 360 8,8 C 13,1 C 11,3 km/h (2 Bft) 100,00 %
03.06.2023 02:54 13,1 C 75 % 1015,5 hPa 0,0 l/m 4,8 km/h (1 Bft) O-NO 67 8,8 C 13,1 C 9,7 km/h (2 Bft) 100,00 %
03.06.2023 02:53 13,1 C 75 % 1015,5 hPa 0,0 l/m 3,2 km/h (1 Bft) O 90 8,8 C 13,1 C 11,3 km/h (2 Bft) 100,00 %
03.06.2023 02:52 13,1 C 75 % 1015,5 hPa 0,0 l/m 4,8 km/h (1 Bft) O-SO 112 8,8 C 13,1 C 8,0 km/h (2 Bft) 100,00 %
03.06.2023 02:51 13,1 C 74 % 1015,5 hPa 0,0 l/m 0,0 km/h (0 Bft) O 90 8,6 C 13,1 C 3,2 km/h (1 Bft) 100,00 %
03.06.2023 02:50 13,1 C 74 % 1015,5 hPa 0,0 l/m 0,0 km/h (0 Bft) N-NO 22 8,6 C 13,1 C 1,6 km/h (1 Bft) 100,00 %
03.06.2023 02:49 13,1 C 74 % 1015,5 hPa 0,0 l/m 0,0 km/h (0 Bft) N 0 8,6 C 13,1 C 0,0 km/h (0 Bft) 100,00 %
03.06.2023 02:48 13,1 C 74 % 1015,5 hPa 0,0 l/m 0,0 km/h (0 Bft) O-SO 112 8,6 C 13,1 C 1,6 km/h (1 Bft) 73,91 %
03.06.2023 02:47 13,1 C 74 % 1015,5 hPa 0,0 l/m 0,0 km/h (0 Bft) O-SO 112 8,6 C 13,1 C 1,6 km/h (1 Bft) 100,00 %
03.06.2023 02:46 13,2 C 74 % 1015,5 hPa 0,0 l/m 0,0 km/h (0 Bft) N 0 8,7 C 13,2 C 0,0 km/h (0 Bft) 100,00 %
03.06.2023 02:45 13,1 C 74 % 1015,5 hPa 0,0 l/m 0,0 km/h (0 Bft) NO 45 8,6 C 13,1 C 1,6 km/h (1 Bft) 100,00 %
03.06.2023 02:44 13,1 C 74 % 1015,4 hPa 0,0 l/m 3,2 km/h (1 Bft) O-NO 67 8,6 C 13,1 C 4,8 km/h (1 Bft) 100,00 %
03.06.2023 02:43 13,2 C 74 % 1015,4 hPa 0,0 l/m 0,0 km/h (0 Bft) N 0 8,7 C 13,2 C 0,0 km/h (0 Bft) 100,00 %
03.06.2023 02:42 13,2 C 74 % 1015,5 hPa 0,0 l/m 0,0 km/h (0 Bft) N 0 8,7 C 13,2 C 0,0 km/h (0 Bft) 100,00 %
03.06.2023 02:41 13,2 C 74 % 1015,4 hPa 0,0 l/m 0,0 km/h (0 Bft) N 0 8,7 C 13,2 C 0,0 km/h (0 Bft) 100,00 %
03.06.2023 02:40 13,2 C 74 % 1015,4 hPa 0,0 l/m 1,6 km/h (1 Bft) O-NO 67 8,7 C 13,2 C 6,4 km/h (2 Bft) 100,00 %
03.06.2023 02:39 13,2 C 74 % 1015,4 hPa 0,0 l/m 0,0 km/h (0 Bft) O 90 8,7 C 13,2 C 4,8 km/h (1 Bft) 100,00 %
03.06.2023 02:38 13,1 C 74 % 1015,4 hPa 0,0 l/m 3,2 km/h (1 Bft) O 90 8,6 C 13,1 C 6,4 km/h (2 Bft) 100,00 %
03.06.2023 02:37 13,1 C 74 % 1015,4 hPa 0,0 l/m 0,0 km/h (0 Bft) O-NO 67 8,6 C 13,1 C 1,6 km/h (1 Bft) 100,00 %
03.06.2023 02:36 13,1 C 74 % 1015,4 hPa 0,0 l/m 0,0 km/h (0 Bft) O-SO 112 8,6 C 13,1 C 3,2 km/h (1 Bft) 100,00 %
03.06.2023 02:35 13,1 C 74 % 1015,4 hPa 0,0 l/m 1,6 km/h (1 Bft) S-SO 157 8,6 C 13,1 C 3,2 km/h (1 Bft) 100,00 %
03.06.2023 02:34 13,1 C 74 % 1015,4 hPa 0,0 l/m 0,0 km/h (0 Bft) O 90 8,6 C 13,1 C 1,6 km/h (1 Bft) 100,00 %
03.06.2023 02:33 13,1 C 74 % 1015,4 hPa 0,0 l/m 0,0 km/h (0 Bft) N 0 8,6 C 13,1 C 0,0 km/h (0 Bft) 100,00 %
03.06.2023 02:32 13,1 C 74 % 1015,4 hPa 0,0 l/m 0,0 km/h (0 Bft) O 90 8,6 C 13,1 C 1,6 km/h (1 Bft) 100,00 %
03.06.2023 02:31 13,1 C 74 % 1015,4 hPa 0,0 l/m 1,6 km/h (1 Bft) O-SO 112 8,6 C 13,1 C 3,2 km/h (1 Bft) 100,00 %
03.06.2023 02:30 13,0 C 74 % 1015,3 hPa 0,0 l/m 0,0 km/h (0 Bft) O 90 8,5 C 13,0 C 1,6 km/h (1 Bft) 100,00 %
03.06.2023 02:29 13,0 C 74 % 1015,3 hPa 0,0 l/m 0,0 km/h (0 Bft) O 90 8,5 C 13,0 C 3,2 km/h (1 Bft) 100,00 %
03.06.2023 02:28 13,0 C 74 % 1015,4 hPa 0,0 l/m 1,6 km/h (1 Bft) O-NO 67 8,5 C 13,0 C 3,2 km/h (1 Bft) 100,00 %
03.06.2023 02:27 12,9 C 74 % 1015,3 hPa 0,0 l/m 0,0 km/h (0 Bft) N 0 8,4 C 12,9 C 0,0 km/h (0 Bft) 100,00 %
03.06.2023 02:26 12,9 C 74 % 1015,3 hPa 0,0 l/m 0,0 km/h (0 Bft) N 0 8,4 C 12,9 C 0,0 km/h (0 Bft) 100,00 %
03.06.2023 02:25 13,0 C 74 % 1015,3 hPa 0,0 l/m 0,0 km/h (0 Bft) N 0 8,5 C 13,0 C 0,0 km/h (0 Bft) 100,00 %
03.06.2023 02:24 12,9 C 74 % 1015,2 hPa 0,0 l/m 0,0 km/h (0 Bft) N 0 8,4 C 12,9 C 0,0 km/h (0 Bft) 100,00 %
03.06.2023 02:23 12,9 C 74 % 1015,3 hPa 0,0 l/m 0,0 km/h (0 Bft) SO 135 8,4 C 12,9 C 1,6 km/h (1 Bft) 100,00 %
03.06.2023 02:22 12,9 C 74 % 1015,3 hPa 0,0 l/m 0,0 km/h (0 Bft) N 0 8,4 C 12,9 C 6,4 km/h (2 Bft) 100,00 %
03.06.2023 02:21 12,9 C 74 % 1015,3 hPa 0,0 l/m 1,6 km/h (1 Bft) SO 135 8,4 C 12,9 C 6,4 km/h (2 Bft) 100,00 %
03.06.2023 02:20 12,9 C 74 % 1015,4 hPa 0,0 l/m 0,0 km/h (0 Bft) N 0 8,4 C 12,9 C 0,0 km/h (0 Bft) 100,00 %
03.06.2023 02:19 12,9 C 74 % 1015,3 hPa 0,0 l/m 1,6 km/h (1 Bft) O-NO 67 8,4 C 12,9 C 3,2 km/h (1 Bft) 100,00 %
03.06.2023 02:18 12,9 C 74 % 1015,3 hPa 0,0 l/m 0,0 km/h (0 Bft) O 90 8,4 C 12,9 C 1,6 km/h (1 Bft) 100,00 %
03.06.2023 02:17 13,0 C 74 % 1015,3 hPa 0,0 l/m 0,0 km/h (0 Bft) N 0 8,5 C 13,0 C 0,0 km/h (0 Bft) 100,00 %
03.06.2023 02:16 13,0 C 74 % 1015,3 hPa 0,0 l/m 0,0 km/h (0 Bft) O-NO 67 8,5 C 13,0 C 1,6 km/h (1 Bft) 100,00 %
03.06.2023 02:15 13,1 C 74 % 1015,3 hPa 0,0 l/m 0,0 km/h (0 Bft) N 0 8,6 C 13,1 C 0,0 km/h (0 Bft) 100,00 %
03.06.2023 02:14 13,1 C 74 % 1015,4 hPa 0,0 l/m 0,0 km/h (0 Bft) N 0 8,6 C 13,1 C 0,0 km/h (0 Bft) 100,00 %
03.06.2023 02:13 13,1 C 74 % 1015,4 hPa 0,0 l/m 0,0 km/h (0 Bft) O-NO 67 8,6 C 13,1 C 1,6 km/h (1 Bft) 100,00 %
03.06.2023 02:12 13,1 C 74 % 1015,3 hPa 0,0 l/m 0,0 km/h (0 Bft) N-NW 337 8,6 C 13,1 C 1,6 km/h (1 Bft) 100,00 %
03.06.2023 02:11 13,1 C 74 % 1015,4 hPa 0,0 l/m 0,0 km/h (0 Bft) O-SO 112 8,6 C 13,1 C 1,6 km/h (1 Bft) 100,00 %
03.06.2023 02:10 13,2 C 74 % 1015,3 hPa 0,0 l/m 0,0 km/h (0 Bft) O-SO 112 8,7 C 13,2 C 1,6 km/h (1 Bft) 100,00 %
03.06.2023 02:09 13,2 C 74 % 1015,4 hPa 0,0 l/m 0,0 km/h (0 Bft) O-SO 112 8,7 C 13,2 C 1,6 km/h (1 Bft) 100,00 %
03.06.2023 02:08 13,2 C 73 % 1015,3 hPa 0,0 l/m 0,0 km/h (0 Bft) SO 135 8,5 C 13,2 C 1,6 km/h (1 Bft) 100,00 %
03.06.2023 02:07 13,2 C 73 % 1015,4 hPa 0,0 l/m 0,0 km/h (0 Bft) N 0 8,5 C 13,2 C 0,0 km/h (0 Bft) 100,00 %
03.06.2023 02:06 13,2 C 73 % 1015,3 hPa 0,0 l/m 0,0 km/h (0 Bft) N 0 8,5 C 13,2 C 0,0 km/h (0 Bft) 100,00 %
03.06.2023 02:05 13,2 C 74 % 1015,4 hPa 0,0 l/m 0,0 km/h (0 Bft) O 90 8,7 C 13,2 C 1,6 km/h (1 Bft) 100,00 %
03.06.2023 02:04 13,1 C 74 % 1015,3 hPa 0,0 l/m 0,0 km/h (0 Bft) O 90 8,6 C 13,1 C 1,6 km/h (1 Bft) 100,00 %
03.06.2023 02:03 13,1 C 74 % 1015,3 hPa 0,0 l/m 0,0 km/h (0 Bft) N 0 8,6 C 13,1 C 0,0 km/h (0 Bft) 100,00 %
03.06.2023 02:02 13,1 C 74 % 1015,3 hPa 0,0 l/m 0,0 km/h (0 Bft) N 0 8,6 C 13,1 C 0,0 km/h (0 Bft) 100,00 %
03.06.2023 02:01 13,1 C 74 % 1015,3 hPa 0,0 l/m 0,0 km/h (0 Bft) O-SO 112 8,6 C 13,1 C 1,6 km/h (1 Bft) 100,00 %
03.06.2023 02:00 13,1 C 74 % 1015,3 hPa 0,0 l/m 0,0 km/h (0 Bft) SO 135 8,6 C 13,1 C 1,6 km/h (1 Bft) 100,00 %
03.06.2023 01:59 13,1 C 74 % 1015,3 hPa 0,0 l/m 0,0 km/h (0 Bft) O 90 8,6 C 13,1 C 1,6 km/h (1 Bft) 100,00 %
03.06.2023 01:58 13,1 C 74 % 1015,3 hPa 0,0 l/m 0,0 km/h (0 Bft) O 90 8,6 C 13,1 C 3,2 km/h (1 Bft) 100,00 %
03.06.2023 01:57 13,0 C 74 % 1015,3 hPa 0,0 l/m 0,0 km/h (0 Bft) N 0 8,5 C 13,0 C 0,0 km/h (0 Bft) 100,00 %
03.06.2023 01:56 13,1 C 74 % 1015,2 hPa 0,0 l/m 0,0 km/h (0 Bft) O 90 8,6 C 13,1 C 1,6 km/h (1 Bft) 100,00 %
03.06.2023 01:55 13,0 C 74 % 1015,2 hPa 0,0 l/m 0,0 km/h (0 Bft) O-SO 112 8,5 C 13,0 C 1,6 km/h (1 Bft) 100,00 %
03.06.2023 01:54 13,0 C 74 % 1015,2 hPa 0,0 l/m 0,0 km/h (0 Bft) N 0 8,5 C 13,0 C 0,0 km/h (0 Bft) 100,00 %
03.06.2023 01:53 13,1 C 74 % 1015,3 hPa 0,0 l/m 0,0 km/h (0 Bft) N 0 8,6 C 13,1 C 0,0 km/h (0 Bft) 100,00 %
03.06.2023 01:52 13,1 C 74 % 1015,2 hPa 0,0 l/m 0,0 km/h (0 Bft) N 0 8,6 C 13,1 C 0,0 km/h (0 Bft) 100,00 %
03.06.2023 01:51 13,1 C 73 % 1015,3 hPa 0,0 l/m 0,0 km/h (0 Bft) N 0 8,4 C 13,1 C 0,0 km/h (0 Bft) 100,00 %
03.06.2023 01:50 13,2 C 73 % 1015,3 hPa 0,0 l/m 0,0 km/h (0 Bft) N 0 8,5 C 13,2 C 0,0 km/h (0 Bft) 100,00 %
03.06.2023 01:49 13,2 C 73 % 1015,2 hPa 0,0 l/m 0,0 km/h (0 Bft) N 0 8,5 C 13,2 C 0,0 km/h (0 Bft) 100,00 %
03.06.2023 01:48 13,2 C 73 % 1015,3 hPa 0,0 l/m 0,0 km/h (0 Bft) N 0 8,5 C 13,2 C 0,0 km/h (0 Bft) 69,57 %
03.06.2023 01:47 13,3 C 73 % 1015,3 hPa 0,0 l/m 0,0 km/h (0 Bft) N 0 8,6 C 13,3 C 0,0 km/h (0 Bft) 100,00 %
03.06.2023 01:46 13,3 C 73 % 1015,2 hPa 0,0 l/m 0,0 km/h (0 Bft) N 0 8,6 C 13,3 C 0,0 km/h (0 Bft) 100,00 %
03.06.2023 01:45 13,4 C 73 % 1015,2 hPa 0,0 l/m 0,0 km/h (0 Bft) N 0 8,7 C 13,4 C 0,0 km/h (0 Bft) 100,00 %
03.06.2023 01:44 13,4 C 72 % 1015,3 hPa 0,0 l/m 0,0 km/h (0 Bft) N 0 8,5 C 13,4 C 0,0 km/h (0 Bft) 100,00 %
03.06.2023 01:43 13,4 C 72 % 1015,3 hPa 0,0 l/m 0,0 km/h (0 Bft) N 0 8,5 C 13,4 C 0,0 km/h (0 Bft) 100,00 %
03.06.2023 01:42 13,5 C 72 % 1015,2 hPa 0,0 l/m 0,0 km/h (0 Bft) N 0 8,6 C 13,5 C 0,0 km/h (0 Bft) 100,00 %
03.06.2023 01:41 13,5 C 72 % 1015,3 hPa 0,0 l/m 0,0 km/h (0 Bft) N 0 8,6 C 13,5 C 0,0 km/h (0 Bft) 100,00 %
03.06.2023 01:40 13,6 C 72 % 1015,3 hPa 0,0 l/m 0,0 km/h (0 Bft) NO 45 8,6 C 13,6 C 1,6 km/h (1 Bft) 100,00 %
03.06.2023 01:39 13,6 C 72 % 1015,3 hPa 0,0 l/m 0,0 km/h (0 Bft) N 0 8,6 C 13,6 C 0,0 km/h (0 Bft) 100,00 %
03.06.2023 01:38 13,6 C 72 % 1015,2 hPa 0,0 l/m 0,0 km/h (0 Bft) O 90 8,6 C 13,6 C 1,6 km/h (1 Bft) 100,00 %
03.06.2023 01:37 13,6 C 72 % 1015,3 hPa 0,0 l/m 0,0 km/h (0 Bft) N-NO 22 8,6 C 13,6 C 1,6 km/h (1 Bft) 100,00 %
03.06.2023 01:36 13,7 C 72 % 1015,4 hPa 0,0 l/m 0,0 km/h (0 Bft) N-NW 337 8,7 C 13,7 C 1,6 km/h (1 Bft) 100,00 %
03.06.2023 01:35 13,7 C 72 % 1015,3 hPa 0,0 l/m 0,0 km/h (0 Bft) N 0 8,7 C 13,7 C 0,0 km/h (0 Bft) 100,00 %
03.06.2023 01:34 13,7 C 72 % 1015,3 hPa 0,0 l/m 1,6 km/h (1 Bft) O 90 8,7 C 13,7 C 4,8 km/h (1 Bft) 100,00 %
03.06.2023 01:33 13,7 C 72 % 1015,4 hPa 0,0 l/m 0,0 km/h (0 Bft) N 0 8,7 C 13,7 C 0,0 km/h (0 Bft) 100,00 %
03.06.2023 01:32 13,7 C 72 % 1015,3 hPa 0,0 l/m 0,0 km/h (0 Bft) N 0 8,7 C 13,7 C 0,0 km/h (0 Bft) 100,00 %
03.06.2023 01:31 13,7 C 72 % 1015,3 hPa 0,0 l/m 0,0 km/h (0 Bft) NO 45 8,7 C 13,7 C 1,6 km/h (1 Bft) 100,00 %
03.06.2023 01:30 13,7 C 72 % 1015,4 hPa 0,0 l/m 0,0 km/h (0 Bft) N 360 8,7 C 13,7 C 1,6 km/h (1 Bft) 100,00 %
03.06.2023 01:29 13,8 C 72 % 1015,4 hPa 0,0 l/m 0,0 km/h (0 Bft) N 360 8,8 C 13,8 C 1,6 km/h (1 Bft) 100,00 %
03.06.2023 01:28 13,8 C 72 % 1015,3 hPa 0,0 l/m 0,0 km/h (0 Bft) N 0 8,8 C 13,8 C 0,0 km/h (0 Bft) 100,00 %
03.06.2023 01:27 13,8 C 72 % 1015,3 hPa 0,0 l/m 0,0 km/h (0 Bft) N 360 8,8 C 13,8 C 1,6 km/h (1 Bft) 100,00 %
03.06.2023 01:26 13,8 C 72 % 1015,4 hPa 0,0 l/m 0,0 km/h (0 Bft) NO 45 8,8 C 13,8 C 1,6 km/h (1 Bft) 100,00 %
03.06.2023 01:25 13,8 C 72 % 1015,3 hPa 0,0 l/m 0,0 km/h (0 Bft) N 360 8,8 C 13,8 C 1,6 km/h (1 Bft) 100,00 %
03.06.2023 01:24 13,8 C 72 % 1015,4 hPa 0,0 l/m 0,0 km/h (0 Bft) N-NO 22 8,8 C 13,8 C 3,2 km/h (1 Bft) 100,00 %
03.06.2023 01:23 13,8 C 72 % 1015,4 hPa 0,0 l/m 1,6 km/h (1 Bft) N 360 8,8 C 13,8 C 4,8 km/h (1 Bft) 100,00 %
03.06.2023 01:22 13,8 C 72 % 1015,4 hPa 0,0 l/m 0,0 km/h (0 Bft) O 90 8,8 C 13,8 C 1,6 km/h (1 Bft) 100,00 %
03.06.2023 01:21 13,8 C 72 % 1015,4 hPa 0,0 l/m 0,0 km/h (0 Bft) N 0 8,8 C 13,8 C 0,0 km/h (0 Bft) 100,00 %
03.06.2023 01:20 13,9 C 72 % 1015,3 hPa 0,0 l/m 0,0 km/h (0 Bft) O-NO 67 8,9 C 13,9 C 1,6 km/h (1 Bft) 100,00 %
03.06.2023 01:19 13,9 C 72 % 1015,3 hPa 0,0 l/m 0,0 km/h (0 Bft) N 0 8,9 C 13,9 C 0,0 km/h (0 Bft) 100,00 %
03.06.2023 01:18 13,9 C 72 % 1015,3 hPa 0,0 l/m 0,0 km/h (0 Bft) N 0 8,9 C 13,9 C 0,0 km/h (0 Bft) 100,00 %
03.06.2023 01:17 13,9 C 73 % 1015,4 hPa 0,0 l/m 0,0 km/h (0 Bft) N 360 9,1 C 13,9 C 1,6 km/h (1 Bft) 100,00 %
03.06.2023 01:16 13,9 C 73 % 1015,3 hPa 0,0 l/m 0,0 km/h (0 Bft) O-NO 67 9,1 C 13,9 C 1,6 km/h (1 Bft) 100,00 %
03.06.2023 01:15 13,9 C 73 % 1015,3 hPa 0,0 l/m 0,0 km/h (0 Bft) N 0 9,1 C 13,9 C 0,0 km/h (0 Bft) 100,00 %
03.06.2023 01:14 13,9 C 73 % 1015,3 hPa 0,0 l/m 0,0 km/h (0 Bft) N 0 9,1 C 13,9 C 0,0 km/h (0 Bft) 100,00 %
03.06.2023 01:13 13,9 C 72 % 1015,2 hPa 0,0 l/m 0,0 km/h (0 Bft) N 0 8,9 C 13,9 C 0,0 km/h (0 Bft) 100,00 %
03.06.2023 01:12 14,0 C 72 % 1015,3 hPa 0,0 l/m 0,0 km/h (0 Bft) N 0 9,0 C 14,0 C 0,0 km/h (0 Bft) 100,00 %
03.06.2023 01:11 14,1 C 72 % 1015,3 hPa 0,0 l/m 0,0 km/h (0 Bft) N 0 9,1 C 14,1 C 0,0 km/h (0 Bft) 100,00 %
03.06.2023 01:10 14,1 C 72 % 1015,3 hPa 0,0 l/m 0,0 km/h (0 Bft) N 0 9,1 C 14,1 C 0,0 km/h (0 Bft) 100,00 %
03.06.2023 01:09 14,1 C 72 % 1015,3 hPa 0,0 l/m 0,0 km/h (0 Bft) N 0 9,1 C 14,1 C 0,0 km/h (0 Bft) 100,00 %
03.06.2023 01:08 14,1 C 72 % 1015,3 hPa 0,0 l/m 0,0 km/h (0 Bft) N 0 9,1 C 14,1 C 0,0 km/h (0 Bft) 100,00 %
03.06.2023 01:07 14,1 C 72 % 1015,4 hPa 0,0 l/m 0,0 km/h (0 Bft) N 0 9,1 C 14,1 C 0,0 km/h (0 Bft) 100,00 %
03.06.2023 01:06 14,2 C 72 % 1015,3 hPa 0,0 l/m 0,0 km/h (0 Bft) O-NO 67 9,2 C 14,2 C 1,6 km/h (1 Bft) 100,00 %
03.06.2023 01:05 14,2 C 72 % 1015,3 hPa 0,0 l/m 0,0 km/h (0 Bft) N 0 9,2 C 14,2 C 0,0 km/h (0 Bft) 100,00 %
03.06.2023 01:04 14,2 C 72 % 1015,3 hPa 0,0 l/m 0,0 km/h (0 Bft) N 0 9,2 C 14,2 C 0,0 km/h (0 Bft) 100,00 %
03.06.2023 01:03 14,3 C 72 % 1015,3 hPa 0,0 l/m 0,0 km/h (0 Bft) N 0 9,3 C 14,3 C 0,0 km/h (0 Bft) 100,00 %
03.06.2023 01:02 14,3 C 72 % 1015,3 hPa 0,0 l/m 0,0 km/h (0 Bft) N 0 9,3 C 14,3 C 0,0 km/h (0 Bft) 100,00 %
03.06.2023 01:01 14,3 C 72 % 1015,3 hPa 0,0 l/m 0,0 km/h (0 Bft) N 0 9,3 C 14,3 C 0,0 km/h (0 Bft) 100,00 %
03.06.2023 01:00 14,3 C 72 % 1015,3 hPa 0,0 l/m 0,0 km/h (0 Bft) O-NO 67 9,3 C 14,3 C 1,6 km/h (1 Bft) 100,00 %
03.06.2023 00:59 14,4 C 72 % 1015,4 hPa 0,0 l/m 0,0 km/h (0 Bft) N 0 9,4 C 14,4 C 0,0 km/h (0 Bft) 100,00 %
03.06.2023 00:58 14,4 C 71 % 1015,3 hPa 0,0 l/m 0,0 km/h (0 Bft) O-NO 67 9,2 C 14,4 C 1,6 km/h (1 Bft) 100,00 %
03.06.2023 00:57 14,4 C 71 % 1015,4 hPa 0,0 l/m 0,0 km/h (0 Bft) N 0 9,2 C 14,4 C 0,0 km/h (0 Bft) 100,00 %
03.06.2023 00:56 14,5 C 71 % 1015,3 hPa 0,0 l/m 0,0 km/h (0 Bft) N 0 9,3 C 14,5 C 0,0 km/h (0 Bft) 100,00 %
03.06.2023 00:55 14,5 C 71 % 1015,3 hPa 0,0 l/m 0,0 km/h (0 Bft) N 0 9,3 C 14,5 C 0,0 km/h (0 Bft) 100,00 %
03.06.2023 00:54 14,5 C 71 % 1015,3 hPa 0,0 l/m 0,0 km/h (0 Bft) N 0 9,3 C 14,5 C 0,0 km/h (0 Bft) 100,00 %
03.06.2023 00:53 14,5 C 71 % 1015,4 hPa 0,0 l/m 0,0 km/h (0 Bft) O-NO 67 9,3 C 14,5 C 3,2 km/h (1 Bft) 100,00 %
03.06.2023 00:52 14,6 C 71 % 1015,3 hPa 0,0 l/m 0,0 km/h (0 Bft) N-NO 22 9,4 C 14,6 C 1,6 km/h (1 Bft) 100,00 %
03.06.2023 00:51 14,6 C 71 % 1015,3 hPa 0,0 l/m 0,0 km/h (0 Bft) N-NW 337 9,4 C 14,6 C 1,6 km/h (1 Bft) 100,00 %
03.06.2023 00:50 14,6 C 71 % 1015,3 hPa 0,0 l/m 0,0 km/h (0 Bft) O 90 9,4 C 14,6 C 1,6 km/h (1 Bft) 100,00 %
03.06.2023 00:49 14,7 C 71 % 1015,3 hPa 0,0 l/m 0,0 km/h (0 Bft) N 0 9,5 C 14,7 C 0,0 km/h (0 Bft) 100,00 %
03.06.2023 00:48 14,7 C 71 % 1015,3 hPa 0,0 l/m 0,0 km/h (0 Bft) O 90 9,5 C 14,7 C 1,6 km/h (1 Bft) 65,22 %
03.06.2023 00:47 14,7 C 71 % 1015,4 hPa 0,0 l/m 0,0 km/h (0 Bft) O 90 9,5 C 14,7 C 1,6 km/h (1 Bft) 100,00 %
03.06.2023 00:46 14,7 C 71 % 1015,3 hPa 0,0 l/m 0,0 km/h (0 Bft) NO 45 9,5 C 14,7 C 1,6 km/h (1 Bft) 100,00 %
03.06.2023 00:45 14,7 C 71 % 1015,3 hPa 0,0 l/m 1,6 km/h (1 Bft) O-NO 67 9,5 C 14,7 C 3,2 km/h (1 Bft) 100,00 %
03.06.2023 00:44 14,7 C 71 % 1015,3 hPa 0,0 l/m 1,6 km/h (1 Bft) O-SO 112 9,5 C 14,7 C 4,8 km/h (1 Bft) 100,00 %
03.06.2023 00:43 14,7 C 71 % 1015,3 hPa 0,0 l/m 0,0 km/h (0 Bft) NO 45 9,5 C 14,7 C 1,6 km/h (1 Bft) 100,00 %
03.06.2023 00:42 14,7 C 71 % 1015,3 hPa 0,0 l/m 0,0 km/h (0 Bft) N 0 9,5 C 14,7 C 0,0 km/h (0 Bft) 100,00 %
03.06.2023 00:41 14,7 C 71 % 1015,3 hPa 0,0 l/m 0,0 km/h (0 Bft) N 0 9,5 C 14,7 C 0,0 km/h (0 Bft) 100,00 %
03.06.2023 00:40 14,7 C 71 % 1015,3 hPa 0,0 l/m 0,0 km/h (0 Bft) O 90 9,5 C 14,7 C 1,6 km/h (1 Bft) 100,00 %
03.06.2023 00:39 14,7 C 71 % 1015,4 hPa 0,0 l/m 0,0 km/h (0 Bft) O-NO 67 9,5 C 14,7 C 1,6 km/h (1 Bft) 100,00 %
03.06.2023 00:38 14,8 C 71 % 1015,3 hPa 0,0 l/m 0,0 km/h (0 Bft) N 0 9,6 C 14,8 C 0,0 km/h (0 Bft) 100,00 %
03.06.2023 00:37 14,8 C 71 % 1015,2 hPa 0,0 l/m 0,0 km/h (0 Bft) N 0 9,6 C 14,8 C 0,0 km/h (0 Bft) 100,00 %
03.06.2023 00:36 14,8 C 71 % 1015,3 hPa 0,0 l/m 0,0 km/h (0 Bft) N 0 9,6 C 14,8 C 0,0 km/h (0 Bft) 100,00 %
03.06.2023 00:35 14,8 C 71 % 1015,2 hPa 0,0 l/m 0,0 km/h (0 Bft) N 0 9,6 C 14,8 C 0,0 km/h (0 Bft) 100,00 %
03.06.2023 00:34 14,8 C 71 % 1015,3 hPa 0,0 l/m 0,0 km/h (0 Bft) N 0 9,6 C 14,8 C 0,0 km/h (0 Bft) 100,00 %
03.06.2023 00:33 14,8 C 71 % 1015,3 hPa 0,0 l/m 0,0 km/h (0 Bft) N 0 9,6 C 14,8 C 0,0 km/h (0 Bft) 100,00 %
03.06.2023 00:32 14,8 C 71 % 1015,4 hPa 0,0 l/m 0,0 km/h (0 Bft) O-NO 67 9,6 C 14,8 C 1,6 km/h (1 Bft) 100,00 %
03.06.2023 00:31 14,8 C 71 % 1015,3 hPa 0,0 l/m 0,0 km/h (0 Bft) N 0 9,6 C 14,8 C 0,0 km/h (0 Bft) 100,00 %
03.06.2023 00:30 14,8 C 71 % 1015,3 hPa 0,0 l/m 0,0 km/h (0 Bft) N 0 9,6 C 14,8 C 0,0 km/h (0 Bft) 100,00 %
03.06.2023 00:29 14,8 C 71 % 1015,3 hPa 0,0 l/m 0,0 km/h (0 Bft) O 90 9,6 C 14,8 C 1,6 km/h (1 Bft) 100,00 %
03.06.2023 00:28 14,9 C 71 % 1015,3 hPa 0,0 l/m 0,0 km/h (0 Bft) O 90 9,7 C 14,9 C 1,6 km/h (1 Bft) 100,00 %
03.06.2023 00:27 14,8 C 71 % 1015,4 hPa 0,0 l/m 0,0 km/h (0 Bft) N-NO 22 9,6 C 14,8 C 1,6 km/h (1 Bft) 100,00 %
03.06.2023 00:26 14,8 C 71 % 1015,3 hPa 0,0 l/m 0,0 km/h (0 Bft) N 0 9,6 C 14,8 C 0,0 km/h (0 Bft) 100,00 %
03.06.2023 00:25 14,8 C 71 % 1015,4 hPa 0,0 l/m 0,0 km/h (0 Bft) N 0 9,6 C 14,8 C 0,0 km/h (0 Bft) 100,00 %
03.06.2023 00:24 14,8 C 71 % 1015,4 hPa 0,0 l/m 0,0 km/h (0 Bft) N 0 9,6 C 14,8 C 0,0 km/h (0 Bft) 100,00 %
03.06.2023 00:23 14,8 C 71 % 1015,3 hPa 0,0 l/m 0,0 km/h (0 Bft) O-NO 67 9,6 C 14,8 C 1,6 km/h (1 Bft) 100,00 %
03.06.2023 00:22 14,8 C 71 % 1015,3 hPa 0,0 l/m 0,0 km/h (0 Bft) O-NO 67 9,6 C 14,8 C 1,6 km/h (1 Bft) 100,00 %
03.06.2023 00:21 14,8 C 71 % 1015,3 hPa 0,0 l/m 0,0 km/h (0 Bft) N 0 9,6 C 14,8 C 0,0 km/h (0 Bft) 100,00 %
03.06.2023 00:20 14,8 C 71 % 1015,3 hPa 0,0 l/m 0,0 km/h (0 Bft) O 90 9,6 C 14,8 C 3,2 km/h (1 Bft) 100,00 %
03.06.2023 00:19 14,8 C 71 % 1015,2 hPa 0,0 l/m 0,0 km/h (0 Bft) N 0 9,6 C 14,8 C 0,0 km/h (0 Bft) 100,00 %
03.06.2023 00:18 14,8 C 71 % 1015,3 hPa 0,0 l/m 0,0 km/h (0 Bft) SO 135 9,6 C 14,8 C 1,6 km/h (1 Bft) 100,00 %
03.06.2023 00:17 14,8 C 71 % 1015,3 hPa 0,0 l/m 0,0 km/h (0 Bft) N 0 9,6 C 14,8 C 0,0 km/h (0 Bft) 100,00 %
03.06.2023 00:16 14,8 C 71 % 1015,2 hPa 0,0 l/m 0,0 km/h (0 Bft) O 90 9,6 C 14,8 C 1,6 km/h (1 Bft) 100,00 %
03.06.2023 00:15 14,8 C 71 % 1015,2 hPa 0,0 l/m 0,0 km/h (0 Bft) O-NO 67 9,6 C 14,8 C 1,6 km/h (1 Bft) 100,00 %
03.06.2023 00:14 14,9 C 71 % 1015,3 hPa 0,0 l/m 0,0 km/h (0 Bft) O-NO 67 9,7 C 14,9 C 1,6 km/h (1 Bft) 100,00 %
03.06.2023 00:13 14,9 C 71 % 1015,3 hPa 0,0 l/m 0,0 km/h (0 Bft) SO 135 9,7 C 14,9 C 1,6 km/h (1 Bft) 100,00 %
03.06.2023 00:12 14,9 C 71 % 1015,2 hPa 0,0 l/m 0,0 km/h (0 Bft) O-NO 67 9,7 C 14,9 C 1,6 km/h (1 Bft) 100,00 %
03.06.2023 00:11 14,9 C 71 % 1015,2 hPa 0,0 l/m 1,6 km/h (1 Bft) O 90 9,7 C 14,9 C 4,8 km/h (1 Bft) 100,00 %
03.06.2023 00:10 14,9 C 71 % 1015,2 hPa 0,0 l/m 1,6 km/h (1 Bft) O 90 9,7 C 14,9 C 4,8 km/h (1 Bft) 100,00 %
03.06.2023 00:09 14,9 C 71 % 1015,3 hPa 0,0 l/m 0,0 km/h (0 Bft) W-NW 292 9,7 C 14,9 C 1,6 km/h (1 Bft) 100,00 %
03.06.2023 00:08 14,9 C 71 % 1015,2 hPa 0,0 l/m 0,0 km/h (0 Bft) O 90 9,7 C 14,9 C 1,6 km/h (1 Bft) 100,00 %
03.06.2023 00:07 14,9 C 72 % 1015,2 hPa 0,0 l/m 0,0 km/h (0 Bft) O 90 9,9 C 14,9 C 1,6 km/h (1 Bft) 100,00 %
03.06.2023 00:06 14,9 C 72 % 1015,2 hPa 0,0 l/m 0,0 km/h (0 Bft) O 90 9,9 C 14,9 C 1,6 km/h (1 Bft) 100,00 %
03.06.2023 00:05 14,9 C 72 % 1015,2 hPa 0,0 l/m 0,0 km/h (0 Bft) O 90 9,9 C 14,9 C 1,6 km/h (1 Bft) 100,00 %
03.06.2023 00:04 14,9 C 72 % 1015,3 hPa 0,0 l/m 0,0 km/h (0 Bft) O 90 9,9 C 14,9 C 1,6 km/h (1 Bft) 100,00 %
03.06.2023 00:03 14,9 C 71 % 1015,3 hPa 0,0 l/m 0,0 km/h (0 Bft) O-NO 67 9,7 C 14,9 C 1,6 km/h (1 Bft) 100,00 %
03.06.2023 00:02 15,0 C 71 % 1015,3 hPa 0,0 l/m 0,0 km/h (0 Bft) O-NO 67 9,8 C 15,0 C 1,6 km/h (1 Bft) 100,00 %
03.06.2023 00:01 15,0 C 71 % 1015,2 hPa 0,0 l/m 0,0 km/h (0 Bft) NO 45 9,8 C 15,0 C 1,6 km/h (1 Bft) 100,00 %
03.06.2023 00:00 15,1 C 71 % 1015,2 hPa 0,0 l/m 0,0 km/h (0 Bft) NO 45 9,9 C 15,1 C 1,6 km/h (1 Bft) 100,00 %
_ Min-Zeit 05:29 16:08 16:46 - 00:00 - - 10:03 04:27 00:17 12:38
Minimum _ 11,3 C 49 % 1015,1 hPa - 0,0 km/h (0 Bft) - - 6,6 C 9,4 C 0,0 km/h (0 Bft) 0,00 %
_ Max-Zeit 16:06 05:53 09:46 00:00 07:57 - - 14:05 16:05 09:03 00:00
Maximum _ 21,1 C 77 % 1017,3 hPa 0,0 l/m 12,9 km/h
O (3 Bft)
- - 10,9 C 21,0 C 27,4 km/h
O-NO (4 Bft)
100,00 %
Durchschnitt _ 15,3 C 65 % 1016,2 hPa #0,0 l/m 3,9 km/h (1 Bft) O - 8,7 C 15,1 C 8,9 km/h (2 Bft) 98,51 %